<?xml version="1.0" encoding="UTF-8" standalone="no" ?>
<gpx xmlns="http://www.topografix.com/GPX/1/1" xmlns:xsi="http://www.w3.org/2001/XMLSchema-instance" xsi:schemaLocation="http://www.topografix.com/GPX/1/1 http://www.topografix.com/GPX/1/1/gpx.xsd" version="1.1" creator="VisuGPX - https://www.visugpx.com">
  <metadata>
    <name>Le Pinet par Val Pousane retour par Pié Fourcha</name>
    <desc><![CDATA[Les copains randonneurs du 04
Au départ des Béliers à Le vernet (04)]]></desc>
  </metadata>
  <trk>
    <name><![CDATA[Le Pinet par Val Pousane retour par Pié Fourcha_1]]></name>
    <trkseg>
      <trkpt lat="44.27884" lon="6.4075">
        <ele>1268</ele>
        <time>2024-06-11T08:45:30+02:00</time>
      </trkpt>
      <trkpt lat="44.27884" lon="6.40749">
        <ele>1268</ele>
        <time>2024-06-11T08:45:35+02:00</time>
      </trkpt>
      <trkpt lat="44.27883" lon="6.40749">
        <ele>1268</ele>
        <time>2024-06-11T08:45:37+02:00</time>
      </trkpt>
      <trkpt lat="44.27886" lon="6.40751">
        <ele>1268</ele>
        <time>2024-06-11T08:46:02+02:00</time>
      </trkpt>
      <trkpt lat="44.27888" lon="6.40748">
        <ele>1268</ele>
        <time>2024-06-11T08:46:26+02:00</time>
      </trkpt>
      <trkpt lat="44.27883" lon="6.4075">
        <ele>1268</ele>
        <time>2024-06-11T08:46:45+02:00</time>
      </trkpt>
      <trkpt lat="44.27878" lon="6.40754">
        <ele>1268</ele>
        <time>2024-06-11T08:47:08+02:00</time>
      </trkpt>
      <trkpt lat="44.27878" lon="6.40744">
        <ele>1268</ele>
        <time>2024-06-11T08:47:27+02:00</time>
      </trkpt>
      <trkpt lat="44.27877" lon="6.40742">
        <ele>1268</ele>
        <time>2024-06-11T08:47:47+02:00</time>
      </trkpt>
      <trkpt lat="44.27878" lon="6.4074">
        <ele>1268</ele>
        <time>2024-06-11T08:48:02+02:00</time>
      </trkpt>
      <trkpt lat="44.27879" lon="6.40741">
        <ele>1268</ele>
        <time>2024-06-11T08:48:24+02:00</time>
      </trkpt>
      <trkpt lat="44.27879" lon="6.40741">
        <ele>1268</ele>
        <time>2024-06-11T08:48:26+02:00</time>
      </trkpt>
      <trkpt lat="44.27879" lon="6.40742">
        <ele>1268</ele>
        <time>2024-06-11T08:48:49+02:00</time>
      </trkpt>
      <trkpt lat="44.27882" lon="6.40735">
        <ele>1267</ele>
        <time>2024-06-11T08:49:11+02:00</time>
      </trkpt>
      <trkpt lat="44.27881" lon="6.40734">
        <ele>1267</ele>
        <time>2024-06-11T08:49:25+02:00</time>
      </trkpt>
      <trkpt lat="44.27871" lon="6.40746">
        <ele>1269</ele>
        <time>2024-06-11T08:49:41+02:00</time>
      </trkpt>
      <trkpt lat="44.27874" lon="6.40746">
        <ele>1268</ele>
        <time>2024-06-11T08:49:57+02:00</time>
      </trkpt>
      <trkpt lat="44.2788" lon="6.40746">
        <ele>1268</ele>
        <time>2024-06-11T08:50:11+02:00</time>
      </trkpt>
      <trkpt lat="44.27883" lon="6.40752">
        <ele>1268</ele>
        <time>2024-06-11T08:50:21+02:00</time>
      </trkpt>
      <trkpt lat="44.27885" lon="6.40759">
        <ele>1268</ele>
        <time>2024-06-11T08:50:41+02:00</time>
      </trkpt>
      <trkpt lat="44.2789" lon="6.40776">
        <ele>1269</ele>
        <time>2024-06-11T08:51:00+02:00</time>
      </trkpt>
      <trkpt lat="44.27898" lon="6.40796">
        <ele>1270</ele>
        <time>2024-06-11T08:51:19+02:00</time>
      </trkpt>
      <trkpt lat="44.27901" lon="6.40806">
        <ele>1271</ele>
        <time>2024-06-11T08:51:36+02:00</time>
      </trkpt>
      <trkpt lat="44.27905" lon="6.40809">
        <ele>1271</ele>
        <time>2024-06-11T08:51:55+02:00</time>
      </trkpt>
      <trkpt lat="44.279" lon="6.40804">
        <ele>1270</ele>
        <time>2024-06-11T08:52:21+02:00</time>
      </trkpt>
      <trkpt lat="44.27897" lon="6.40828">
        <ele>1272</ele>
        <time>2024-06-11T08:52:37+02:00</time>
      </trkpt>
      <trkpt lat="44.27901" lon="6.40861">
        <ele>1273</ele>
        <time>2024-06-11T08:52:57+02:00</time>
      </trkpt>
      <trkpt lat="44.27899" lon="6.40891">
        <ele>1274</ele>
        <time>2024-06-11T08:53:20+02:00</time>
      </trkpt>
      <trkpt lat="44.27896" lon="6.40921">
        <ele>1275</ele>
        <time>2024-06-11T08:53:42+02:00</time>
      </trkpt>
      <trkpt lat="44.27895" lon="6.40925">
        <ele>1276</ele>
        <time>2024-06-11T08:54:10+02:00</time>
      </trkpt>
      <trkpt lat="44.27889" lon="6.40955">
        <ele>1277</ele>
        <time>2024-06-11T08:54:32+02:00</time>
      </trkpt>
      <trkpt lat="44.27891" lon="6.40986">
        <ele>1278</ele>
        <time>2024-06-11T08:54:53+02:00</time>
      </trkpt>
      <trkpt lat="44.27891" lon="6.41001">
        <ele>1279</ele>
        <time>2024-06-11T08:55:10+02:00</time>
      </trkpt>
      <trkpt lat="44.27891" lon="6.41023">
        <ele>1279</ele>
        <time>2024-06-11T08:55:32+02:00</time>
      </trkpt>
      <trkpt lat="44.2789" lon="6.41052">
        <ele>1281</ele>
        <time>2024-06-11T08:55:53+02:00</time>
      </trkpt>
      <trkpt lat="44.2789" lon="6.41078">
        <ele>1281</ele>
        <time>2024-06-11T08:56:12+02:00</time>
      </trkpt>
      <trkpt lat="44.2789" lon="6.41108">
        <ele>1280</ele>
        <time>2024-06-11T08:56:31+02:00</time>
      </trkpt>
      <trkpt lat="44.27891" lon="6.41141">
        <ele>1280</ele>
        <time>2024-06-11T08:56:52+02:00</time>
      </trkpt>
      <trkpt lat="44.27895" lon="6.4118">
        <ele>1280</ele>
        <time>2024-06-11T08:57:15+02:00</time>
      </trkpt>
      <trkpt lat="44.27892" lon="6.41188">
        <ele>1280</ele>
        <time>2024-06-11T08:57:31+02:00</time>
      </trkpt>
      <trkpt lat="44.27895" lon="6.41193">
        <ele>1280</ele>
        <time>2024-06-11T08:57:48+02:00</time>
      </trkpt>
      <trkpt lat="44.27895" lon="6.41196">
        <ele>1280</ele>
        <time>2024-06-11T08:57:50+02:00</time>
      </trkpt>
      <trkpt lat="44.27893" lon="6.41216">
        <ele>1281</ele>
        <time>2024-06-11T08:58:04+02:00</time>
      </trkpt>
      <trkpt lat="44.27897" lon="6.41232">
        <ele>1281</ele>
        <time>2024-06-11T08:58:23+02:00</time>
      </trkpt>
      <trkpt lat="44.27909" lon="6.41247">
        <ele>1280</ele>
        <time>2024-06-11T08:58:43+02:00</time>
      </trkpt>
      <trkpt lat="44.27919" lon="6.41262">
        <ele>1281</ele>
        <time>2024-06-11T08:59:02+02:00</time>
      </trkpt>
      <trkpt lat="44.27926" lon="6.41263">
        <ele>1282</ele>
        <time>2024-06-11T08:59:17+02:00</time>
      </trkpt>
      <trkpt lat="44.27929" lon="6.41288">
        <ele>1284</ele>
        <time>2024-06-11T08:59:37+02:00</time>
      </trkpt>
      <trkpt lat="44.27942" lon="6.4132">
        <ele>1287</ele>
        <time>2024-06-11T08:59:59+02:00</time>
      </trkpt>
      <trkpt lat="44.27949" lon="6.41356">
        <ele>1290</ele>
        <time>2024-06-11T09:00:22+02:00</time>
      </trkpt>
      <trkpt lat="44.27958" lon="6.41387">
        <ele>1294</ele>
        <time>2024-06-11T09:00:44+02:00</time>
      </trkpt>
      <trkpt lat="44.27962" lon="6.41418">
        <ele>1296</ele>
        <time>2024-06-11T09:01:05+02:00</time>
      </trkpt>
      <trkpt lat="44.27967" lon="6.41447">
        <ele>1299</ele>
        <time>2024-06-11T09:01:26+02:00</time>
      </trkpt>
      <trkpt lat="44.27979" lon="6.41474">
        <ele>1303</ele>
        <time>2024-06-11T09:01:46+02:00</time>
      </trkpt>
      <trkpt lat="44.27984" lon="6.41498">
        <ele>1307</ele>
        <time>2024-06-11T09:02:06+02:00</time>
      </trkpt>
      <trkpt lat="44.27981" lon="6.41523">
        <ele>1310</ele>
        <time>2024-06-11T09:02:24+02:00</time>
      </trkpt>
      <trkpt lat="44.27978" lon="6.41549">
        <ele>1314</ele>
        <time>2024-06-11T09:02:44+02:00</time>
      </trkpt>
      <trkpt lat="44.27975" lon="6.41573">
        <ele>1317</ele>
        <time>2024-06-11T09:03:02+02:00</time>
      </trkpt>
      <trkpt lat="44.27972" lon="6.41605">
        <ele>1319</ele>
        <time>2024-06-11T09:03:21+02:00</time>
      </trkpt>
      <trkpt lat="44.27972" lon="6.41628">
        <ele>1321</ele>
        <time>2024-06-11T09:03:40+02:00</time>
      </trkpt>
      <trkpt lat="44.27974" lon="6.41652">
        <ele>1323</ele>
        <time>2024-06-11T09:03:57+02:00</time>
      </trkpt>
      <trkpt lat="44.27976" lon="6.41682">
        <ele>1322</ele>
        <time>2024-06-11T09:04:17+02:00</time>
      </trkpt>
      <trkpt lat="44.27984" lon="6.41709">
        <ele>1324</ele>
        <time>2024-06-11T09:04:37+02:00</time>
      </trkpt>
      <trkpt lat="44.27993" lon="6.41736">
        <ele>1326</ele>
        <time>2024-06-11T09:04:59+02:00</time>
      </trkpt>
      <trkpt lat="44.27987" lon="6.41762">
        <ele>1324</ele>
        <time>2024-06-11T09:05:18+02:00</time>
      </trkpt>
      <trkpt lat="44.27976" lon="6.41789">
        <ele>1324</ele>
        <time>2024-06-11T09:05:35+02:00</time>
      </trkpt>
      <trkpt lat="44.27957" lon="6.41804">
        <ele>1326</ele>
        <time>2024-06-11T09:05:55+02:00</time>
      </trkpt>
      <trkpt lat="44.27939" lon="6.41814">
        <ele>1329</ele>
        <time>2024-06-11T09:06:15+02:00</time>
      </trkpt>
      <trkpt lat="44.27924" lon="6.4182">
        <ele>1330</ele>
        <time>2024-06-11T09:06:33+02:00</time>
      </trkpt>
      <trkpt lat="44.27911" lon="6.41827">
        <ele>1333</ele>
        <time>2024-06-11T09:06:50+02:00</time>
      </trkpt>
      <trkpt lat="44.27901" lon="6.41838">
        <ele>1336</ele>
        <time>2024-06-11T09:07:04+02:00</time>
      </trkpt>
      <trkpt lat="44.27895" lon="6.41842">
        <ele>1337</ele>
        <time>2024-06-11T09:07:18+02:00</time>
      </trkpt>
      <trkpt lat="44.27892" lon="6.41847">
        <ele>1338</ele>
        <time>2024-06-11T09:07:43+02:00</time>
      </trkpt>
      <trkpt lat="44.27898" lon="6.41845">
        <ele>1338</ele>
        <time>2024-06-11T09:08:00+02:00</time>
      </trkpt>
      <trkpt lat="44.27907" lon="6.41848">
        <ele>1340</ele>
        <time>2024-06-11T09:08:11+02:00</time>
      </trkpt>
      <trkpt lat="44.2792" lon="6.41845">
        <ele>1339</ele>
        <time>2024-06-11T09:08:26+02:00</time>
      </trkpt>
      <trkpt lat="44.27929" lon="6.41848">
        <ele>1338</ele>
        <time>2024-06-11T09:08:41+02:00</time>
      </trkpt>
      <trkpt lat="44.27943" lon="6.41858">
        <ele>1338</ele>
        <time>2024-06-11T09:08:58+02:00</time>
      </trkpt>
      <trkpt lat="44.27955" lon="6.4188">
        <ele>1339</ele>
        <time>2024-06-11T09:09:18+02:00</time>
      </trkpt>
      <trkpt lat="44.27957" lon="6.41903">
        <ele>1343</ele>
        <time>2024-06-11T09:09:35+02:00</time>
      </trkpt>
      <trkpt lat="44.2796" lon="6.4193">
        <ele>1345</ele>
        <time>2024-06-11T09:09:54+02:00</time>
      </trkpt>
      <trkpt lat="44.27958" lon="6.41945">
        <ele>1347</ele>
        <time>2024-06-11T09:10:04+02:00</time>
      </trkpt>
      <trkpt lat="44.27957" lon="6.41962">
        <ele>1350</ele>
        <time>2024-06-11T09:10:19+02:00</time>
      </trkpt>
      <trkpt lat="44.27962" lon="6.41989">
        <ele>1354</ele>
        <time>2024-06-11T09:10:39+02:00</time>
      </trkpt>
      <trkpt lat="44.27968" lon="6.42015">
        <ele>1357</ele>
        <time>2024-06-11T09:10:59+02:00</time>
      </trkpt>
      <trkpt lat="44.27968" lon="6.42017">
        <ele>1358</ele>
        <time>2024-06-11T09:11:00+02:00</time>
      </trkpt>
      <trkpt lat="44.27971" lon="6.42046">
        <ele>1362</ele>
        <time>2024-06-11T09:11:21+02:00</time>
      </trkpt>
      <trkpt lat="44.27977" lon="6.42069">
        <ele>1365</ele>
        <time>2024-06-11T09:11:39+02:00</time>
      </trkpt>
      <trkpt lat="44.2798" lon="6.42094">
        <ele>1370</ele>
        <time>2024-06-11T09:11:56+02:00</time>
      </trkpt>
      <trkpt lat="44.27986" lon="6.42106">
        <ele>1371</ele>
        <time>2024-06-11T09:12:14+02:00</time>
      </trkpt>
      <trkpt lat="44.27994" lon="6.4213">
        <ele>1375</ele>
        <time>2024-06-11T09:12:33+02:00</time>
      </trkpt>
      <trkpt lat="44.28009" lon="6.42155">
        <ele>1374</ele>
        <time>2024-06-11T09:12:55+02:00</time>
      </trkpt>
      <trkpt lat="44.2802" lon="6.42177">
        <ele>1374</ele>
        <time>2024-06-11T09:13:14+02:00</time>
      </trkpt>
      <trkpt lat="44.2802" lon="6.42204">
        <ele>1378</ele>
        <time>2024-06-11T09:13:34+02:00</time>
      </trkpt>
      <trkpt lat="44.28007" lon="6.42206">
        <ele>1381</ele>
        <time>2024-06-11T09:13:49+02:00</time>
      </trkpt>
      <trkpt lat="44.28007" lon="6.42205">
        <ele>1381</ele>
        <time>2024-06-11T09:13:50+02:00</time>
      </trkpt>
      <trkpt lat="44.27997" lon="6.42186">
        <ele>1382</ele>
        <time>2024-06-11T09:14:09+02:00</time>
      </trkpt>
      <trkpt lat="44.27998" lon="6.42183">
        <ele>1381</ele>
        <time>2024-06-11T09:14:11+02:00</time>
      </trkpt>
      <trkpt lat="44.27985" lon="6.4216">
        <ele>1384</ele>
        <time>2024-06-11T09:14:31+02:00</time>
      </trkpt>
      <trkpt lat="44.27971" lon="6.42146">
        <ele>1386</ele>
        <time>2024-06-11T09:14:49+02:00</time>
      </trkpt>
      <trkpt lat="44.27956" lon="6.4214">
        <ele>1391</ele>
        <time>2024-06-11T09:15:04+02:00</time>
      </trkpt>
      <trkpt lat="44.27947" lon="6.42134">
        <ele>1393</ele>
        <time>2024-06-11T09:15:18+02:00</time>
      </trkpt>
      <trkpt lat="44.2794" lon="6.42119">
        <ele>1392</ele>
        <time>2024-06-11T09:15:31+02:00</time>
      </trkpt>
      <trkpt lat="44.2794" lon="6.4211">
        <ele>1389</ele>
        <time>2024-06-11T09:15:53+02:00</time>
      </trkpt>
      <trkpt lat="44.27932" lon="6.42083">
        <ele>1389</ele>
        <time>2024-06-11T09:16:12+02:00</time>
      </trkpt>
      <trkpt lat="44.27918" lon="6.42064">
        <ele>1396</ele>
        <time>2024-06-11T09:16:31+02:00</time>
      </trkpt>
      <trkpt lat="44.27914" lon="6.42059">
        <ele>1397</ele>
        <time>2024-06-11T09:16:36+02:00</time>
      </trkpt>
      <trkpt lat="44.27906" lon="6.42046">
        <ele>1398</ele>
        <time>2024-06-11T09:16:49+02:00</time>
      </trkpt>
      <trkpt lat="44.27903" lon="6.42032">
        <ele>1397</ele>
        <time>2024-06-11T09:17:04+02:00</time>
      </trkpt>
      <trkpt lat="44.27903" lon="6.42029">
        <ele>1396</ele>
        <time>2024-06-11T09:17:21+02:00</time>
      </trkpt>
      <trkpt lat="44.27902" lon="6.42035">
        <ele>1398</ele>
        <time>2024-06-11T09:17:32+02:00</time>
      </trkpt>
      <trkpt lat="44.27899" lon="6.42036">
        <ele>1399</ele>
        <time>2024-06-11T09:17:51+02:00</time>
      </trkpt>
      <trkpt lat="44.27899" lon="6.4204">
        <ele>1399</ele>
        <time>2024-06-11T09:18:20+02:00</time>
      </trkpt>
      <trkpt lat="44.27897" lon="6.42035">
        <ele>1399</ele>
        <time>2024-06-11T09:18:39+02:00</time>
      </trkpt>
      <trkpt lat="44.27896" lon="6.42034">
        <ele>1400</ele>
        <time>2024-06-11T09:19:03+02:00</time>
      </trkpt>
      <trkpt lat="44.27896" lon="6.42033">
        <ele>1399</ele>
        <time>2024-06-11T09:19:29+02:00</time>
      </trkpt>
      <trkpt lat="44.27896" lon="6.42036">
        <ele>1400</ele>
        <time>2024-06-11T09:19:51+02:00</time>
      </trkpt>
      <trkpt lat="44.27896" lon="6.42037">
        <ele>1400</ele>
        <time>2024-06-11T09:20:15+02:00</time>
      </trkpt>
      <trkpt lat="44.27897" lon="6.42033">
        <ele>1399</ele>
        <time>2024-06-11T09:20:36+02:00</time>
      </trkpt>
      <trkpt lat="44.27886" lon="6.42038">
        <ele>1402</ele>
        <time>2024-06-11T09:20:52+02:00</time>
      </trkpt>
      <trkpt lat="44.27881" lon="6.4204">
        <ele>1401</ele>
        <time>2024-06-11T09:21:10+02:00</time>
      </trkpt>
      <trkpt lat="44.27883" lon="6.42039">
        <ele>1401</ele>
        <time>2024-06-11T09:21:35+02:00</time>
      </trkpt>
      <trkpt lat="44.27882" lon="6.42042">
        <ele>1402</ele>
        <time>2024-06-11T09:21:58+02:00</time>
      </trkpt>
      <trkpt lat="44.27876" lon="6.42063">
        <ele>1405</ele>
        <time>2024-06-11T09:22:18+02:00</time>
      </trkpt>
      <trkpt lat="44.27867" lon="6.42081">
        <ele>1409</ele>
        <time>2024-06-11T09:22:34+02:00</time>
      </trkpt>
      <trkpt lat="44.2785" lon="6.42102">
        <ele>1412</ele>
        <time>2024-06-11T09:22:54+02:00</time>
      </trkpt>
      <trkpt lat="44.27836" lon="6.42118">
        <ele>1412</ele>
        <time>2024-06-11T09:23:14+02:00</time>
      </trkpt>
      <trkpt lat="44.27826" lon="6.42136">
        <ele>1414</ele>
        <time>2024-06-11T09:23:32+02:00</time>
      </trkpt>
      <trkpt lat="44.27821" lon="6.42166">
        <ele>1418</ele>
        <time>2024-06-11T09:23:52+02:00</time>
      </trkpt>
      <trkpt lat="44.27819" lon="6.42191">
        <ele>1421</ele>
        <time>2024-06-11T09:24:11+02:00</time>
      </trkpt>
      <trkpt lat="44.27822" lon="6.42218">
        <ele>1425</ele>
        <time>2024-06-11T09:24:31+02:00</time>
      </trkpt>
      <trkpt lat="44.27823" lon="6.42226">
        <ele>1426</ele>
        <time>2024-06-11T09:24:35+02:00</time>
      </trkpt>
      <trkpt lat="44.27825" lon="6.42248">
        <ele>1428</ele>
        <time>2024-06-11T09:24:53+02:00</time>
      </trkpt>
      <trkpt lat="44.27832" lon="6.42277">
        <ele>1428</ele>
        <time>2024-06-11T09:25:13+02:00</time>
      </trkpt>
      <trkpt lat="44.27833" lon="6.42309">
        <ele>1433</ele>
        <time>2024-06-11T09:25:36+02:00</time>
      </trkpt>
      <trkpt lat="44.27831" lon="6.42338">
        <ele>1438</ele>
        <time>2024-06-11T09:25:57+02:00</time>
      </trkpt>
      <trkpt lat="44.27821" lon="6.42362">
        <ele>1438</ele>
        <time>2024-06-11T09:26:15+02:00</time>
      </trkpt>
      <trkpt lat="44.27812" lon="6.4238">
        <ele>1440</ele>
        <time>2024-06-11T09:26:34+02:00</time>
      </trkpt>
      <trkpt lat="44.27799" lon="6.42402">
        <ele>1442</ele>
        <time>2024-06-11T09:26:55+02:00</time>
      </trkpt>
      <trkpt lat="44.27781" lon="6.42416">
        <ele>1440</ele>
        <time>2024-06-11T09:27:15+02:00</time>
      </trkpt>
      <trkpt lat="44.27773" lon="6.42436">
        <ele>1445</ele>
        <time>2024-06-11T09:27:32+02:00</time>
      </trkpt>
      <trkpt lat="44.27773" lon="6.42438">
        <ele>1446</ele>
        <time>2024-06-11T09:27:34+02:00</time>
      </trkpt>
      <trkpt lat="44.27775" lon="6.4244">
        <ele>1446</ele>
        <time>2024-06-11T09:27:36+02:00</time>
      </trkpt>
      <trkpt lat="44.27782" lon="6.42439">
        <ele>1447</ele>
        <time>2024-06-11T09:27:44+02:00</time>
      </trkpt>
      <trkpt lat="44.27797" lon="6.42422">
        <ele>1449</ele>
        <time>2024-06-11T09:28:03+02:00</time>
      </trkpt>
      <trkpt lat="44.27812" lon="6.42409">
        <ele>1452</ele>
        <time>2024-06-11T09:28:21+02:00</time>
      </trkpt>
      <trkpt lat="44.27826" lon="6.42395">
        <ele>1455</ele>
        <time>2024-06-11T09:28:38+02:00</time>
      </trkpt>
      <trkpt lat="44.27841" lon="6.42381">
        <ele>1459</ele>
        <time>2024-06-11T09:28:57+02:00</time>
      </trkpt>
      <trkpt lat="44.27857" lon="6.42363">
        <ele>1465</ele>
        <time>2024-06-11T09:29:20+02:00</time>
      </trkpt>
      <trkpt lat="44.2787" lon="6.42348">
        <ele>1467</ele>
        <time>2024-06-11T09:29:40+02:00</time>
      </trkpt>
      <trkpt lat="44.27878" lon="6.42334">
        <ele>1466</ele>
        <time>2024-06-11T09:29:53+02:00</time>
      </trkpt>
      <trkpt lat="44.27884" lon="6.42327">
        <ele>1466</ele>
        <time>2024-06-11T09:30:00+02:00</time>
      </trkpt>
      <trkpt lat="44.27897" lon="6.42325">
        <ele>1464</ele>
        <time>2024-06-11T09:30:19+02:00</time>
      </trkpt>
      <trkpt lat="44.27895" lon="6.42338">
        <ele>1468</ele>
        <time>2024-06-11T09:30:36+02:00</time>
      </trkpt>
      <trkpt lat="44.27879" lon="6.42352">
        <ele>1470</ele>
        <time>2024-06-11T09:30:57+02:00</time>
      </trkpt>
      <trkpt lat="44.27872" lon="6.42367">
        <ele>1472</ele>
        <time>2024-06-11T09:31:18+02:00</time>
      </trkpt>
      <trkpt lat="44.27873" lon="6.42371">
        <ele>1473</ele>
        <time>2024-06-11T09:31:43+02:00</time>
      </trkpt>
      <trkpt lat="44.27874" lon="6.4237">
        <ele>1474</ele>
        <time>2024-06-11T09:32:09+02:00</time>
      </trkpt>
      <trkpt lat="44.27874" lon="6.42371">
        <ele>1474</ele>
        <time>2024-06-11T09:32:10+02:00</time>
      </trkpt>
      <trkpt lat="44.27874" lon="6.42371">
        <ele>1474</ele>
        <time>2024-06-11T09:32:12+02:00</time>
      </trkpt>
      <trkpt lat="44.27874" lon="6.4237">
        <ele>1474</ele>
        <time>2024-06-11T09:32:14+02:00</time>
      </trkpt>
      <trkpt lat="44.27876" lon="6.42368">
        <ele>1473</ele>
        <time>2024-06-11T09:32:51+02:00</time>
      </trkpt>
      <trkpt lat="44.27873" lon="6.42367">
        <ele>1472</ele>
        <time>2024-06-11T09:33:07+02:00</time>
      </trkpt>
      <trkpt lat="44.27872" lon="6.42368">
        <ele>1472</ele>
        <time>2024-06-11T09:33:28+02:00</time>
      </trkpt>
      <trkpt lat="44.27873" lon="6.4237">
        <ele>1473</ele>
        <time>2024-06-11T09:33:54+02:00</time>
      </trkpt>
      <trkpt lat="44.27864" lon="6.42386">
        <ele>1475</ele>
        <time>2024-06-11T09:34:13+02:00</time>
      </trkpt>
      <trkpt lat="44.27855" lon="6.42404">
        <ele>1475</ele>
        <time>2024-06-11T09:34:32+02:00</time>
      </trkpt>
      <trkpt lat="44.27844" lon="6.42425">
        <ele>1477</ele>
        <time>2024-06-11T09:34:50+02:00</time>
      </trkpt>
      <trkpt lat="44.27849" lon="6.4243">
        <ele>1480</ele>
        <time>2024-06-11T09:35:21+02:00</time>
      </trkpt>
      <trkpt lat="44.27849" lon="6.42432">
        <ele>1481</ele>
        <time>2024-06-11T09:35:50+02:00</time>
      </trkpt>
      <trkpt lat="44.27851" lon="6.42438">
        <ele>1483</ele>
        <time>2024-06-11T09:36:27+02:00</time>
      </trkpt>
      <trkpt lat="44.27848" lon="6.42435">
        <ele>1481</ele>
        <time>2024-06-11T09:36:53+02:00</time>
      </trkpt>
      <trkpt lat="44.2784" lon="6.42446">
        <ele>1482</ele>
        <time>2024-06-11T09:37:19+02:00</time>
      </trkpt>
      <trkpt lat="44.27833" lon="6.42456">
        <ele>1483</ele>
        <time>2024-06-11T09:37:32+02:00</time>
      </trkpt>
      <trkpt lat="44.27818" lon="6.42475">
        <ele>1482</ele>
        <time>2024-06-11T09:37:49+02:00</time>
      </trkpt>
      <trkpt lat="44.2781" lon="6.42493">
        <ele>1481</ele>
        <time>2024-06-11T09:38:08+02:00</time>
      </trkpt>
      <trkpt lat="44.27808" lon="6.42506">
        <ele>1483</ele>
        <time>2024-06-11T09:38:24+02:00</time>
      </trkpt>
      <trkpt lat="44.27801" lon="6.42538">
        <ele>1488</ele>
        <time>2024-06-11T09:38:44+02:00</time>
      </trkpt>
      <trkpt lat="44.27795" lon="6.42571">
        <ele>1494</ele>
        <time>2024-06-11T09:39:05+02:00</time>
      </trkpt>
      <trkpt lat="44.27775" lon="6.42583">
        <ele>1492</ele>
        <time>2024-06-11T09:39:24+02:00</time>
      </trkpt>
      <trkpt lat="44.27751" lon="6.42603">
        <ele>1494</ele>
        <time>2024-06-11T09:39:47+02:00</time>
      </trkpt>
      <trkpt lat="44.27739" lon="6.4262">
        <ele>1499</ele>
        <time>2024-06-11T09:40:07+02:00</time>
      </trkpt>
      <trkpt lat="44.27739" lon="6.42623">
        <ele>1499</ele>
        <time>2024-06-11T09:40:27+02:00</time>
      </trkpt>
      <trkpt lat="44.27741" lon="6.42622">
        <ele>1499</ele>
        <time>2024-06-11T09:40:39+02:00</time>
      </trkpt>
      <trkpt lat="44.27738" lon="6.42626">
        <ele>1500</ele>
        <time>2024-06-11T09:40:54+02:00</time>
      </trkpt>
      <trkpt lat="44.2774" lon="6.42629">
        <ele>1500</ele>
        <time>2024-06-11T09:41:18+02:00</time>
      </trkpt>
      <trkpt lat="44.27743" lon="6.42628">
        <ele>1500</ele>
        <time>2024-06-11T09:41:43+02:00</time>
      </trkpt>
      <trkpt lat="44.27741" lon="6.42632">
        <ele>1501</ele>
        <time>2024-06-11T09:42:02+02:00</time>
      </trkpt>
      <trkpt lat="44.27754" lon="6.42648">
        <ele>1506</ele>
        <time>2024-06-11T09:42:20+02:00</time>
      </trkpt>
      <trkpt lat="44.27766" lon="6.42649">
        <ele>1507</ele>
        <time>2024-06-11T09:42:38+02:00</time>
      </trkpt>
      <trkpt lat="44.27782" lon="6.42645">
        <ele>1509</ele>
        <time>2024-06-11T09:42:53+02:00</time>
      </trkpt>
      <trkpt lat="44.27788" lon="6.42642">
        <ele>1510</ele>
        <time>2024-06-11T09:42:59+02:00</time>
      </trkpt>
      <trkpt lat="44.27801" lon="6.42634">
        <ele>1512</ele>
        <time>2024-06-11T09:43:12+02:00</time>
      </trkpt>
      <trkpt lat="44.27815" lon="6.42618">
        <ele>1512</ele>
        <time>2024-06-11T09:43:30+02:00</time>
      </trkpt>
      <trkpt lat="44.27827" lon="6.42609">
        <ele>1514</ele>
        <time>2024-06-11T09:43:43+02:00</time>
      </trkpt>
      <trkpt lat="44.27831" lon="6.42593">
        <ele>1512</ele>
        <time>2024-06-11T09:43:59+02:00</time>
      </trkpt>
      <trkpt lat="44.27842" lon="6.42593">
        <ele>1516</ele>
        <time>2024-06-11T09:44:15+02:00</time>
      </trkpt>
      <trkpt lat="44.27853" lon="6.42596">
        <ele>1520</ele>
        <time>2024-06-11T09:44:25+02:00</time>
      </trkpt>
      <trkpt lat="44.27869" lon="6.42592">
        <ele>1524</ele>
        <time>2024-06-11T09:44:39+02:00</time>
      </trkpt>
      <trkpt lat="44.27888" lon="6.42575">
        <ele>1526</ele>
        <time>2024-06-11T09:44:59+02:00</time>
      </trkpt>
      <trkpt lat="44.27906" lon="6.42567">
        <ele>1526</ele>
        <time>2024-06-11T09:45:17+02:00</time>
      </trkpt>
      <trkpt lat="44.27922" lon="6.42569">
        <ele>1528</ele>
        <time>2024-06-11T09:45:36+02:00</time>
      </trkpt>
      <trkpt lat="44.27912" lon="6.42585">
        <ele>1533</ele>
        <time>2024-06-11T09:45:51+02:00</time>
      </trkpt>
      <trkpt lat="44.27892" lon="6.42598">
        <ele>1532</ele>
        <time>2024-06-11T09:46:12+02:00</time>
      </trkpt>
      <trkpt lat="44.27886" lon="6.42606">
        <ele>1532</ele>
        <time>2024-06-11T09:46:21+02:00</time>
      </trkpt>
      <trkpt lat="44.27871" lon="6.42633">
        <ele>1533</ele>
        <time>2024-06-11T09:46:43+02:00</time>
      </trkpt>
      <trkpt lat="44.27871" lon="6.42634">
        <ele>1533</ele>
        <time>2024-06-11T09:46:44+02:00</time>
      </trkpt>
      <trkpt lat="44.27858" lon="6.42673">
        <ele>1538</ele>
        <time>2024-06-11T09:47:09+02:00</time>
      </trkpt>
      <trkpt lat="44.27846" lon="6.42691">
        <ele>1539</ele>
        <time>2024-06-11T09:47:28+02:00</time>
      </trkpt>
      <trkpt lat="44.27834" lon="6.42713">
        <ele>1542</ele>
        <time>2024-06-11T09:47:48+02:00</time>
      </trkpt>
      <trkpt lat="44.27818" lon="6.42741">
        <ele>1546</ele>
        <time>2024-06-11T09:48:08+02:00</time>
      </trkpt>
      <trkpt lat="44.27806" lon="6.42755">
        <ele>1546</ele>
        <time>2024-06-11T09:48:28+02:00</time>
      </trkpt>
      <trkpt lat="44.27796" lon="6.42767">
        <ele>1548</ele>
        <time>2024-06-11T09:48:45+02:00</time>
      </trkpt>
      <trkpt lat="44.27777" lon="6.42797">
        <ele>1550</ele>
        <time>2024-06-11T09:49:07+02:00</time>
      </trkpt>
      <trkpt lat="44.27765" lon="6.42824">
        <ele>1552</ele>
        <time>2024-06-11T09:49:27+02:00</time>
      </trkpt>
      <trkpt lat="44.27756" lon="6.42842">
        <ele>1554</ele>
        <time>2024-06-11T09:49:42+02:00</time>
      </trkpt>
      <trkpt lat="44.27739" lon="6.42863">
        <ele>1556</ele>
        <time>2024-06-11T09:50:03+02:00</time>
      </trkpt>
      <trkpt lat="44.2773" lon="6.42875">
        <ele>1556</ele>
        <time>2024-06-11T09:50:20+02:00</time>
      </trkpt>
      <trkpt lat="44.27718" lon="6.429">
        <ele>1558</ele>
        <time>2024-06-11T09:50:39+02:00</time>
      </trkpt>
      <trkpt lat="44.27713" lon="6.42918">
        <ele>1560</ele>
        <time>2024-06-11T09:50:56+02:00</time>
      </trkpt>
      <trkpt lat="44.27715" lon="6.42921">
        <ele>1560</ele>
        <time>2024-06-11T09:51:01+02:00</time>
      </trkpt>
      <trkpt lat="44.27726" lon="6.42924">
        <ele>1561</ele>
        <time>2024-06-11T09:51:19+02:00</time>
      </trkpt>
      <trkpt lat="44.27728" lon="6.42923">
        <ele>1562</ele>
        <time>2024-06-11T09:51:44+02:00</time>
      </trkpt>
      <trkpt lat="44.2773" lon="6.42923">
        <ele>1562</ele>
        <time>2024-06-11T09:52:04+02:00</time>
      </trkpt>
      <trkpt lat="44.2773" lon="6.42923">
        <ele>1562</ele>
        <time>2024-06-11T09:52:21+02:00</time>
      </trkpt>
      <trkpt lat="44.2773" lon="6.42925">
        <ele>1562</ele>
        <time>2024-06-11T09:52:42+02:00</time>
      </trkpt>
      <trkpt lat="44.2773" lon="6.4292">
        <ele>1562</ele>
        <time>2024-06-11T09:53:03+02:00</time>
      </trkpt>
      <trkpt lat="44.27728" lon="6.42923">
        <ele>1561</ele>
        <time>2024-06-11T09:53:20+02:00</time>
      </trkpt>
      <trkpt lat="44.2773" lon="6.42927">
        <ele>1562</ele>
        <time>2024-06-11T09:53:34+02:00</time>
      </trkpt>
      <trkpt lat="44.27732" lon="6.42927">
        <ele>1563</ele>
        <time>2024-06-11T09:53:52+02:00</time>
      </trkpt>
      <trkpt lat="44.27731" lon="6.42928">
        <ele>1563</ele>
        <time>2024-06-11T09:54:08+02:00</time>
      </trkpt>
      <trkpt lat="44.27733" lon="6.42928">
        <ele>1563</ele>
        <time>2024-06-11T09:54:29+02:00</time>
      </trkpt>
      <trkpt lat="44.27733" lon="6.42927">
        <ele>1563</ele>
        <time>2024-06-11T09:54:58+02:00</time>
      </trkpt>
      <trkpt lat="44.27733" lon="6.42927">
        <ele>1563</ele>
        <time>2024-06-11T09:55:29+02:00</time>
      </trkpt>
      <trkpt lat="44.27729" lon="6.42929">
        <ele>1562</ele>
        <time>2024-06-11T09:55:43+02:00</time>
      </trkpt>
      <trkpt lat="44.27729" lon="6.42928">
        <ele>1562</ele>
        <time>2024-06-11T09:55:46+02:00</time>
      </trkpt>
      <trkpt lat="44.27726" lon="6.42928">
        <ele>1561</ele>
        <time>2024-06-11T09:56:01+02:00</time>
      </trkpt>
      <trkpt lat="44.27721" lon="6.42934">
        <ele>1561</ele>
        <time>2024-06-11T09:56:16+02:00</time>
      </trkpt>
      <trkpt lat="44.27719" lon="6.42933">
        <ele>1561</ele>
        <time>2024-06-11T09:56:19+02:00</time>
      </trkpt>
      <trkpt lat="44.27701" lon="6.42939">
        <ele>1560</ele>
        <time>2024-06-11T09:56:37+02:00</time>
      </trkpt>
      <trkpt lat="44.27697" lon="6.42942">
        <ele>1560</ele>
        <time>2024-06-11T09:56:41+02:00</time>
      </trkpt>
      <trkpt lat="44.27682" lon="6.4295">
        <ele>1560</ele>
        <time>2024-06-11T09:56:57+02:00</time>
      </trkpt>
      <trkpt lat="44.2768" lon="6.42956">
        <ele>1560</ele>
        <time>2024-06-11T09:57:14+02:00</time>
      </trkpt>
      <trkpt lat="44.2768" lon="6.42959">
        <ele>1560</ele>
        <time>2024-06-11T09:57:35+02:00</time>
      </trkpt>
      <trkpt lat="44.27687" lon="6.42953">
        <ele>1560</ele>
        <time>2024-06-11T09:57:52+02:00</time>
      </trkpt>
      <trkpt lat="44.27687" lon="6.42952">
        <ele>1560</ele>
        <time>2024-06-11T09:57:53+02:00</time>
      </trkpt>
      <trkpt lat="44.27702" lon="6.42954">
        <ele>1561</ele>
        <time>2024-06-11T09:58:10+02:00</time>
      </trkpt>
      <trkpt lat="44.27718" lon="6.42959">
        <ele>1563</ele>
        <time>2024-06-11T09:58:27+02:00</time>
      </trkpt>
      <trkpt lat="44.27736" lon="6.42967">
        <ele>1567</ele>
        <time>2024-06-11T09:58:47+02:00</time>
      </trkpt>
      <trkpt lat="44.27754" lon="6.42968">
        <ele>1570</ele>
        <time>2024-06-11T09:59:06+02:00</time>
      </trkpt>
      <trkpt lat="44.27759" lon="6.42964">
        <ele>1571</ele>
        <time>2024-06-11T09:59:23+02:00</time>
      </trkpt>
      <trkpt lat="44.27759" lon="6.4296">
        <ele>1571</ele>
        <time>2024-06-11T09:59:44+02:00</time>
      </trkpt>
      <trkpt lat="44.27762" lon="6.4296">
        <ele>1571</ele>
        <time>2024-06-11T10:00:09+02:00</time>
      </trkpt>
      <trkpt lat="44.27759" lon="6.4296">
        <ele>1571</ele>
        <time>2024-06-11T10:00:36+02:00</time>
      </trkpt>
      <trkpt lat="44.27755" lon="6.4296">
        <ele>1570</ele>
        <time>2024-06-11T10:01:01+02:00</time>
      </trkpt>
      <trkpt lat="44.27765" lon="6.42962">
        <ele>1572</ele>
        <time>2024-06-11T10:01:21+02:00</time>
      </trkpt>
      <trkpt lat="44.27772" lon="6.42967">
        <ele>1574</ele>
        <time>2024-06-11T10:01:42+02:00</time>
      </trkpt>
      <trkpt lat="44.27777" lon="6.42969">
        <ele>1575</ele>
        <time>2024-06-11T10:02:05+02:00</time>
      </trkpt>
      <trkpt lat="44.27796" lon="6.42981">
        <ele>1575</ele>
        <time>2024-06-11T10:02:22+02:00</time>
      </trkpt>
      <trkpt lat="44.27808" lon="6.42977">
        <ele>1576</ele>
        <time>2024-06-11T10:02:41+02:00</time>
      </trkpt>
      <trkpt lat="44.2781" lon="6.42975">
        <ele>1576</ele>
        <time>2024-06-11T10:03:05+02:00</time>
      </trkpt>
      <trkpt lat="44.27819" lon="6.42965">
        <ele>1578</ele>
        <time>2024-06-11T10:03:23+02:00</time>
      </trkpt>
      <trkpt lat="44.27831" lon="6.42954">
        <ele>1581</ele>
        <time>2024-06-11T10:03:41+02:00</time>
      </trkpt>
      <trkpt lat="44.27835" lon="6.42947">
        <ele>1583</ele>
        <time>2024-06-11T10:03:56+02:00</time>
      </trkpt>
      <trkpt lat="44.27843" lon="6.42938">
        <ele>1586</ele>
        <time>2024-06-11T10:04:12+02:00</time>
      </trkpt>
      <trkpt lat="44.27855" lon="6.42927">
        <ele>1589</ele>
        <time>2024-06-11T10:04:33+02:00</time>
      </trkpt>
      <trkpt lat="44.27865" lon="6.4292">
        <ele>1592</ele>
        <time>2024-06-11T10:04:48+02:00</time>
      </trkpt>
      <trkpt lat="44.27871" lon="6.4292">
        <ele>1594</ele>
        <time>2024-06-11T10:05:07+02:00</time>
      </trkpt>
      <trkpt lat="44.27881" lon="6.4292">
        <ele>1596</ele>
        <time>2024-06-11T10:05:31+02:00</time>
      </trkpt>
      <trkpt lat="44.27888" lon="6.42925">
        <ele>1597</ele>
        <time>2024-06-11T10:05:42+02:00</time>
      </trkpt>
      <trkpt lat="44.27888" lon="6.42925">
        <ele>1597</ele>
        <time>2024-06-11T10:05:43+02:00</time>
      </trkpt>
      <trkpt lat="44.27898" lon="6.42925">
        <ele>1600</ele>
        <time>2024-06-11T10:06:01+02:00</time>
      </trkpt>
      <trkpt lat="44.27906" lon="6.42913">
        <ele>1605</ele>
        <time>2024-06-11T10:06:20+02:00</time>
      </trkpt>
      <trkpt lat="44.27917" lon="6.42907">
        <ele>1608</ele>
        <time>2024-06-11T10:06:41+02:00</time>
      </trkpt>
      <trkpt lat="44.27926" lon="6.42901">
        <ele>1611</ele>
        <time>2024-06-11T10:07:01+02:00</time>
      </trkpt>
      <trkpt lat="44.27932" lon="6.4291">
        <ele>1614</ele>
        <time>2024-06-11T10:07:20+02:00</time>
      </trkpt>
      <trkpt lat="44.2794" lon="6.42917">
        <ele>1618</ele>
        <time>2024-06-11T10:07:38+02:00</time>
      </trkpt>
      <trkpt lat="44.27951" lon="6.42909">
        <ele>1621</ele>
        <time>2024-06-11T10:07:56+02:00</time>
      </trkpt>
      <trkpt lat="44.27958" lon="6.42913">
        <ele>1625</ele>
        <time>2024-06-11T10:08:12+02:00</time>
      </trkpt>
      <trkpt lat="44.27961" lon="6.42928">
        <ele>1625</ele>
        <time>2024-06-11T10:08:31+02:00</time>
      </trkpt>
      <trkpt lat="44.27965" lon="6.42928">
        <ele>1627</ele>
        <time>2024-06-11T10:08:50+02:00</time>
      </trkpt>
      <trkpt lat="44.27969" lon="6.42927">
        <ele>1629</ele>
        <time>2024-06-11T10:09:10+02:00</time>
      </trkpt>
      <trkpt lat="44.27973" lon="6.42921">
        <ele>1631</ele>
        <time>2024-06-11T10:09:24+02:00</time>
      </trkpt>
      <trkpt lat="44.27981" lon="6.42915">
        <ele>1634</ele>
        <time>2024-06-11T10:09:40+02:00</time>
      </trkpt>
      <trkpt lat="44.2799" lon="6.42911">
        <ele>1635</ele>
        <time>2024-06-11T10:09:58+02:00</time>
      </trkpt>
      <trkpt lat="44.27998" lon="6.42902">
        <ele>1636</ele>
        <time>2024-06-11T10:10:15+02:00</time>
      </trkpt>
      <trkpt lat="44.28005" lon="6.42899">
        <ele>1638</ele>
        <time>2024-06-11T10:10:33+02:00</time>
      </trkpt>
      <trkpt lat="44.28006" lon="6.42903">
        <ele>1640</ele>
        <time>2024-06-11T10:10:48+02:00</time>
      </trkpt>
      <trkpt lat="44.28007" lon="6.42915">
        <ele>1643</ele>
        <time>2024-06-11T10:11:04+02:00</time>
      </trkpt>
      <trkpt lat="44.28013" lon="6.42919">
        <ele>1647</ele>
        <time>2024-06-11T10:11:17+02:00</time>
      </trkpt>
      <trkpt lat="44.28013" lon="6.42919">
        <ele>1647</ele>
        <time>2024-06-11T10:11:40+02:00</time>
      </trkpt>
      <trkpt lat="44.28014" lon="6.42917">
        <ele>1647</ele>
        <time>2024-06-11T10:12:00+02:00</time>
      </trkpt>
      <trkpt lat="44.28019" lon="6.42914">
        <ele>1650</ele>
        <time>2024-06-11T10:12:20+02:00</time>
      </trkpt>
      <trkpt lat="44.28021" lon="6.42912">
        <ele>1650</ele>
        <time>2024-06-11T10:12:37+02:00</time>
      </trkpt>
      <trkpt lat="44.28021" lon="6.42911">
        <ele>1650</ele>
        <time>2024-06-11T10:12:56+02:00</time>
      </trkpt>
      <trkpt lat="44.28022" lon="6.42912">
        <ele>1651</ele>
        <time>2024-06-11T10:13:12+02:00</time>
      </trkpt>
      <trkpt lat="44.28021" lon="6.42911">
        <ele>1650</ele>
        <time>2024-06-11T10:13:36+02:00</time>
      </trkpt>
      <trkpt lat="44.28022" lon="6.42911">
        <ele>1650</ele>
        <time>2024-06-11T10:14:04+02:00</time>
      </trkpt>
      <trkpt lat="44.28022" lon="6.42911">
        <ele>1650</ele>
        <time>2024-06-11T10:14:35+02:00</time>
      </trkpt>
      <trkpt lat="44.28022" lon="6.4291">
        <ele>1650</ele>
        <time>2024-06-11T10:15:09+02:00</time>
      </trkpt>
      <trkpt lat="44.28022" lon="6.42909">
        <ele>1650</ele>
        <time>2024-06-11T10:15:44+02:00</time>
      </trkpt>
      <trkpt lat="44.28022" lon="6.42911">
        <ele>1650</ele>
        <time>2024-06-11T10:16:18+02:00</time>
      </trkpt>
      <trkpt lat="44.28023" lon="6.42912">
        <ele>1651</ele>
        <time>2024-06-11T10:16:55+02:00</time>
      </trkpt>
      <trkpt lat="44.28023" lon="6.42912">
        <ele>1651</ele>
        <time>2024-06-11T10:17:30+02:00</time>
      </trkpt>
      <trkpt lat="44.28023" lon="6.42912">
        <ele>1651</ele>
        <time>2024-06-11T10:18:15+02:00</time>
      </trkpt>
      <trkpt lat="44.28023" lon="6.42911">
        <ele>1651</ele>
        <time>2024-06-11T10:18:45+02:00</time>
      </trkpt>
      <trkpt lat="44.28023" lon="6.4291">
        <ele>1650</ele>
        <time>2024-06-11T10:19:17+02:00</time>
      </trkpt>
      <trkpt lat="44.28023" lon="6.4291">
        <ele>1651</ele>
        <time>2024-06-11T10:19:51+02:00</time>
      </trkpt>
      <trkpt lat="44.28023" lon="6.42911">
        <ele>1651</ele>
        <time>2024-06-11T10:20:29+02:00</time>
      </trkpt>
      <trkpt lat="44.28023" lon="6.42911">
        <ele>1651</ele>
        <time>2024-06-11T10:21:04+02:00</time>
      </trkpt>
      <trkpt lat="44.28022" lon="6.42911">
        <ele>1650</ele>
        <time>2024-06-11T10:21:32+02:00</time>
      </trkpt>
      <trkpt lat="44.28023" lon="6.42912">
        <ele>1651</ele>
        <time>2024-06-11T10:22:11+02:00</time>
      </trkpt>
      <trkpt lat="44.28023" lon="6.42913">
        <ele>1651</ele>
        <time>2024-06-11T10:22:43+02:00</time>
      </trkpt>
      <trkpt lat="44.28024" lon="6.42913">
        <ele>1652</ele>
        <time>2024-06-11T10:23:04+02:00</time>
      </trkpt>
      <trkpt lat="44.28021" lon="6.42913">
        <ele>1650</ele>
        <time>2024-06-11T10:23:28+02:00</time>
      </trkpt>
      <trkpt lat="44.28021" lon="6.42912">
        <ele>1650</ele>
        <time>2024-06-11T10:24:01+02:00</time>
      </trkpt>
      <trkpt lat="44.28022" lon="6.42913">
        <ele>1651</ele>
        <time>2024-06-11T10:24:18+02:00</time>
      </trkpt>
      <trkpt lat="44.28024" lon="6.42912">
        <ele>1652</ele>
        <time>2024-06-11T10:24:37+02:00</time>
      </trkpt>
      <trkpt lat="44.28022" lon="6.42913">
        <ele>1651</ele>
        <time>2024-06-11T10:25:04+02:00</time>
      </trkpt>
      <trkpt lat="44.28022" lon="6.42916">
        <ele>1652</ele>
        <time>2024-06-11T10:25:28+02:00</time>
      </trkpt>
      <trkpt lat="44.28024" lon="6.42915">
        <ele>1653</ele>
        <time>2024-06-11T10:25:54+02:00</time>
      </trkpt>
      <trkpt lat="44.28024" lon="6.42913">
        <ele>1652</ele>
        <time>2024-06-11T10:26:28+02:00</time>
      </trkpt>
      <trkpt lat="44.28022" lon="6.42913">
        <ele>1651</ele>
        <time>2024-06-11T10:26:51+02:00</time>
      </trkpt>
      <trkpt lat="44.2802" lon="6.42928">
        <ele>1653</ele>
        <time>2024-06-11T10:27:14+02:00</time>
      </trkpt>
      <trkpt lat="44.28017" lon="6.42944">
        <ele>1654</ele>
        <time>2024-06-11T10:27:30+02:00</time>
      </trkpt>
      <trkpt lat="44.28017" lon="6.42959">
        <ele>1654</ele>
        <time>2024-06-11T10:27:45+02:00</time>
      </trkpt>
      <trkpt lat="44.28018" lon="6.42967">
        <ele>1655</ele>
        <time>2024-06-11T10:28:01+02:00</time>
      </trkpt>
      <trkpt lat="44.28023" lon="6.42972">
        <ele>1658</ele>
        <time>2024-06-11T10:28:16+02:00</time>
      </trkpt>
      <trkpt lat="44.28031" lon="6.42955">
        <ele>1664</ele>
        <time>2024-06-11T10:28:37+02:00</time>
      </trkpt>
      <trkpt lat="44.28035" lon="6.42947">
        <ele>1666</ele>
        <time>2024-06-11T10:28:54+02:00</time>
      </trkpt>
      <trkpt lat="44.28043" lon="6.42937">
        <ele>1669</ele>
        <time>2024-06-11T10:29:09+02:00</time>
      </trkpt>
      <trkpt lat="44.28046" lon="6.42921">
        <ele>1667</ele>
        <time>2024-06-11T10:29:25+02:00</time>
      </trkpt>
      <trkpt lat="44.28052" lon="6.42914">
        <ele>1669</ele>
        <time>2024-06-11T10:29:40+02:00</time>
      </trkpt>
      <trkpt lat="44.28055" lon="6.42908">
        <ele>1668</ele>
        <time>2024-06-11T10:29:56+02:00</time>
      </trkpt>
      <trkpt lat="44.28064" lon="6.42903">
        <ele>1670</ele>
        <time>2024-06-11T10:30:14+02:00</time>
      </trkpt>
      <trkpt lat="44.28071" lon="6.42906">
        <ele>1674</ele>
        <time>2024-06-11T10:30:30+02:00</time>
      </trkpt>
      <trkpt lat="44.28067" lon="6.42911">
        <ele>1675</ele>
        <time>2024-06-11T10:30:40+02:00</time>
      </trkpt>
      <trkpt lat="44.28064" lon="6.42921">
        <ele>1677</ele>
        <time>2024-06-11T10:30:56+02:00</time>
      </trkpt>
      <trkpt lat="44.28062" lon="6.42929">
        <ele>1678</ele>
        <time>2024-06-11T10:31:12+02:00</time>
      </trkpt>
      <trkpt lat="44.28062" lon="6.42942">
        <ele>1681</ele>
        <time>2024-06-11T10:31:28+02:00</time>
      </trkpt>
      <trkpt lat="44.28068" lon="6.42939">
        <ele>1684</ele>
        <time>2024-06-11T10:31:46+02:00</time>
      </trkpt>
      <trkpt lat="44.28073" lon="6.4293">
        <ele>1684</ele>
        <time>2024-06-11T10:32:02+02:00</time>
      </trkpt>
      <trkpt lat="44.2808" lon="6.42924">
        <ele>1686</ele>
        <time>2024-06-11T10:32:22+02:00</time>
      </trkpt>
      <trkpt lat="44.28077" lon="6.42936">
        <ele>1688</ele>
        <time>2024-06-11T10:32:33+02:00</time>
      </trkpt>
      <trkpt lat="44.28076" lon="6.42936">
        <ele>1688</ele>
        <time>2024-06-11T10:32:34+02:00</time>
      </trkpt>
      <trkpt lat="44.28079" lon="6.42939">
        <ele>1690</ele>
        <time>2024-06-11T10:32:51+02:00</time>
      </trkpt>
      <trkpt lat="44.28088" lon="6.4294">
        <ele>1696</ele>
        <time>2024-06-11T10:33:08+02:00</time>
      </trkpt>
      <trkpt lat="44.28092" lon="6.4294">
        <ele>1699</ele>
        <time>2024-06-11T10:33:23+02:00</time>
      </trkpt>
      <trkpt lat="44.2809" lon="6.42949">
        <ele>1701</ele>
        <time>2024-06-11T10:33:37+02:00</time>
      </trkpt>
      <trkpt lat="44.28085" lon="6.4296">
        <ele>1700</ele>
        <time>2024-06-11T10:33:53+02:00</time>
      </trkpt>
      <trkpt lat="44.28091" lon="6.4296">
        <ele>1705</ele>
        <time>2024-06-11T10:34:14+02:00</time>
      </trkpt>
      <trkpt lat="44.28092" lon="6.4296">
        <ele>1706</ele>
        <time>2024-06-11T10:34:40+02:00</time>
      </trkpt>
      <trkpt lat="44.28095" lon="6.42956">
        <ele>1707</ele>
        <time>2024-06-11T10:34:58+02:00</time>
      </trkpt>
      <trkpt lat="44.28105" lon="6.42941">
        <ele>1708</ele>
        <time>2024-06-11T10:35:14+02:00</time>
      </trkpt>
      <trkpt lat="44.28108" lon="6.4294">
        <ele>1710</ele>
        <time>2024-06-11T10:35:31+02:00</time>
      </trkpt>
      <trkpt lat="44.28109" lon="6.42939">
        <ele>1710</ele>
        <time>2024-06-11T10:35:57+02:00</time>
      </trkpt>
      <trkpt lat="44.28113" lon="6.42938">
        <ele>1712</ele>
        <time>2024-06-11T10:36:12+02:00</time>
      </trkpt>
      <trkpt lat="44.28119" lon="6.42932">
        <ele>1711</ele>
        <time>2024-06-11T10:36:27+02:00</time>
      </trkpt>
      <trkpt lat="44.28127" lon="6.42925">
        <ele>1711</ele>
        <time>2024-06-11T10:36:40+02:00</time>
      </trkpt>
      <trkpt lat="44.28135" lon="6.42921">
        <ele>1712</ele>
        <time>2024-06-11T10:36:56+02:00</time>
      </trkpt>
      <trkpt lat="44.28145" lon="6.42922">
        <ele>1714</ele>
        <time>2024-06-11T10:37:11+02:00</time>
      </trkpt>
      <trkpt lat="44.28155" lon="6.42925">
        <ele>1715</ele>
        <time>2024-06-11T10:37:29+02:00</time>
      </trkpt>
      <trkpt lat="44.28161" lon="6.42926">
        <ele>1716</ele>
        <time>2024-06-11T10:37:48+02:00</time>
      </trkpt>
      <trkpt lat="44.28175" lon="6.42935">
        <ele>1720</ele>
        <time>2024-06-11T10:38:06+02:00</time>
      </trkpt>
      <trkpt lat="44.28177" lon="6.42944">
        <ele>1723</ele>
        <time>2024-06-11T10:38:23+02:00</time>
      </trkpt>
      <trkpt lat="44.28177" lon="6.42945">
        <ele>1724</ele>
        <time>2024-06-11T10:38:39+02:00</time>
      </trkpt>
      <trkpt lat="44.28177" lon="6.42945">
        <ele>1724</ele>
        <time>2024-06-11T10:38:57+02:00</time>
      </trkpt>
      <trkpt lat="44.28169" lon="6.42948">
        <ele>1724</ele>
        <time>2024-06-11T10:39:14+02:00</time>
      </trkpt>
      <trkpt lat="44.28164" lon="6.42947">
        <ele>1724</ele>
        <time>2024-06-11T10:39:38+02:00</time>
      </trkpt>
      <trkpt lat="44.28159" lon="6.42953">
        <ele>1726</ele>
        <time>2024-06-11T10:40:01+02:00</time>
      </trkpt>
      <trkpt lat="44.28157" lon="6.42956">
        <ele>1727</ele>
        <time>2024-06-11T10:40:17+02:00</time>
      </trkpt>
      <trkpt lat="44.2815" lon="6.42963">
        <ele>1730</ele>
        <time>2024-06-11T10:40:33+02:00</time>
      </trkpt>
      <trkpt lat="44.28144" lon="6.42973">
        <ele>1734</ele>
        <time>2024-06-11T10:40:51+02:00</time>
      </trkpt>
      <trkpt lat="44.28139" lon="6.4298">
        <ele>1737</ele>
        <time>2024-06-11T10:41:07+02:00</time>
      </trkpt>
      <trkpt lat="44.28134" lon="6.42986">
        <ele>1737</ele>
        <time>2024-06-11T10:41:23+02:00</time>
      </trkpt>
      <trkpt lat="44.2813" lon="6.42996">
        <ele>1739</ele>
        <time>2024-06-11T10:41:41+02:00</time>
      </trkpt>
      <trkpt lat="44.28131" lon="6.43002">
        <ele>1740</ele>
        <time>2024-06-11T10:41:57+02:00</time>
      </trkpt>
      <trkpt lat="44.28135" lon="6.43005">
        <ele>1742</ele>
        <time>2024-06-11T10:42:13+02:00</time>
      </trkpt>
      <trkpt lat="44.28137" lon="6.43007">
        <ele>1743</ele>
        <time>2024-06-11T10:42:30+02:00</time>
      </trkpt>
      <trkpt lat="44.2814" lon="6.43009">
        <ele>1744</ele>
        <time>2024-06-11T10:42:45+02:00</time>
      </trkpt>
      <trkpt lat="44.28143" lon="6.43012">
        <ele>1744</ele>
        <time>2024-06-11T10:43:02+02:00</time>
      </trkpt>
      <trkpt lat="44.28147" lon="6.43015">
        <ele>1745</ele>
        <time>2024-06-11T10:43:26+02:00</time>
      </trkpt>
      <trkpt lat="44.28148" lon="6.43018">
        <ele>1745</ele>
        <time>2024-06-11T10:43:47+02:00</time>
      </trkpt>
      <trkpt lat="44.28145" lon="6.43029">
        <ele>1748</ele>
        <time>2024-06-11T10:44:01+02:00</time>
      </trkpt>
      <trkpt lat="44.28147" lon="6.4304">
        <ele>1748</ele>
        <time>2024-06-11T10:44:18+02:00</time>
      </trkpt>
      <trkpt lat="44.28149" lon="6.43047">
        <ele>1749</ele>
        <time>2024-06-11T10:44:34+02:00</time>
      </trkpt>
      <trkpt lat="44.28151" lon="6.43051">
        <ele>1749</ele>
        <time>2024-06-11T10:44:54+02:00</time>
      </trkpt>
      <trkpt lat="44.28153" lon="6.4306">
        <ele>1750</ele>
        <time>2024-06-11T10:45:08+02:00</time>
      </trkpt>
      <trkpt lat="44.28155" lon="6.43061">
        <ele>1750</ele>
        <time>2024-06-11T10:45:28+02:00</time>
      </trkpt>
      <trkpt lat="44.28154" lon="6.43068">
        <ele>1750</ele>
        <time>2024-06-11T10:45:41+02:00</time>
      </trkpt>
      <trkpt lat="44.28153" lon="6.43069">
        <ele>1750</ele>
        <time>2024-06-11T10:45:59+02:00</time>
      </trkpt>
      <trkpt lat="44.28154" lon="6.43067">
        <ele>1750</ele>
        <time>2024-06-11T10:46:18+02:00</time>
      </trkpt>
      <trkpt lat="44.28153" lon="6.43066">
        <ele>1750</ele>
        <time>2024-06-11T10:46:37+02:00</time>
      </trkpt>
      <trkpt lat="44.28156" lon="6.43073">
        <ele>1750</ele>
        <time>2024-06-11T10:46:53+02:00</time>
      </trkpt>
      <trkpt lat="44.28159" lon="6.43086">
        <ele>1752</ele>
        <time>2024-06-11T10:47:10+02:00</time>
      </trkpt>
      <trkpt lat="44.28161" lon="6.43091">
        <ele>1753</ele>
        <time>2024-06-11T10:47:27+02:00</time>
      </trkpt>
      <trkpt lat="44.28164" lon="6.43105">
        <ele>1755</ele>
        <time>2024-06-11T10:47:46+02:00</time>
      </trkpt>
      <trkpt lat="44.28167" lon="6.43121">
        <ele>1757</ele>
        <time>2024-06-11T10:48:01+02:00</time>
      </trkpt>
      <trkpt lat="44.2817" lon="6.43133">
        <ele>1758</ele>
        <time>2024-06-11T10:48:16+02:00</time>
      </trkpt>
      <trkpt lat="44.28172" lon="6.43157">
        <ele>1760</ele>
        <time>2024-06-11T10:48:34+02:00</time>
      </trkpt>
      <trkpt lat="44.28175" lon="6.4317">
        <ele>1762</ele>
        <time>2024-06-11T10:48:52+02:00</time>
      </trkpt>
      <trkpt lat="44.28174" lon="6.4317">
        <ele>1762</ele>
        <time>2024-06-11T10:49:09+02:00</time>
      </trkpt>
      <trkpt lat="44.28175" lon="6.4318">
        <ele>1763</ele>
        <time>2024-06-11T10:49:25+02:00</time>
      </trkpt>
      <trkpt lat="44.28176" lon="6.43199">
        <ele>1765</ele>
        <time>2024-06-11T10:49:42+02:00</time>
      </trkpt>
      <trkpt lat="44.28177" lon="6.43218">
        <ele>1767</ele>
        <time>2024-06-11T10:49:59+02:00</time>
      </trkpt>
      <trkpt lat="44.28177" lon="6.43233">
        <ele>1769</ele>
        <time>2024-06-11T10:50:15+02:00</time>
      </trkpt>
      <trkpt lat="44.28176" lon="6.43241">
        <ele>1769</ele>
        <time>2024-06-11T10:50:31+02:00</time>
      </trkpt>
      <trkpt lat="44.28176" lon="6.43255">
        <ele>1771</ele>
        <time>2024-06-11T10:50:45+02:00</time>
      </trkpt>
      <trkpt lat="44.2818" lon="6.43267">
        <ele>1774</ele>
        <time>2024-06-11T10:51:00+02:00</time>
      </trkpt>
      <trkpt lat="44.28185" lon="6.43282">
        <ele>1778</ele>
        <time>2024-06-11T10:51:19+02:00</time>
      </trkpt>
      <trkpt lat="44.28185" lon="6.43298">
        <ele>1780</ele>
        <time>2024-06-11T10:51:37+02:00</time>
      </trkpt>
      <trkpt lat="44.2818" lon="6.43313">
        <ele>1775</ele>
        <time>2024-06-11T10:51:54+02:00</time>
      </trkpt>
      <trkpt lat="44.28177" lon="6.43325">
        <ele>1770</ele>
        <time>2024-06-11T10:52:08+02:00</time>
      </trkpt>
      <trkpt lat="44.28181" lon="6.43314">
        <ele>1775</ele>
        <time>2024-06-11T10:52:24+02:00</time>
      </trkpt>
      <trkpt lat="44.28182" lon="6.43318">
        <ele>1776</ele>
        <time>2024-06-11T10:52:38+02:00</time>
      </trkpt>
      <trkpt lat="44.28182" lon="6.43316">
        <ele>1776</ele>
        <time>2024-06-11T10:53:00+02:00</time>
      </trkpt>
      <trkpt lat="44.28182" lon="6.43318">
        <ele>1776</ele>
        <time>2024-06-11T10:53:28+02:00</time>
      </trkpt>
      <trkpt lat="44.28183" lon="6.43324">
        <ele>1776</ele>
        <time>2024-06-11T10:53:46+02:00</time>
      </trkpt>
      <trkpt lat="44.28184" lon="6.43325">
        <ele>1777</ele>
        <time>2024-06-11T10:54:11+02:00</time>
      </trkpt>
      <trkpt lat="44.2819" lon="6.43329">
        <ele>1782</ele>
        <time>2024-06-11T10:54:27+02:00</time>
      </trkpt>
      <trkpt lat="44.28195" lon="6.43328">
        <ele>1786</ele>
        <time>2024-06-11T10:54:44+02:00</time>
      </trkpt>
      <trkpt lat="44.282" lon="6.43328">
        <ele>1787</ele>
        <time>2024-06-11T10:55:01+02:00</time>
      </trkpt>
      <trkpt lat="44.28207" lon="6.43332">
        <ele>1788</ele>
        <time>2024-06-11T10:55:19+02:00</time>
      </trkpt>
      <trkpt lat="44.28213" lon="6.43334">
        <ele>1789</ele>
        <time>2024-06-11T10:55:36+02:00</time>
      </trkpt>
      <trkpt lat="44.28219" lon="6.43337">
        <ele>1790</ele>
        <time>2024-06-11T10:55:51+02:00</time>
      </trkpt>
      <trkpt lat="44.28227" lon="6.43338">
        <ele>1792</ele>
        <time>2024-06-11T10:56:09+02:00</time>
      </trkpt>
      <trkpt lat="44.28233" lon="6.43341">
        <ele>1793</ele>
        <time>2024-06-11T10:56:31+02:00</time>
      </trkpt>
      <trkpt lat="44.28238" lon="6.43343">
        <ele>1794</ele>
        <time>2024-06-11T10:56:47+02:00</time>
      </trkpt>
      <trkpt lat="44.28241" lon="6.43348">
        <ele>1795</ele>
        <time>2024-06-11T10:56:51+02:00</time>
      </trkpt>
      <trkpt lat="44.28247" lon="6.43357">
        <ele>1797</ele>
        <time>2024-06-11T10:57:00+02:00</time>
      </trkpt>
      <trkpt lat="44.28259" lon="6.43372">
        <ele>1800</ele>
        <time>2024-06-11T10:57:20+02:00</time>
      </trkpt>
      <trkpt lat="44.28267" lon="6.43383">
        <ele>1802</ele>
        <time>2024-06-11T10:57:36+02:00</time>
      </trkpt>
      <trkpt lat="44.28275" lon="6.43397">
        <ele>1804</ele>
        <time>2024-06-11T10:57:53+02:00</time>
      </trkpt>
      <trkpt lat="44.28284" lon="6.43411">
        <ele>1806</ele>
        <time>2024-06-11T10:58:10+02:00</time>
      </trkpt>
      <trkpt lat="44.28287" lon="6.43425">
        <ele>1806</ele>
        <time>2024-06-11T10:58:26+02:00</time>
      </trkpt>
      <trkpt lat="44.28289" lon="6.43434">
        <ele>1806</ele>
        <time>2024-06-11T10:58:41+02:00</time>
      </trkpt>
      <trkpt lat="44.28293" lon="6.43448">
        <ele>1807</ele>
        <time>2024-06-11T10:58:59+02:00</time>
      </trkpt>
      <trkpt lat="44.28293" lon="6.43463">
        <ele>1806</ele>
        <time>2024-06-11T10:59:18+02:00</time>
      </trkpt>
      <trkpt lat="44.28296" lon="6.43481">
        <ele>1806</ele>
        <time>2024-06-11T10:59:34+02:00</time>
      </trkpt>
      <trkpt lat="44.283" lon="6.43489">
        <ele>1808</ele>
        <time>2024-06-11T10:59:49+02:00</time>
      </trkpt>
      <trkpt lat="44.28311" lon="6.43504">
        <ele>1813</ele>
        <time>2024-06-11T11:00:07+02:00</time>
      </trkpt>
      <trkpt lat="44.28317" lon="6.43525">
        <ele>1813</ele>
        <time>2024-06-11T11:00:25+02:00</time>
      </trkpt>
      <trkpt lat="44.28324" lon="6.43541">
        <ele>1815</ele>
        <time>2024-06-11T11:00:43+02:00</time>
      </trkpt>
      <trkpt lat="44.2833" lon="6.43548">
        <ele>1818</ele>
        <time>2024-06-11T11:00:53+02:00</time>
      </trkpt>
      <trkpt lat="44.2834" lon="6.4357">
        <ele>1818</ele>
        <time>2024-06-11T11:01:13+02:00</time>
      </trkpt>
      <trkpt lat="44.28351" lon="6.43591">
        <ele>1819</ele>
        <time>2024-06-11T11:01:34+02:00</time>
      </trkpt>
      <trkpt lat="44.28366" lon="6.43612">
        <ele>1823</ele>
        <time>2024-06-11T11:01:56+02:00</time>
      </trkpt>
      <trkpt lat="44.28378" lon="6.43637">
        <ele>1823</ele>
        <time>2024-06-11T11:02:16+02:00</time>
      </trkpt>
      <trkpt lat="44.28379" lon="6.43643">
        <ele>1823</ele>
        <time>2024-06-11T11:02:29+02:00</time>
      </trkpt>
      <trkpt lat="44.28384" lon="6.43665">
        <ele>1823</ele>
        <time>2024-06-11T11:02:49+02:00</time>
      </trkpt>
      <trkpt lat="44.28383" lon="6.43685">
        <ele>1823</ele>
        <time>2024-06-11T11:03:07+02:00</time>
      </trkpt>
      <trkpt lat="44.28381" lon="6.43706">
        <ele>1823</ele>
        <time>2024-06-11T11:03:27+02:00</time>
      </trkpt>
      <trkpt lat="44.28378" lon="6.43722">
        <ele>1823</ele>
        <time>2024-06-11T11:03:45+02:00</time>
      </trkpt>
      <trkpt lat="44.2838" lon="6.43743">
        <ele>1822</ele>
        <time>2024-06-11T11:04:05+02:00</time>
      </trkpt>
      <trkpt lat="44.28383" lon="6.43755">
        <ele>1821</ele>
        <time>2024-06-11T11:04:19+02:00</time>
      </trkpt>
      <trkpt lat="44.28388" lon="6.4377">
        <ele>1822</ele>
        <time>2024-06-11T11:04:36+02:00</time>
      </trkpt>
      <trkpt lat="44.28391" lon="6.43774">
        <ele>1822</ele>
        <time>2024-06-11T11:04:43+02:00</time>
      </trkpt>
      <trkpt lat="44.28395" lon="6.43786">
        <ele>1823</ele>
        <time>2024-06-11T11:04:57+02:00</time>
      </trkpt>
      <trkpt lat="44.28399" lon="6.43802">
        <ele>1822</ele>
        <time>2024-06-11T11:05:14+02:00</time>
      </trkpt>
      <trkpt lat="44.28404" lon="6.43822">
        <ele>1820</ele>
        <time>2024-06-11T11:05:33+02:00</time>
      </trkpt>
      <trkpt lat="44.28409" lon="6.43836">
        <ele>1820</ele>
        <time>2024-06-11T11:05:48+02:00</time>
      </trkpt>
      <trkpt lat="44.28416" lon="6.43849">
        <ele>1822</ele>
        <time>2024-06-11T11:06:03+02:00</time>
      </trkpt>
      <trkpt lat="44.28419" lon="6.43856">
        <ele>1823</ele>
        <time>2024-06-11T11:06:18+02:00</time>
      </trkpt>
      <trkpt lat="44.28422" lon="6.43864">
        <ele>1825</ele>
        <time>2024-06-11T11:06:33+02:00</time>
      </trkpt>
      <trkpt lat="44.28421" lon="6.43869">
        <ele>1825</ele>
        <time>2024-06-11T11:06:42+02:00</time>
      </trkpt>
      <trkpt lat="44.28422" lon="6.43867">
        <ele>1825</ele>
        <time>2024-06-11T11:06:56+02:00</time>
      </trkpt>
      <trkpt lat="44.28417" lon="6.43872">
        <ele>1822</ele>
        <time>2024-06-11T11:07:14+02:00</time>
      </trkpt>
      <trkpt lat="44.28418" lon="6.43873">
        <ele>1823</ele>
        <time>2024-06-11T11:07:34+02:00</time>
      </trkpt>
      <trkpt lat="44.28416" lon="6.43875">
        <ele>1822</ele>
        <time>2024-06-11T11:07:54+02:00</time>
      </trkpt>
      <trkpt lat="44.28415" lon="6.43878">
        <ele>1821</ele>
        <time>2024-06-11T11:08:11+02:00</time>
      </trkpt>
      <trkpt lat="44.28413" lon="6.43881">
        <ele>1821</ele>
        <time>2024-06-11T11:08:25+02:00</time>
      </trkpt>
      <trkpt lat="44.28412" lon="6.43882">
        <ele>1820</ele>
        <time>2024-06-11T11:08:58+02:00</time>
      </trkpt>
      <trkpt lat="44.28412" lon="6.43881">
        <ele>1820</ele>
        <time>2024-06-11T11:09:29+02:00</time>
      </trkpt>
      <trkpt lat="44.28407" lon="6.43883">
        <ele>1817</ele>
        <time>2024-06-11T11:09:56+02:00</time>
      </trkpt>
      <trkpt lat="44.28405" lon="6.43894">
        <ele>1818</ele>
        <time>2024-06-11T11:10:22+02:00</time>
      </trkpt>
      <trkpt lat="44.28404" lon="6.43898">
        <ele>1819</ele>
        <time>2024-06-11T11:10:27+02:00</time>
      </trkpt>
      <trkpt lat="44.28402" lon="6.43898">
        <ele>1818</ele>
        <time>2024-06-11T11:10:54+02:00</time>
      </trkpt>
      <trkpt lat="44.28404" lon="6.43908">
        <ele>1822</ele>
        <time>2024-06-11T11:11:19+02:00</time>
      </trkpt>
      <trkpt lat="44.28403" lon="6.43923">
        <ele>1826</ele>
        <time>2024-06-11T11:11:37+02:00</time>
      </trkpt>
      <trkpt lat="44.28397" lon="6.43936">
        <ele>1825</ele>
        <time>2024-06-11T11:11:53+02:00</time>
      </trkpt>
      <trkpt lat="44.28388" lon="6.43954">
        <ele>1825</ele>
        <time>2024-06-11T11:12:12+02:00</time>
      </trkpt>
      <trkpt lat="44.28382" lon="6.43973">
        <ele>1827</ele>
        <time>2024-06-11T11:12:30+02:00</time>
      </trkpt>
      <trkpt lat="44.28377" lon="6.43988">
        <ele>1828</ele>
        <time>2024-06-11T11:12:46+02:00</time>
      </trkpt>
      <trkpt lat="44.28371" lon="6.44011">
        <ele>1830</ele>
        <time>2024-06-11T11:13:04+02:00</time>
      </trkpt>
      <trkpt lat="44.28368" lon="6.44026">
        <ele>1831</ele>
        <time>2024-06-11T11:13:22+02:00</time>
      </trkpt>
      <trkpt lat="44.28362" lon="6.44042">
        <ele>1831</ele>
        <time>2024-06-11T11:13:38+02:00</time>
      </trkpt>
      <trkpt lat="44.28357" lon="6.4406">
        <ele>1831</ele>
        <time>2024-06-11T11:13:54+02:00</time>
      </trkpt>
      <trkpt lat="44.28351" lon="6.44082">
        <ele>1831</ele>
        <time>2024-06-11T11:14:13+02:00</time>
      </trkpt>
      <trkpt lat="44.28344" lon="6.44101">
        <ele>1829</ele>
        <time>2024-06-11T11:14:31+02:00</time>
      </trkpt>
      <trkpt lat="44.28339" lon="6.44124">
        <ele>1829</ele>
        <time>2024-06-11T11:14:48+02:00</time>
      </trkpt>
      <trkpt lat="44.28338" lon="6.44136">
        <ele>1829</ele>
        <time>2024-06-11T11:15:03+02:00</time>
      </trkpt>
      <trkpt lat="44.28338" lon="6.44152">
        <ele>1831</ele>
        <time>2024-06-11T11:15:19+02:00</time>
      </trkpt>
      <trkpt lat="44.28344" lon="6.4417">
        <ele>1836</ele>
        <time>2024-06-11T11:15:37+02:00</time>
      </trkpt>
      <trkpt lat="44.28344" lon="6.4419">
        <ele>1837</ele>
        <time>2024-06-11T11:15:54+02:00</time>
      </trkpt>
      <trkpt lat="44.28343" lon="6.44205">
        <ele>1838</ele>
        <time>2024-06-11T11:16:10+02:00</time>
      </trkpt>
      <trkpt lat="44.28343" lon="6.44218">
        <ele>1838</ele>
        <time>2024-06-11T11:16:27+02:00</time>
      </trkpt>
      <trkpt lat="44.28339" lon="6.44238">
        <ele>1837</ele>
        <time>2024-06-11T11:16:45+02:00</time>
      </trkpt>
      <trkpt lat="44.28336" lon="6.44263">
        <ele>1835</ele>
        <time>2024-06-11T11:17:08+02:00</time>
      </trkpt>
      <trkpt lat="44.28332" lon="6.44285">
        <ele>1834</ele>
        <time>2024-06-11T11:17:27+02:00</time>
      </trkpt>
      <trkpt lat="44.28332" lon="6.44288">
        <ele>1833</ele>
        <time>2024-06-11T11:17:29+02:00</time>
      </trkpt>
      <trkpt lat="44.28327" lon="6.44305">
        <ele>1831</ele>
        <time>2024-06-11T11:17:46+02:00</time>
      </trkpt>
      <trkpt lat="44.28325" lon="6.44323">
        <ele>1831</ele>
        <time>2024-06-11T11:18:03+02:00</time>
      </trkpt>
      <trkpt lat="44.28324" lon="6.44343">
        <ele>1831</ele>
        <time>2024-06-11T11:18:19+02:00</time>
      </trkpt>
      <trkpt lat="44.28322" lon="6.44364">
        <ele>1829</ele>
        <time>2024-06-11T11:18:37+02:00</time>
      </trkpt>
      <trkpt lat="44.28324" lon="6.4438">
        <ele>1829</ele>
        <time>2024-06-11T11:18:53+02:00</time>
      </trkpt>
      <trkpt lat="44.28325" lon="6.44395">
        <ele>1828</ele>
        <time>2024-06-11T11:19:08+02:00</time>
      </trkpt>
      <trkpt lat="44.28329" lon="6.44407">
        <ele>1829</ele>
        <time>2024-06-11T11:19:23+02:00</time>
      </trkpt>
      <trkpt lat="44.28331" lon="6.44414">
        <ele>1830</ele>
        <time>2024-06-11T11:19:31+02:00</time>
      </trkpt>
      <trkpt lat="44.28335" lon="6.44428">
        <ele>1830</ele>
        <time>2024-06-11T11:19:46+02:00</time>
      </trkpt>
      <trkpt lat="44.28338" lon="6.44443">
        <ele>1830</ele>
        <time>2024-06-11T11:20:01+02:00</time>
      </trkpt>
      <trkpt lat="44.28342" lon="6.44459">
        <ele>1830</ele>
        <time>2024-06-11T11:20:17+02:00</time>
      </trkpt>
      <trkpt lat="44.28348" lon="6.44472">
        <ele>1831</ele>
        <time>2024-06-11T11:20:36+02:00</time>
      </trkpt>
      <trkpt lat="44.28357" lon="6.44487">
        <ele>1832</ele>
        <time>2024-06-11T11:20:55+02:00</time>
      </trkpt>
      <trkpt lat="44.2836" lon="6.44496">
        <ele>1832</ele>
        <time>2024-06-11T11:21:09+02:00</time>
      </trkpt>
      <trkpt lat="44.28368" lon="6.44512">
        <ele>1831</ele>
        <time>2024-06-11T11:21:26+02:00</time>
      </trkpt>
      <trkpt lat="44.28377" lon="6.44519">
        <ele>1832</ele>
        <time>2024-06-11T11:21:39+02:00</time>
      </trkpt>
      <trkpt lat="44.28387" lon="6.44534">
        <ele>1833</ele>
        <time>2024-06-11T11:21:56+02:00</time>
      </trkpt>
      <trkpt lat="44.28396" lon="6.44552">
        <ele>1834</ele>
        <time>2024-06-11T11:22:15+02:00</time>
      </trkpt>
      <trkpt lat="44.28397" lon="6.44561">
        <ele>1833</ele>
        <time>2024-06-11T11:22:23+02:00</time>
      </trkpt>
      <trkpt lat="44.28399" lon="6.44579">
        <ele>1831</ele>
        <time>2024-06-11T11:22:39+02:00</time>
      </trkpt>
      <trkpt lat="44.28401" lon="6.44585">
        <ele>1830</ele>
        <time>2024-06-11T11:22:45+02:00</time>
      </trkpt>
      <trkpt lat="44.28405" lon="6.44596">
        <ele>1830</ele>
        <time>2024-06-11T11:23:01+02:00</time>
      </trkpt>
      <trkpt lat="44.28408" lon="6.44601">
        <ele>1830</ele>
        <time>2024-06-11T11:23:15+02:00</time>
      </trkpt>
      <trkpt lat="44.28414" lon="6.44606">
        <ele>1830</ele>
        <time>2024-06-11T11:23:30+02:00</time>
      </trkpt>
      <trkpt lat="44.28414" lon="6.44605">
        <ele>1830</ele>
        <time>2024-06-11T11:23:57+02:00</time>
      </trkpt>
      <trkpt lat="44.28414" lon="6.44604">
        <ele>1830</ele>
        <time>2024-06-11T11:24:27+02:00</time>
      </trkpt>
      <trkpt lat="44.2841" lon="6.44604">
        <ele>1830</ele>
        <time>2024-06-11T11:24:51+02:00</time>
      </trkpt>
      <trkpt lat="44.28409" lon="6.44605">
        <ele>1829</ele>
        <time>2024-06-11T11:25:15+02:00</time>
      </trkpt>
      <trkpt lat="44.28411" lon="6.44603">
        <ele>1830</ele>
        <time>2024-06-11T11:25:30+02:00</time>
      </trkpt>
      <trkpt lat="44.28412" lon="6.44604">
        <ele>1830</ele>
        <time>2024-06-11T11:25:48+02:00</time>
      </trkpt>
      <trkpt lat="44.28411" lon="6.44602">
        <ele>1830</ele>
        <time>2024-06-11T11:26:10+02:00</time>
      </trkpt>
      <trkpt lat="44.28412" lon="6.44601">
        <ele>1831</ele>
        <time>2024-06-11T11:26:14+02:00</time>
      </trkpt>
      <trkpt lat="44.28416" lon="6.44601">
        <ele>1831</ele>
        <time>2024-06-11T11:26:18+02:00</time>
      </trkpt>
      <trkpt lat="44.28421" lon="6.44604">
        <ele>1830</ele>
        <time>2024-06-11T11:26:26+02:00</time>
      </trkpt>
      <trkpt lat="44.28435" lon="6.44609">
        <ele>1827</ele>
        <time>2024-06-11T11:26:42+02:00</time>
      </trkpt>
      <trkpt lat="44.28445" lon="6.44609">
        <ele>1824</ele>
        <time>2024-06-11T11:26:57+02:00</time>
      </trkpt>
      <trkpt lat="44.28457" lon="6.44601">
        <ele>1823</ele>
        <time>2024-06-11T11:27:13+02:00</time>
      </trkpt>
      <trkpt lat="44.28472" lon="6.44594">
        <ele>1821</ele>
        <time>2024-06-11T11:27:29+02:00</time>
      </trkpt>
      <trkpt lat="44.28481" lon="6.44599">
        <ele>1819</ele>
        <time>2024-06-11T11:27:45+02:00</time>
      </trkpt>
      <trkpt lat="44.28486" lon="6.44598">
        <ele>1819</ele>
        <time>2024-06-11T11:27:56+02:00</time>
      </trkpt>
      <trkpt lat="44.28492" lon="6.446">
        <ele>1817</ele>
        <time>2024-06-11T11:28:05+02:00</time>
      </trkpt>
      <trkpt lat="44.285" lon="6.44609">
        <ele>1815</ele>
        <time>2024-06-11T11:28:13+02:00</time>
      </trkpt>
      <trkpt lat="44.28512" lon="6.44618">
        <ele>1813</ele>
        <time>2024-06-11T11:28:30+02:00</time>
      </trkpt>
      <trkpt lat="44.28519" lon="6.44615">
        <ele>1813</ele>
        <time>2024-06-11T11:28:44+02:00</time>
      </trkpt>
      <trkpt lat="44.28525" lon="6.44603">
        <ele>1816</ele>
        <time>2024-06-11T11:29:00+02:00</time>
      </trkpt>
      <trkpt lat="44.28538" lon="6.44595">
        <ele>1817</ele>
        <time>2024-06-11T11:29:21+02:00</time>
      </trkpt>
      <trkpt lat="44.28544" lon="6.44595">
        <ele>1817</ele>
        <time>2024-06-11T11:29:37+02:00</time>
      </trkpt>
      <trkpt lat="44.28542" lon="6.44591">
        <ele>1818</ele>
        <time>2024-06-11T11:29:58+02:00</time>
      </trkpt>
      <trkpt lat="44.28546" lon="6.44594">
        <ele>1817</ele>
        <time>2024-06-11T11:30:17+02:00</time>
      </trkpt>
      <trkpt lat="44.28548" lon="6.44601">
        <ele>1815</ele>
        <time>2024-06-11T11:30:21+02:00</time>
      </trkpt>
      <trkpt lat="44.28548" lon="6.44612">
        <ele>1813</ele>
        <time>2024-06-11T11:30:26+02:00</time>
      </trkpt>
      <trkpt lat="44.28523" lon="6.44613">
        <ele>1814</ele>
        <time>2024-06-11T11:30:58+02:00</time>
      </trkpt>
      <trkpt lat="44.28543" lon="6.44608">
        <ele>1814</ele>
        <time>2024-06-11T11:32:19+02:00</time>
      </trkpt>
      <trkpt lat="44.2855" lon="6.44585">
        <ele>1819</ele>
        <time>2024-06-11T11:32:41+02:00</time>
      </trkpt>
      <trkpt lat="44.28532" lon="6.44587">
        <ele>1818</ele>
        <time>2024-06-11T11:33:01+02:00</time>
      </trkpt>
      <trkpt lat="44.28541" lon="6.44589">
        <ele>1818</ele>
        <time>2024-06-11T11:33:23+02:00</time>
      </trkpt>
      <trkpt lat="44.28546" lon="6.44593">
        <ele>1817</ele>
        <time>2024-06-11T11:33:36+02:00</time>
      </trkpt>
      <trkpt lat="44.2854" lon="6.44593">
        <ele>1817</ele>
        <time>2024-06-11T11:33:50+02:00</time>
      </trkpt>
      <trkpt lat="44.28535" lon="6.44593">
        <ele>1817</ele>
        <time>2024-06-11T11:34:03+02:00</time>
      </trkpt>
      <trkpt lat="44.2853" lon="6.44587">
        <ele>1818</ele>
        <time>2024-06-11T11:34:12+02:00</time>
      </trkpt>
      <trkpt lat="44.28531" lon="6.4458">
        <ele>1820</ele>
        <time>2024-06-11T11:34:30+02:00</time>
      </trkpt>
      <trkpt lat="44.28531" lon="6.44569">
        <ele>1823</ele>
        <time>2024-06-11T11:34:49+02:00</time>
      </trkpt>
      <trkpt lat="44.28531" lon="6.44567">
        <ele>1823</ele>
        <time>2024-06-11T11:35:06+02:00</time>
      </trkpt>
      <trkpt lat="44.28534" lon="6.44559">
        <ele>1826</ele>
        <time>2024-06-11T11:35:25+02:00</time>
      </trkpt>
      <trkpt lat="44.28533" lon="6.44553">
        <ele>1827</ele>
        <time>2024-06-11T11:35:43+02:00</time>
      </trkpt>
      <trkpt lat="44.28534" lon="6.44548">
        <ele>1829</ele>
        <time>2024-06-11T11:35:56+02:00</time>
      </trkpt>
      <trkpt lat="44.28537" lon="6.44545">
        <ele>1830</ele>
        <time>2024-06-11T11:36:13+02:00</time>
      </trkpt>
      <trkpt lat="44.28538" lon="6.44548">
        <ele>1830</ele>
        <time>2024-06-11T11:36:40+02:00</time>
      </trkpt>
      <trkpt lat="44.28547" lon="6.44542">
        <ele>1833</ele>
        <time>2024-06-11T11:36:56+02:00</time>
      </trkpt>
      <trkpt lat="44.28552" lon="6.4454">
        <ele>1834</ele>
        <time>2024-06-11T11:37:11+02:00</time>
      </trkpt>
      <trkpt lat="44.28553" lon="6.4454">
        <ele>1834</ele>
        <time>2024-06-11T11:37:32+02:00</time>
      </trkpt>
      <trkpt lat="44.28555" lon="6.44535">
        <ele>1836</ele>
        <time>2024-06-11T11:37:54+02:00</time>
      </trkpt>
      <trkpt lat="44.2856" lon="6.44529">
        <ele>1839</ele>
        <time>2024-06-11T11:38:07+02:00</time>
      </trkpt>
      <trkpt lat="44.28568" lon="6.44522">
        <ele>1842</ele>
        <time>2024-06-11T11:38:21+02:00</time>
      </trkpt>
      <trkpt lat="44.28577" lon="6.44513">
        <ele>1844</ele>
        <time>2024-06-11T11:38:39+02:00</time>
      </trkpt>
      <trkpt lat="44.28579" lon="6.44514">
        <ele>1844</ele>
        <time>2024-06-11T11:38:54+02:00</time>
      </trkpt>
      <trkpt lat="44.28586" lon="6.44509">
        <ele>1846</ele>
        <time>2024-06-11T11:39:08+02:00</time>
      </trkpt>
      <trkpt lat="44.28585" lon="6.44508">
        <ele>1846</ele>
        <time>2024-06-11T11:39:25+02:00</time>
      </trkpt>
      <trkpt lat="44.28592" lon="6.44506">
        <ele>1846</ele>
        <time>2024-06-11T11:39:41+02:00</time>
      </trkpt>
      <trkpt lat="44.28594" lon="6.44501">
        <ele>1847</ele>
        <time>2024-06-11T11:39:52+02:00</time>
      </trkpt>
      <trkpt lat="44.28598" lon="6.44485">
        <ele>1849</ele>
        <time>2024-06-11T11:40:09+02:00</time>
      </trkpt>
      <trkpt lat="44.28608" lon="6.44468">
        <ele>1851</ele>
        <time>2024-06-11T11:40:28+02:00</time>
      </trkpt>
      <trkpt lat="44.28614" lon="6.44458">
        <ele>1852</ele>
        <time>2024-06-11T11:40:41+02:00</time>
      </trkpt>
      <trkpt lat="44.28622" lon="6.44453">
        <ele>1853</ele>
        <time>2024-06-11T11:40:58+02:00</time>
      </trkpt>
      <trkpt lat="44.28624" lon="6.44455">
        <ele>1853</ele>
        <time>2024-06-11T11:41:15+02:00</time>
      </trkpt>
      <trkpt lat="44.28629" lon="6.44451">
        <ele>1854</ele>
        <time>2024-06-11T11:41:35+02:00</time>
      </trkpt>
      <trkpt lat="44.28631" lon="6.44449">
        <ele>1855</ele>
        <time>2024-06-11T11:41:38+02:00</time>
      </trkpt>
      <trkpt lat="44.28645" lon="6.44443">
        <ele>1858</ele>
        <time>2024-06-11T11:41:55+02:00</time>
      </trkpt>
      <trkpt lat="44.2866" lon="6.44438">
        <ele>1860</ele>
        <time>2024-06-11T11:42:12+02:00</time>
      </trkpt>
      <trkpt lat="44.28671" lon="6.44434">
        <ele>1864</ele>
        <time>2024-06-11T11:42:29+02:00</time>
      </trkpt>
      <trkpt lat="44.28676" lon="6.44431">
        <ele>1866</ele>
        <time>2024-06-11T11:42:45+02:00</time>
      </trkpt>
      <trkpt lat="44.28686" lon="6.44427">
        <ele>1871</ele>
        <time>2024-06-11T11:43:04+02:00</time>
      </trkpt>
      <trkpt lat="44.28685" lon="6.44416">
        <ele>1873</ele>
        <time>2024-06-11T11:43:18+02:00</time>
      </trkpt>
      <trkpt lat="44.28682" lon="6.44407">
        <ele>1872</ele>
        <time>2024-06-11T11:43:34+02:00</time>
      </trkpt>
      <trkpt lat="44.28681" lon="6.44402">
        <ele>1872</ele>
        <time>2024-06-11T11:43:50+02:00</time>
      </trkpt>
      <trkpt lat="44.28683" lon="6.44404">
        <ele>1873</ele>
        <time>2024-06-11T11:44:11+02:00</time>
      </trkpt>
      <trkpt lat="44.28683" lon="6.44402">
        <ele>1873</ele>
        <time>2024-06-11T11:44:39+02:00</time>
      </trkpt>
      <trkpt lat="44.28691" lon="6.44393">
        <ele>1875</ele>
        <time>2024-06-11T11:44:55+02:00</time>
      </trkpt>
      <trkpt lat="44.28698" lon="6.4439">
        <ele>1877</ele>
        <time>2024-06-11T11:45:12+02:00</time>
      </trkpt>
      <trkpt lat="44.28699" lon="6.44393">
        <ele>1877</ele>
        <time>2024-06-11T11:45:33+02:00</time>
      </trkpt>
      <trkpt lat="44.28707" lon="6.44397">
        <ele>1879</ele>
        <time>2024-06-11T11:45:48+02:00</time>
      </trkpt>
      <trkpt lat="44.28712" lon="6.44402">
        <ele>1881</ele>
        <time>2024-06-11T11:45:58+02:00</time>
      </trkpt>
      <trkpt lat="44.28713" lon="6.44407">
        <ele>1881</ele>
        <time>2024-06-11T11:46:16+02:00</time>
      </trkpt>
      <trkpt lat="44.28717" lon="6.44413">
        <ele>1882</ele>
        <time>2024-06-11T11:46:37+02:00</time>
      </trkpt>
      <trkpt lat="44.28726" lon="6.44419">
        <ele>1885</ele>
        <time>2024-06-11T11:46:53+02:00</time>
      </trkpt>
      <trkpt lat="44.28731" lon="6.44431">
        <ele>1886</ele>
        <time>2024-06-11T11:47:09+02:00</time>
      </trkpt>
      <trkpt lat="44.28732" lon="6.44443">
        <ele>1886</ele>
        <time>2024-06-11T11:47:25+02:00</time>
      </trkpt>
      <trkpt lat="44.28737" lon="6.44448">
        <ele>1887</ele>
        <time>2024-06-11T11:47:42+02:00</time>
      </trkpt>
      <trkpt lat="44.28742" lon="6.4444">
        <ele>1889</ele>
        <time>2024-06-11T11:47:59+02:00</time>
      </trkpt>
      <trkpt lat="44.28742" lon="6.44437">
        <ele>1888</ele>
        <time>2024-06-11T11:48:15+02:00</time>
      </trkpt>
      <trkpt lat="44.28749" lon="6.44432">
        <ele>1890</ele>
        <time>2024-06-11T11:48:42+02:00</time>
      </trkpt>
      <trkpt lat="44.28751" lon="6.44434">
        <ele>1890</ele>
        <time>2024-06-11T11:49:01+02:00</time>
      </trkpt>
      <trkpt lat="44.28754" lon="6.44437">
        <ele>1891</ele>
        <time>2024-06-11T11:49:30+02:00</time>
      </trkpt>
      <trkpt lat="44.28754" lon="6.44433">
        <ele>1891</ele>
        <time>2024-06-11T11:49:55+02:00</time>
      </trkpt>
      <trkpt lat="44.28755" lon="6.44439">
        <ele>1892</ele>
        <time>2024-06-11T11:50:13+02:00</time>
      </trkpt>
      <trkpt lat="44.28758" lon="6.44444">
        <ele>1893</ele>
        <time>2024-06-11T11:50:32+02:00</time>
      </trkpt>
      <trkpt lat="44.2876" lon="6.44451">
        <ele>1895</ele>
        <time>2024-06-11T11:50:42+02:00</time>
      </trkpt>
      <trkpt lat="44.28762" lon="6.44455">
        <ele>1897</ele>
        <time>2024-06-11T11:50:56+02:00</time>
      </trkpt>
      <trkpt lat="44.28764" lon="6.44462">
        <ele>1900</ele>
        <time>2024-06-11T11:51:17+02:00</time>
      </trkpt>
      <trkpt lat="44.28767" lon="6.44467">
        <ele>1903</ele>
        <time>2024-06-11T11:51:34+02:00</time>
      </trkpt>
      <trkpt lat="44.28766" lon="6.44468">
        <ele>1902</ele>
        <time>2024-06-11T11:52:02+02:00</time>
      </trkpt>
      <trkpt lat="44.28765" lon="6.44466">
        <ele>1901</ele>
        <time>2024-06-11T11:52:28+02:00</time>
      </trkpt>
      <trkpt lat="44.28765" lon="6.44465">
        <ele>1901</ele>
        <time>2024-06-11T11:52:56+02:00</time>
      </trkpt>
      <trkpt lat="44.28772" lon="6.44467">
        <ele>1906</ele>
        <time>2024-06-11T11:53:15+02:00</time>
      </trkpt>
      <trkpt lat="44.28771" lon="6.44465">
        <ele>1905</ele>
        <time>2024-06-11T11:53:30+02:00</time>
      </trkpt>
      <trkpt lat="44.28777" lon="6.44463">
        <ele>1908</ele>
        <time>2024-06-11T11:53:46+02:00</time>
      </trkpt>
      <trkpt lat="44.28784" lon="6.44475">
        <ele>1910</ele>
        <time>2024-06-11T11:54:03+02:00</time>
      </trkpt>
      <trkpt lat="44.2879" lon="6.44477">
        <ele>1908</ele>
        <time>2024-06-11T11:54:21+02:00</time>
      </trkpt>
      <trkpt lat="44.28792" lon="6.44478">
        <ele>1907</ele>
        <time>2024-06-11T11:54:37+02:00</time>
      </trkpt>
      <trkpt lat="44.28791" lon="6.44478">
        <ele>1908</ele>
        <time>2024-06-11T11:54:56+02:00</time>
      </trkpt>
      <trkpt lat="44.28791" lon="6.44477">
        <ele>1908</ele>
        <time>2024-06-11T11:55:16+02:00</time>
      </trkpt>
      <trkpt lat="44.28787" lon="6.44478">
        <ele>1909</ele>
        <time>2024-06-11T11:55:39+02:00</time>
      </trkpt>
      <trkpt lat="44.28787" lon="6.44476">
        <ele>1909</ele>
        <time>2024-06-11T11:56:01+02:00</time>
      </trkpt>
      <trkpt lat="44.28786" lon="6.44478">
        <ele>1909</ele>
        <time>2024-06-11T11:56:36+02:00</time>
      </trkpt>
      <trkpt lat="44.28788" lon="6.44477">
        <ele>1909</ele>
        <time>2024-06-11T11:56:56+02:00</time>
      </trkpt>
      <trkpt lat="44.28789" lon="6.44478">
        <ele>1908</ele>
        <time>2024-06-11T11:57:12+02:00</time>
      </trkpt>
      <trkpt lat="44.28788" lon="6.44479">
        <ele>1908</ele>
        <time>2024-06-11T11:57:37+02:00</time>
      </trkpt>
      <trkpt lat="44.28788" lon="6.4448">
        <ele>1908</ele>
        <time>2024-06-11T11:58:05+02:00</time>
      </trkpt>
      <trkpt lat="44.28789" lon="6.4448">
        <ele>1908</ele>
        <time>2024-06-11T11:58:31+02:00</time>
      </trkpt>
      <trkpt lat="44.28789" lon="6.4448">
        <ele>1908</ele>
        <time>2024-06-11T11:58:50+02:00</time>
      </trkpt>
      <trkpt lat="44.2879" lon="6.44479">
        <ele>1908</ele>
        <time>2024-06-11T11:59:11+02:00</time>
      </trkpt>
      <trkpt lat="44.2879" lon="6.4448">
        <ele>1908</ele>
        <time>2024-06-11T11:59:37+02:00</time>
      </trkpt>
      <trkpt lat="44.28793" lon="6.44475">
        <ele>1907</ele>
        <time>2024-06-11T11:59:52+02:00</time>
      </trkpt>
      <trkpt lat="44.28791" lon="6.44479">
        <ele>1907</ele>
        <time>2024-06-11T12:00:16+02:00</time>
      </trkpt>
      <trkpt lat="44.28787" lon="6.44477">
        <ele>1909</ele>
        <time>2024-06-11T12:00:28+02:00</time>
      </trkpt>
      <trkpt lat="44.28785" lon="6.44475">
        <ele>1910</ele>
        <time>2024-06-11T12:00:45+02:00</time>
      </trkpt>
      <trkpt lat="44.28779" lon="6.44466">
        <ele>1909</ele>
        <time>2024-06-11T12:01:04+02:00</time>
      </trkpt>
      <trkpt lat="44.28776" lon="6.44465">
        <ele>1908</ele>
        <time>2024-06-11T12:01:18+02:00</time>
      </trkpt>
      <trkpt lat="44.28774" lon="6.44464">
        <ele>1906</ele>
        <time>2024-06-11T12:01:34+02:00</time>
      </trkpt>
      <trkpt lat="44.28772" lon="6.44474">
        <ele>1908</ele>
        <time>2024-06-11T12:01:49+02:00</time>
      </trkpt>
      <trkpt lat="44.28769" lon="6.44473">
        <ele>1906</ele>
        <time>2024-06-11T12:02:04+02:00</time>
      </trkpt>
      <trkpt lat="44.28765" lon="6.44472">
        <ele>1903</ele>
        <time>2024-06-11T12:02:20+02:00</time>
      </trkpt>
      <trkpt lat="44.28763" lon="6.4447">
        <ele>1901</ele>
        <time>2024-06-11T12:02:33+02:00</time>
      </trkpt>
      <trkpt lat="44.28757" lon="6.44462">
        <ele>1896</ele>
        <time>2024-06-11T12:02:48+02:00</time>
      </trkpt>
      <trkpt lat="44.28752" lon="6.44452">
        <ele>1892</ele>
        <time>2024-06-11T12:03:03+02:00</time>
      </trkpt>
      <trkpt lat="44.28746" lon="6.44444">
        <ele>1890</ele>
        <time>2024-06-11T12:03:18+02:00</time>
      </trkpt>
      <trkpt lat="44.28745" lon="6.44447">
        <ele>1890</ele>
        <time>2024-06-11T12:03:48+02:00</time>
      </trkpt>
      <trkpt lat="44.28746" lon="6.44446">
        <ele>1890</ele>
        <time>2024-06-11T12:04:16+02:00</time>
      </trkpt>
      <trkpt lat="44.28747" lon="6.44445">
        <ele>1890</ele>
        <time>2024-06-11T12:04:45+02:00</time>
      </trkpt>
      <trkpt lat="44.28744" lon="6.44441">
        <ele>1889</ele>
        <time>2024-06-11T12:04:56+02:00</time>
      </trkpt>
      <trkpt lat="44.28734" lon="6.44443">
        <ele>1886</ele>
        <time>2024-06-11T12:05:12+02:00</time>
      </trkpt>
      <trkpt lat="44.28734" lon="6.44442">
        <ele>1886</ele>
        <time>2024-06-11T12:05:14+02:00</time>
      </trkpt>
      <trkpt lat="44.28732" lon="6.44436">
        <ele>1886</ele>
        <time>2024-06-11T12:05:21+02:00</time>
      </trkpt>
      <trkpt lat="44.28729" lon="6.44426">
        <ele>1885</ele>
        <time>2024-06-11T12:05:38+02:00</time>
      </trkpt>
      <trkpt lat="44.28722" lon="6.44421">
        <ele>1884</ele>
        <time>2024-06-11T12:05:54+02:00</time>
      </trkpt>
      <trkpt lat="44.28717" lon="6.44415">
        <ele>1882</ele>
        <time>2024-06-11T12:06:09+02:00</time>
      </trkpt>
      <trkpt lat="44.28709" lon="6.44407">
        <ele>1880</ele>
        <time>2024-06-11T12:06:25+02:00</time>
      </trkpt>
      <trkpt lat="44.28707" lon="6.44404">
        <ele>1879</ele>
        <time>2024-06-11T12:06:30+02:00</time>
      </trkpt>
      <trkpt lat="44.287" lon="6.44396">
        <ele>1877</ele>
        <time>2024-06-11T12:06:46+02:00</time>
      </trkpt>
      <trkpt lat="44.28694" lon="6.44405">
        <ele>1876</ele>
        <time>2024-06-11T12:06:59+02:00</time>
      </trkpt>
      <trkpt lat="44.28692" lon="6.44413">
        <ele>1875</ele>
        <time>2024-06-11T12:07:13+02:00</time>
      </trkpt>
      <trkpt lat="44.28688" lon="6.44419">
        <ele>1874</ele>
        <time>2024-06-11T12:07:26+02:00</time>
      </trkpt>
      <trkpt lat="44.28684" lon="6.44424">
        <ele>1871</ele>
        <time>2024-06-11T12:07:43+02:00</time>
      </trkpt>
      <trkpt lat="44.28679" lon="6.4443">
        <ele>1867</ele>
        <time>2024-06-11T12:08:00+02:00</time>
      </trkpt>
      <trkpt lat="44.28675" lon="6.44437">
        <ele>1864</ele>
        <time>2024-06-11T12:08:14+02:00</time>
      </trkpt>
      <trkpt lat="44.28671" lon="6.44442">
        <ele>1861</ele>
        <time>2024-06-11T12:08:27+02:00</time>
      </trkpt>
      <trkpt lat="44.28665" lon="6.44455">
        <ele>1857</ele>
        <time>2024-06-11T12:08:43+02:00</time>
      </trkpt>
      <trkpt lat="44.28663" lon="6.44465">
        <ele>1855</ele>
        <time>2024-06-11T12:08:51+02:00</time>
      </trkpt>
      <trkpt lat="44.28659" lon="6.44485">
        <ele>1851</ele>
        <time>2024-06-11T12:09:08+02:00</time>
      </trkpt>
      <trkpt lat="44.28654" lon="6.44499">
        <ele>1849</ele>
        <time>2024-06-11T12:09:23+02:00</time>
      </trkpt>
      <trkpt lat="44.28652" lon="6.44513">
        <ele>1846</ele>
        <time>2024-06-11T12:09:38+02:00</time>
      </trkpt>
      <trkpt lat="44.28646" lon="6.44522">
        <ele>1844</ele>
        <time>2024-06-11T12:09:56+02:00</time>
      </trkpt>
      <trkpt lat="44.28645" lon="6.44536">
        <ele>1840</ele>
        <time>2024-06-11T12:10:11+02:00</time>
      </trkpt>
      <trkpt lat="44.28642" lon="6.44553">
        <ele>1836</ele>
        <time>2024-06-11T12:10:26+02:00</time>
      </trkpt>
      <trkpt lat="44.28641" lon="6.44566">
        <ele>1833</ele>
        <time>2024-06-11T12:10:41+02:00</time>
      </trkpt>
      <trkpt lat="44.28641" lon="6.44575">
        <ele>1831</ele>
        <time>2024-06-11T12:10:50+02:00</time>
      </trkpt>
      <trkpt lat="44.28641" lon="6.44582">
        <ele>1829</ele>
        <time>2024-06-11T12:10:55+02:00</time>
      </trkpt>
      <trkpt lat="44.28643" lon="6.44587">
        <ele>1829</ele>
        <time>2024-06-11T12:11:09+02:00</time>
      </trkpt>
      <trkpt lat="44.28643" lon="6.44583">
        <ele>1829</ele>
        <time>2024-06-11T12:11:27+02:00</time>
      </trkpt>
      <trkpt lat="44.2864" lon="6.4459">
        <ele>1828</ele>
        <time>2024-06-11T12:11:44+02:00</time>
      </trkpt>
      <trkpt lat="44.28639" lon="6.44602">
        <ele>1826</ele>
        <time>2024-06-11T12:12:00+02:00</time>
      </trkpt>
      <trkpt lat="44.28644" lon="6.44608">
        <ele>1825</ele>
        <time>2024-06-11T12:12:14+02:00</time>
      </trkpt>
      <trkpt lat="44.28655" lon="6.44619">
        <ele>1823</ele>
        <time>2024-06-11T12:12:31+02:00</time>
      </trkpt>
      <trkpt lat="44.28657" lon="6.44622">
        <ele>1823</ele>
        <time>2024-06-11T12:12:34+02:00</time>
      </trkpt>
      <trkpt lat="44.28665" lon="6.44642">
        <ele>1820</ele>
        <time>2024-06-11T12:12:51+02:00</time>
      </trkpt>
      <trkpt lat="44.28673" lon="6.44656">
        <ele>1818</ele>
        <time>2024-06-11T12:13:07+02:00</time>
      </trkpt>
      <trkpt lat="44.28679" lon="6.44667">
        <ele>1816</ele>
        <time>2024-06-11T12:13:20+02:00</time>
      </trkpt>
      <trkpt lat="44.28681" lon="6.44672">
        <ele>1814</ele>
        <time>2024-06-11T12:13:35+02:00</time>
      </trkpt>
      <trkpt lat="44.2868" lon="6.44677">
        <ele>1813</ele>
        <time>2024-06-11T12:13:55+02:00</time>
      </trkpt>
      <trkpt lat="44.28689" lon="6.44686">
        <ele>1811</ele>
        <time>2024-06-11T12:14:08+02:00</time>
      </trkpt>
      <trkpt lat="44.28694" lon="6.44693">
        <ele>1809</ele>
        <time>2024-06-11T12:14:24+02:00</time>
      </trkpt>
      <trkpt lat="44.28701" lon="6.44701">
        <ele>1809</ele>
        <time>2024-06-11T12:14:35+02:00</time>
      </trkpt>
      <trkpt lat="44.28706" lon="6.44704">
        <ele>1809</ele>
        <time>2024-06-11T12:14:41+02:00</time>
      </trkpt>
      <trkpt lat="44.2872" lon="6.4472">
        <ele>1806</ele>
        <time>2024-06-11T12:14:59+02:00</time>
      </trkpt>
      <trkpt lat="44.28721" lon="6.44722">
        <ele>1806</ele>
        <time>2024-06-11T12:15:01+02:00</time>
      </trkpt>
      <trkpt lat="44.28726" lon="6.44725">
        <ele>1807</ele>
        <time>2024-06-11T12:15:07+02:00</time>
      </trkpt>
      <trkpt lat="44.28735" lon="6.44739">
        <ele>1806</ele>
        <time>2024-06-11T12:15:21+02:00</time>
      </trkpt>
      <trkpt lat="44.28739" lon="6.44751">
        <ele>1803</ele>
        <time>2024-06-11T12:15:33+02:00</time>
      </trkpt>
      <trkpt lat="44.28743" lon="6.44758">
        <ele>1803</ele>
        <time>2024-06-11T12:15:39+02:00</time>
      </trkpt>
      <trkpt lat="44.28747" lon="6.44768">
        <ele>1801</ele>
        <time>2024-06-11T12:15:54+02:00</time>
      </trkpt>
      <trkpt lat="44.28747" lon="6.4477">
        <ele>1801</ele>
        <time>2024-06-11T12:15:56+02:00</time>
      </trkpt>
      <trkpt lat="44.28753" lon="6.44784">
        <ele>1798</ele>
        <time>2024-06-11T12:16:12+02:00</time>
      </trkpt>
      <trkpt lat="44.28754" lon="6.44788">
        <ele>1798</ele>
        <time>2024-06-11T12:16:31+02:00</time>
      </trkpt>
      <trkpt lat="44.28757" lon="6.44805">
        <ele>1795</ele>
        <time>2024-06-11T12:16:48+02:00</time>
      </trkpt>
      <trkpt lat="44.28762" lon="6.44809">
        <ele>1796</ele>
        <time>2024-06-11T12:16:57+02:00</time>
      </trkpt>
      <trkpt lat="44.28765" lon="6.44816">
        <ele>1796</ele>
        <time>2024-06-11T12:17:11+02:00</time>
      </trkpt>
      <trkpt lat="44.28767" lon="6.44829">
        <ele>1796</ele>
        <time>2024-06-11T12:17:26+02:00</time>
      </trkpt>
      <trkpt lat="44.28767" lon="6.44842">
        <ele>1796</ele>
        <time>2024-06-11T12:17:39+02:00</time>
      </trkpt>
      <trkpt lat="44.28768" lon="6.44861">
        <ele>1796</ele>
        <time>2024-06-11T12:17:54+02:00</time>
      </trkpt>
      <trkpt lat="44.28769" lon="6.44883">
        <ele>1797</ele>
        <time>2024-06-11T12:18:13+02:00</time>
      </trkpt>
      <trkpt lat="44.2877" lon="6.44891">
        <ele>1797</ele>
        <time>2024-06-11T12:18:28+02:00</time>
      </trkpt>
      <trkpt lat="44.2877" lon="6.44893">
        <ele>1797</ele>
        <time>2024-06-11T12:18:30+02:00</time>
      </trkpt>
      <trkpt lat="44.28769" lon="6.44895">
        <ele>1797</ele>
        <time>2024-06-11T12:18:42+02:00</time>
      </trkpt>
      <trkpt lat="44.28771" lon="6.44897">
        <ele>1797</ele>
        <time>2024-06-11T12:18:50+02:00</time>
      </trkpt>
      <trkpt lat="44.28773" lon="6.44897">
        <ele>1798</ele>
        <time>2024-06-11T12:19:04+02:00</time>
      </trkpt>
      <trkpt lat="44.28774" lon="6.44902">
        <ele>1798</ele>
        <time>2024-06-11T12:19:18+02:00</time>
      </trkpt>
      <trkpt lat="44.28773" lon="6.44909">
        <ele>1798</ele>
        <time>2024-06-11T12:19:38+02:00</time>
      </trkpt>
      <trkpt lat="44.2877" lon="6.44919">
        <ele>1798</ele>
        <time>2024-06-11T12:19:53+02:00</time>
      </trkpt>
      <trkpt lat="44.2876" lon="6.44932">
        <ele>1798</ele>
        <time>2024-06-11T12:20:10+02:00</time>
      </trkpt>
      <trkpt lat="44.2875" lon="6.44945">
        <ele>1798</ele>
        <time>2024-06-11T12:20:26+02:00</time>
      </trkpt>
      <trkpt lat="44.28744" lon="6.44952">
        <ele>1798</ele>
        <time>2024-06-11T12:20:40+02:00</time>
      </trkpt>
      <trkpt lat="44.28745" lon="6.44958">
        <ele>1798</ele>
        <time>2024-06-11T12:20:52+02:00</time>
      </trkpt>
      <trkpt lat="44.28745" lon="6.44957">
        <ele>1798</ele>
        <time>2024-06-11T12:21:09+02:00</time>
      </trkpt>
      <trkpt lat="44.28746" lon="6.44959">
        <ele>1799</ele>
        <time>2024-06-11T12:21:26+02:00</time>
      </trkpt>
      <trkpt lat="44.28743" lon="6.44958">
        <ele>1798</ele>
        <time>2024-06-11T12:21:39+02:00</time>
      </trkpt>
      <trkpt lat="44.28746" lon="6.44958">
        <ele>1798</ele>
        <time>2024-06-11T12:21:55+02:00</time>
      </trkpt>
      <trkpt lat="44.28746" lon="6.4496">
        <ele>1799</ele>
        <time>2024-06-11T12:22:14+02:00</time>
      </trkpt>
      <trkpt lat="44.28745" lon="6.44959">
        <ele>1798</ele>
        <time>2024-06-11T12:22:35+02:00</time>
      </trkpt>
      <trkpt lat="44.28744" lon="6.44958">
        <ele>1798</ele>
        <time>2024-06-11T12:22:58+02:00</time>
      </trkpt>
      <trkpt lat="44.28745" lon="6.44961">
        <ele>1799</ele>
        <time>2024-06-11T12:23:21+02:00</time>
      </trkpt>
      <trkpt lat="44.28743" lon="6.44961">
        <ele>1798</ele>
        <time>2024-06-11T12:23:40+02:00</time>
      </trkpt>
      <trkpt lat="44.28743" lon="6.44962">
        <ele>1799</ele>
        <time>2024-06-11T12:23:52+02:00</time>
      </trkpt>
      <trkpt lat="44.28746" lon="6.44981">
        <ele>1800</ele>
        <time>2024-06-11T12:24:08+02:00</time>
      </trkpt>
      <trkpt lat="44.28754" lon="6.44987">
        <ele>1801</ele>
        <time>2024-06-11T12:24:25+02:00</time>
      </trkpt>
      <trkpt lat="44.28762" lon="6.44997">
        <ele>1801</ele>
        <time>2024-06-11T12:24:39+02:00</time>
      </trkpt>
      <trkpt lat="44.28763" lon="6.4501">
        <ele>1802</ele>
        <time>2024-06-11T12:24:52+02:00</time>
      </trkpt>
      <trkpt lat="44.28758" lon="6.4502">
        <ele>1803</ele>
        <time>2024-06-11T12:25:04+02:00</time>
      </trkpt>
      <trkpt lat="44.28758" lon="6.45025">
        <ele>1803</ele>
        <time>2024-06-11T12:25:08+02:00</time>
      </trkpt>
      <trkpt lat="44.28758" lon="6.45033">
        <ele>1804</ele>
        <time>2024-06-11T12:25:16+02:00</time>
      </trkpt>
      <trkpt lat="44.28755" lon="6.45057">
        <ele>1805</ele>
        <time>2024-06-11T12:25:32+02:00</time>
      </trkpt>
      <trkpt lat="44.28749" lon="6.45085">
        <ele>1805</ele>
        <time>2024-06-11T12:25:51+02:00</time>
      </trkpt>
      <trkpt lat="44.28745" lon="6.45098">
        <ele>1805</ele>
        <time>2024-06-11T12:26:04+02:00</time>
      </trkpt>
      <trkpt lat="44.28738" lon="6.45118">
        <ele>1804</ele>
        <time>2024-06-11T12:26:23+02:00</time>
      </trkpt>
      <trkpt lat="44.28733" lon="6.45142">
        <ele>1802</ele>
        <time>2024-06-11T12:26:40+02:00</time>
      </trkpt>
      <trkpt lat="44.28733" lon="6.45144">
        <ele>1802</ele>
        <time>2024-06-11T12:26:41+02:00</time>
      </trkpt>
      <trkpt lat="44.28732" lon="6.45148">
        <ele>1802</ele>
        <time>2024-06-11T12:26:44+02:00</time>
      </trkpt>
      <trkpt lat="44.28732" lon="6.4515">
        <ele>1802</ele>
        <time>2024-06-11T12:26:45+02:00</time>
      </trkpt>
      <trkpt lat="44.28731" lon="6.45154">
        <ele>1801</ele>
        <time>2024-06-11T12:26:48+02:00</time>
      </trkpt>
      <trkpt lat="44.28726" lon="6.45178">
        <ele>1800</ele>
        <time>2024-06-11T12:27:04+02:00</time>
      </trkpt>
      <trkpt lat="44.28727" lon="6.45182">
        <ele>1800</ele>
        <time>2024-06-11T12:27:16+02:00</time>
      </trkpt>
      <trkpt lat="44.28728" lon="6.45183">
        <ele>1800</ele>
        <time>2024-06-11T12:27:32+02:00</time>
      </trkpt>
      <trkpt lat="44.28725" lon="6.45182">
        <ele>1800</ele>
        <time>2024-06-11T12:27:36+02:00</time>
      </trkpt>
      <trkpt lat="44.28713" lon="6.45199">
        <ele>1799</ele>
        <time>2024-06-11T12:27:53+02:00</time>
      </trkpt>
      <trkpt lat="44.287" lon="6.45219">
        <ele>1796</ele>
        <time>2024-06-11T12:28:10+02:00</time>
      </trkpt>
      <trkpt lat="44.28691" lon="6.4524">
        <ele>1793</ele>
        <time>2024-06-11T12:28:27+02:00</time>
      </trkpt>
      <trkpt lat="44.28692" lon="6.45246">
        <ele>1793</ele>
        <time>2024-06-11T12:28:31+02:00</time>
      </trkpt>
      <trkpt lat="44.28691" lon="6.45275">
        <ele>1791</ele>
        <time>2024-06-11T12:28:50+02:00</time>
      </trkpt>
      <trkpt lat="44.28682" lon="6.45305">
        <ele>1789</ele>
        <time>2024-06-11T12:29:11+02:00</time>
      </trkpt>
      <trkpt lat="44.28681" lon="6.45308">
        <ele>1789</ele>
        <time>2024-06-11T12:29:13+02:00</time>
      </trkpt>
      <trkpt lat="44.28673" lon="6.45326">
        <ele>1787</ele>
        <time>2024-06-11T12:29:26+02:00</time>
      </trkpt>
      <trkpt lat="44.28672" lon="6.45331">
        <ele>1787</ele>
        <time>2024-06-11T12:29:39+02:00</time>
      </trkpt>
      <trkpt lat="44.28665" lon="6.45339">
        <ele>1785</ele>
        <time>2024-06-11T12:29:53+02:00</time>
      </trkpt>
      <trkpt lat="44.2866" lon="6.45343">
        <ele>1785</ele>
        <time>2024-06-11T12:29:59+02:00</time>
      </trkpt>
      <trkpt lat="44.28652" lon="6.45364">
        <ele>1782</ele>
        <time>2024-06-11T12:30:12+02:00</time>
      </trkpt>
      <trkpt lat="44.28638" lon="6.45379">
        <ele>1780</ele>
        <time>2024-06-11T12:30:30+02:00</time>
      </trkpt>
      <trkpt lat="44.28628" lon="6.45389">
        <ele>1780</ele>
        <time>2024-06-11T12:30:44+02:00</time>
      </trkpt>
      <trkpt lat="44.28619" lon="6.45395">
        <ele>1779</ele>
        <time>2024-06-11T12:30:53+02:00</time>
      </trkpt>
      <trkpt lat="44.28602" lon="6.45403">
        <ele>1777</ele>
        <time>2024-06-11T12:31:09+02:00</time>
      </trkpt>
      <trkpt lat="44.28594" lon="6.45407">
        <ele>1776</ele>
        <time>2024-06-11T12:31:23+02:00</time>
      </trkpt>
      <trkpt lat="44.2859" lon="6.45412">
        <ele>1775</ele>
        <time>2024-06-11T12:31:37+02:00</time>
      </trkpt>
      <trkpt lat="44.28587" lon="6.45413">
        <ele>1774</ele>
        <time>2024-06-11T12:31:46+02:00</time>
      </trkpt>
      <trkpt lat="44.28578" lon="6.45418">
        <ele>1772</ele>
        <time>2024-06-11T12:32:02+02:00</time>
      </trkpt>
      <trkpt lat="44.28575" lon="6.45419">
        <ele>1772</ele>
        <time>2024-06-11T12:32:12+02:00</time>
      </trkpt>
      <trkpt lat="44.28572" lon="6.45417">
        <ele>1771</ele>
        <time>2024-06-11T12:32:23+02:00</time>
      </trkpt>
      <trkpt lat="44.28567" lon="6.45414">
        <ele>1769</ele>
        <time>2024-06-11T12:32:34+02:00</time>
      </trkpt>
      <trkpt lat="44.28561" lon="6.45409">
        <ele>1768</ele>
        <time>2024-06-11T12:32:51+02:00</time>
      </trkpt>
      <trkpt lat="44.28563" lon="6.45411">
        <ele>1768</ele>
        <time>2024-06-11T12:32:58+02:00</time>
      </trkpt>
      <trkpt lat="44.28565" lon="6.45416">
        <ele>1769</ele>
        <time>2024-06-11T12:33:03+02:00</time>
      </trkpt>
      <trkpt lat="44.28552" lon="6.45424">
        <ele>1769</ele>
        <time>2024-06-11T12:33:16+02:00</time>
      </trkpt>
      <trkpt lat="44.2855" lon="6.45424">
        <ele>1768</ele>
        <time>2024-06-11T12:33:19+02:00</time>
      </trkpt>
      <trkpt lat="44.28544" lon="6.45426">
        <ele>1768</ele>
        <time>2024-06-11T12:33:27+02:00</time>
      </trkpt>
      <trkpt lat="44.28548" lon="6.45419">
        <ele>1766</ele>
        <time>2024-06-11T12:34:20+02:00</time>
      </trkpt>
      <trkpt lat="44.28544" lon="6.45412">
        <ele>1764</ele>
        <time>2024-06-11T12:34:32+02:00</time>
      </trkpt>
      <trkpt lat="44.28539" lon="6.45406">
        <ele>1761</ele>
        <time>2024-06-11T12:34:46+02:00</time>
      </trkpt>
      <trkpt lat="44.28534" lon="6.454">
        <ele>1758</ele>
        <time>2024-06-11T12:34:59+02:00</time>
      </trkpt>
      <trkpt lat="44.2853" lon="6.45402">
        <ele>1757</ele>
        <time>2024-06-11T12:36:21+02:00</time>
      </trkpt>
      <trkpt lat="44.28528" lon="6.45391">
        <ele>1752</ele>
        <time>2024-06-11T12:36:50+02:00</time>
      </trkpt>
      <trkpt lat="44.28525" lon="6.45388">
        <ele>1751</ele>
        <time>2024-06-11T12:37:04+02:00</time>
      </trkpt>
      <trkpt lat="44.28521" lon="6.45385">
        <ele>1749</ele>
        <time>2024-06-11T12:37:16+02:00</time>
      </trkpt>
      <trkpt lat="44.28524" lon="6.45379">
        <ele>1749</ele>
        <time>2024-06-11T12:37:34+02:00</time>
      </trkpt>
      <trkpt lat="44.28523" lon="6.45375">
        <ele>1749</ele>
        <time>2024-06-11T12:37:50+02:00</time>
      </trkpt>
      <trkpt lat="44.28522" lon="6.45369">
        <ele>1748</ele>
        <time>2024-06-11T12:38:01+02:00</time>
      </trkpt>
      <trkpt lat="44.28519" lon="6.45359">
        <ele>1745</ele>
        <time>2024-06-11T12:38:15+02:00</time>
      </trkpt>
      <trkpt lat="44.28517" lon="6.45359">
        <ele>1744</ele>
        <time>2024-06-11T12:38:31+02:00</time>
      </trkpt>
      <trkpt lat="44.28514" lon="6.45361">
        <ele>1742</ele>
        <time>2024-06-11T12:38:45+02:00</time>
      </trkpt>
      <trkpt lat="44.2851" lon="6.45363">
        <ele>1740</ele>
        <time>2024-06-11T12:38:57+02:00</time>
      </trkpt>
      <trkpt lat="44.28505" lon="6.45374">
        <ele>1738</ele>
        <time>2024-06-11T12:39:13+02:00</time>
      </trkpt>
      <trkpt lat="44.28503" lon="6.45373">
        <ele>1737</ele>
        <time>2024-06-11T12:39:31+02:00</time>
      </trkpt>
      <trkpt lat="44.28503" lon="6.45373">
        <ele>1737</ele>
        <time>2024-06-11T12:39:53+02:00</time>
      </trkpt>
      <trkpt lat="44.28502" lon="6.45368">
        <ele>1736</ele>
        <time>2024-06-11T12:40:07+02:00</time>
      </trkpt>
      <trkpt lat="44.28499" lon="6.45365">
        <ele>1733</ele>
        <time>2024-06-11T12:40:22+02:00</time>
      </trkpt>
      <trkpt lat="44.28495" lon="6.45363">
        <ele>1731</ele>
        <time>2024-06-11T12:40:41+02:00</time>
      </trkpt>
      <trkpt lat="44.2849" lon="6.45363">
        <ele>1729</ele>
        <time>2024-06-11T12:40:54+02:00</time>
      </trkpt>
      <trkpt lat="44.28486" lon="6.45367">
        <ele>1727</ele>
        <time>2024-06-11T12:41:09+02:00</time>
      </trkpt>
      <trkpt lat="44.28478" lon="6.45369">
        <ele>1725</ele>
        <time>2024-06-11T12:41:24+02:00</time>
      </trkpt>
      <trkpt lat="44.2847" lon="6.45368">
        <ele>1720</ele>
        <time>2024-06-11T12:41:39+02:00</time>
      </trkpt>
      <trkpt lat="44.28468" lon="6.45366">
        <ele>1719</ele>
        <time>2024-06-11T12:41:54+02:00</time>
      </trkpt>
      <trkpt lat="44.28469" lon="6.45363">
        <ele>1718</ele>
        <time>2024-06-11T12:42:06+02:00</time>
      </trkpt>
      <trkpt lat="44.28467" lon="6.45352">
        <ele>1717</ele>
        <time>2024-06-11T12:42:22+02:00</time>
      </trkpt>
      <trkpt lat="44.28462" lon="6.4535">
        <ele>1714</ele>
        <time>2024-06-11T12:42:36+02:00</time>
      </trkpt>
      <trkpt lat="44.28455" lon="6.4535">
        <ele>1711</ele>
        <time>2024-06-11T12:42:49+02:00</time>
      </trkpt>
      <trkpt lat="44.28451" lon="6.45348">
        <ele>1709</ele>
        <time>2024-06-11T12:43:04+02:00</time>
      </trkpt>
      <trkpt lat="44.28445" lon="6.45349">
        <ele>1706</ele>
        <time>2024-06-11T12:43:20+02:00</time>
      </trkpt>
      <trkpt lat="44.28438" lon="6.45347">
        <ele>1703</ele>
        <time>2024-06-11T12:43:37+02:00</time>
      </trkpt>
      <trkpt lat="44.28435" lon="6.45348">
        <ele>1702</ele>
        <time>2024-06-11T12:43:51+02:00</time>
      </trkpt>
      <trkpt lat="44.28431" lon="6.45346">
        <ele>1700</ele>
        <time>2024-06-11T12:44:06+02:00</time>
      </trkpt>
      <trkpt lat="44.28429" lon="6.45345">
        <ele>1699</ele>
        <time>2024-06-11T12:44:18+02:00</time>
      </trkpt>
      <trkpt lat="44.28429" lon="6.45345">
        <ele>1698</ele>
        <time>2024-06-11T12:44:37+02:00</time>
      </trkpt>
      <trkpt lat="44.28424" lon="6.45345">
        <ele>1696</ele>
        <time>2024-06-11T12:44:52+02:00</time>
      </trkpt>
      <trkpt lat="44.28419" lon="6.45343">
        <ele>1694</ele>
        <time>2024-06-11T12:45:06+02:00</time>
      </trkpt>
      <trkpt lat="44.28417" lon="6.45345">
        <ele>1693</ele>
        <time>2024-06-11T12:45:19+02:00</time>
      </trkpt>
      <trkpt lat="44.28415" lon="6.45349">
        <ele>1693</ele>
        <time>2024-06-11T12:45:32+02:00</time>
      </trkpt>
      <trkpt lat="44.28409" lon="6.45355">
        <ele>1692</ele>
        <time>2024-06-11T12:45:48+02:00</time>
      </trkpt>
      <trkpt lat="44.28402" lon="6.45356">
        <ele>1690</ele>
        <time>2024-06-11T12:46:04+02:00</time>
      </trkpt>
      <trkpt lat="44.28393" lon="6.45358">
        <ele>1687</ele>
        <time>2024-06-11T12:46:20+02:00</time>
      </trkpt>
      <trkpt lat="44.28386" lon="6.45361">
        <ele>1685</ele>
        <time>2024-06-11T12:46:32+02:00</time>
      </trkpt>
      <trkpt lat="44.28375" lon="6.45361">
        <ele>1683</ele>
        <time>2024-06-11T12:46:46+02:00</time>
      </trkpt>
      <trkpt lat="44.28367" lon="6.45359">
        <ele>1679</ele>
        <time>2024-06-11T12:47:01+02:00</time>
      </trkpt>
      <trkpt lat="44.28366" lon="6.45356">
        <ele>1677</ele>
        <time>2024-06-11T12:47:12+02:00</time>
      </trkpt>
      <trkpt lat="44.28375" lon="6.45354">
        <ele>1679</ele>
        <time>2024-06-11T12:47:28+02:00</time>
      </trkpt>
      <trkpt lat="44.28381" lon="6.45346">
        <ele>1678</ele>
        <time>2024-06-11T12:47:45+02:00</time>
      </trkpt>
      <trkpt lat="44.2838" lon="6.45337">
        <ele>1674</ele>
        <time>2024-06-11T12:47:55+02:00</time>
      </trkpt>
      <trkpt lat="44.28372" lon="6.45323">
        <ele>1668</ele>
        <time>2024-06-11T12:48:10+02:00</time>
      </trkpt>
      <trkpt lat="44.28366" lon="6.45321">
        <ele>1663</ele>
        <time>2024-06-11T12:48:29+02:00</time>
      </trkpt>
      <trkpt lat="44.28358" lon="6.45319">
        <ele>1659</ele>
        <time>2024-06-11T12:48:45+02:00</time>
      </trkpt>
      <trkpt lat="44.28347" lon="6.45318">
        <ele>1655</ele>
        <time>2024-06-11T12:48:58+02:00</time>
      </trkpt>
      <trkpt lat="44.28338" lon="6.45311">
        <ele>1650</ele>
        <time>2024-06-11T12:49:13+02:00</time>
      </trkpt>
      <trkpt lat="44.28329" lon="6.45309">
        <ele>1646</ele>
        <time>2024-06-11T12:49:24+02:00</time>
      </trkpt>
      <trkpt lat="44.2832" lon="6.45305">
        <ele>1643</ele>
        <time>2024-06-11T12:49:37+02:00</time>
      </trkpt>
      <trkpt lat="44.28312" lon="6.45306">
        <ele>1640</ele>
        <time>2024-06-11T12:49:51+02:00</time>
      </trkpt>
      <trkpt lat="44.28302" lon="6.45312">
        <ele>1639</ele>
        <time>2024-06-11T12:50:10+02:00</time>
      </trkpt>
      <trkpt lat="44.28289" lon="6.45311">
        <ele>1635</ele>
        <time>2024-06-11T12:50:21+02:00</time>
      </trkpt>
      <trkpt lat="44.28277" lon="6.45309">
        <ele>1631</ele>
        <time>2024-06-11T12:50:36+02:00</time>
      </trkpt>
      <trkpt lat="44.28267" lon="6.45309">
        <ele>1629</ele>
        <time>2024-06-11T12:50:47+02:00</time>
      </trkpt>
      <trkpt lat="44.28259" lon="6.45314">
        <ele>1628</ele>
        <time>2024-06-11T12:50:55+02:00</time>
      </trkpt>
      <trkpt lat="44.28255" lon="6.45318">
        <ele>1627</ele>
        <time>2024-06-11T12:51:00+02:00</time>
      </trkpt>
      <trkpt lat="44.28231" lon="6.45327">
        <ele>1621</ele>
        <time>2024-06-11T12:51:22+02:00</time>
      </trkpt>
      <trkpt lat="44.28224" lon="6.45337">
        <ele>1620</ele>
        <time>2024-06-11T12:51:38+02:00</time>
      </trkpt>
      <trkpt lat="44.28219" lon="6.45341">
        <ele>1619</ele>
        <time>2024-06-11T12:51:53+02:00</time>
      </trkpt>
      <trkpt lat="44.28218" lon="6.45343">
        <ele>1620</ele>
        <time>2024-06-11T12:52:12+02:00</time>
      </trkpt>
      <trkpt lat="44.28216" lon="6.45343">
        <ele>1619</ele>
        <time>2024-06-11T12:52:14+02:00</time>
      </trkpt>
      <trkpt lat="44.28201" lon="6.45341">
        <ele>1616</ele>
        <time>2024-06-11T12:52:30+02:00</time>
      </trkpt>
      <trkpt lat="44.28194" lon="6.45343">
        <ele>1615</ele>
        <time>2024-06-11T12:52:47+02:00</time>
      </trkpt>
      <trkpt lat="44.28193" lon="6.45343">
        <ele>1615</ele>
        <time>2024-06-11T12:53:02+02:00</time>
      </trkpt>
      <trkpt lat="44.2819" lon="6.45343">
        <ele>1614</ele>
        <time>2024-06-11T12:53:26+02:00</time>
      </trkpt>
      <trkpt lat="44.28183" lon="6.45341">
        <ele>1613</ele>
        <time>2024-06-11T12:53:41+02:00</time>
      </trkpt>
      <trkpt lat="44.28183" lon="6.45338">
        <ele>1612</ele>
        <time>2024-06-11T12:53:48+02:00</time>
      </trkpt>
      <trkpt lat="44.28183" lon="6.45338">
        <ele>1612</ele>
        <time>2024-06-11T12:53:50+02:00</time>
      </trkpt>
      <trkpt lat="44.28181" lon="6.45336">
        <ele>1611</ele>
        <time>2024-06-11T12:53:53+02:00</time>
      </trkpt>
      <trkpt lat="44.28176" lon="6.45331">
        <ele>1610</ele>
        <time>2024-06-11T12:54:01+02:00</time>
      </trkpt>
      <trkpt lat="44.2817" lon="6.45334">
        <ele>1609</ele>
        <time>2024-06-11T12:54:14+02:00</time>
      </trkpt>
      <trkpt lat="44.28169" lon="6.45334">
        <ele>1609</ele>
        <time>2024-06-11T12:54:15+02:00</time>
      </trkpt>
      <trkpt lat="44.28168" lon="6.45335">
        <ele>1608</ele>
        <time>2024-06-11T12:54:17+02:00</time>
      </trkpt>
      <trkpt lat="44.28159" lon="6.45336">
        <ele>1606</ele>
        <time>2024-06-11T12:54:27+02:00</time>
      </trkpt>
      <trkpt lat="44.28153" lon="6.45336">
        <ele>1604</ele>
        <time>2024-06-11T12:54:37+02:00</time>
      </trkpt>
      <trkpt lat="44.28146" lon="6.45344">
        <ele>1604</ele>
        <time>2024-06-11T12:54:53+02:00</time>
      </trkpt>
      <trkpt lat="44.28134" lon="6.45352">
        <ele>1603</ele>
        <time>2024-06-11T12:55:07+02:00</time>
      </trkpt>
      <trkpt lat="44.28128" lon="6.45354">
        <ele>1602</ele>
        <time>2024-06-11T12:55:29+02:00</time>
      </trkpt>
      <trkpt lat="44.28119" lon="6.45348">
        <ele>1598</ele>
        <time>2024-06-11T12:55:44+02:00</time>
      </trkpt>
      <trkpt lat="44.28111" lon="6.45341">
        <ele>1594</ele>
        <time>2024-06-11T12:56:00+02:00</time>
      </trkpt>
      <trkpt lat="44.28103" lon="6.45338">
        <ele>1590</ele>
        <time>2024-06-11T12:56:16+02:00</time>
      </trkpt>
      <trkpt lat="44.28096" lon="6.45336">
        <ele>1587</ele>
        <time>2024-06-11T12:56:35+02:00</time>
      </trkpt>
      <trkpt lat="44.28086" lon="6.4533">
        <ele>1582</ele>
        <time>2024-06-11T12:56:49+02:00</time>
      </trkpt>
      <trkpt lat="44.28081" lon="6.45326">
        <ele>1579</ele>
        <time>2024-06-11T12:56:54+02:00</time>
      </trkpt>
      <trkpt lat="44.28069" lon="6.45319">
        <ele>1575</ele>
        <time>2024-06-11T12:57:06+02:00</time>
      </trkpt>
      <trkpt lat="44.28057" lon="6.45316">
        <ele>1571</ele>
        <time>2024-06-11T12:57:20+02:00</time>
      </trkpt>
      <trkpt lat="44.28047" lon="6.45311">
        <ele>1568</ele>
        <time>2024-06-11T12:57:36+02:00</time>
      </trkpt>
      <trkpt lat="44.28039" lon="6.45308">
        <ele>1566</ele>
        <time>2024-06-11T12:57:48+02:00</time>
      </trkpt>
      <trkpt lat="44.28035" lon="6.45309">
        <ele>1565</ele>
        <time>2024-06-11T12:57:59+02:00</time>
      </trkpt>
      <trkpt lat="44.28034" lon="6.4531">
        <ele>1565</ele>
        <time>2024-06-11T12:58:13+02:00</time>
      </trkpt>
      <trkpt lat="44.28033" lon="6.45311">
        <ele>1565</ele>
        <time>2024-06-11T12:58:31+02:00</time>
      </trkpt>
      <trkpt lat="44.28032" lon="6.45311">
        <ele>1565</ele>
        <time>2024-06-11T12:58:52+02:00</time>
      </trkpt>
      <trkpt lat="44.28022" lon="6.45309">
        <ele>1563</ele>
        <time>2024-06-11T12:59:10+02:00</time>
      </trkpt>
      <trkpt lat="44.2802" lon="6.45311">
        <ele>1562</ele>
        <time>2024-06-11T12:59:21+02:00</time>
      </trkpt>
      <trkpt lat="44.28008" lon="6.45314">
        <ele>1560</ele>
        <time>2024-06-11T12:59:38+02:00</time>
      </trkpt>
      <trkpt lat="44.27994" lon="6.45316">
        <ele>1557</ele>
        <time>2024-06-11T12:59:53+02:00</time>
      </trkpt>
      <trkpt lat="44.27983" lon="6.45319">
        <ele>1555</ele>
        <time>2024-06-11T13:00:05+02:00</time>
      </trkpt>
      <trkpt lat="44.27964" lon="6.45318">
        <ele>1552</ele>
        <time>2024-06-11T13:00:22+02:00</time>
      </trkpt>
      <trkpt lat="44.27955" lon="6.45316">
        <ele>1550</ele>
        <time>2024-06-11T13:00:35+02:00</time>
      </trkpt>
      <trkpt lat="44.27938" lon="6.45314">
        <ele>1548</ele>
        <time>2024-06-11T13:00:50+02:00</time>
      </trkpt>
      <trkpt lat="44.2793" lon="6.45315">
        <ele>1547</ele>
        <time>2024-06-11T13:01:01+02:00</time>
      </trkpt>
      <trkpt lat="44.27928" lon="6.45321">
        <ele>1548</ele>
        <time>2024-06-11T13:01:13+02:00</time>
      </trkpt>
      <trkpt lat="44.27919" lon="6.45335">
        <ele>1549</ele>
        <time>2024-06-11T13:01:29+02:00</time>
      </trkpt>
      <trkpt lat="44.27916" lon="6.45348">
        <ele>1549</ele>
        <time>2024-06-11T13:01:44+02:00</time>
      </trkpt>
      <trkpt lat="44.27912" lon="6.45359">
        <ele>1548</ele>
        <time>2024-06-11T13:02:03+02:00</time>
      </trkpt>
      <trkpt lat="44.27909" lon="6.45362">
        <ele>1548</ele>
        <time>2024-06-11T13:02:08+02:00</time>
      </trkpt>
      <trkpt lat="44.27907" lon="6.45366">
        <ele>1548</ele>
        <time>2024-06-11T13:02:11+02:00</time>
      </trkpt>
      <trkpt lat="44.27901" lon="6.45375">
        <ele>1549</ele>
        <time>2024-06-11T13:02:25+02:00</time>
      </trkpt>
      <trkpt lat="44.27901" lon="6.45376">
        <ele>1549</ele>
        <time>2024-06-11T13:02:26+02:00</time>
      </trkpt>
      <trkpt lat="44.27887" lon="6.45396">
        <ele>1550</ele>
        <time>2024-06-11T13:02:45+02:00</time>
      </trkpt>
      <trkpt lat="44.27881" lon="6.45408">
        <ele>1550</ele>
        <time>2024-06-11T13:02:58+02:00</time>
      </trkpt>
      <trkpt lat="44.27878" lon="6.45414">
        <ele>1551</ele>
        <time>2024-06-11T13:03:15+02:00</time>
      </trkpt>
      <trkpt lat="44.27866" lon="6.45425">
        <ele>1550</ele>
        <time>2024-06-11T13:03:30+02:00</time>
      </trkpt>
      <trkpt lat="44.27853" lon="6.45431">
        <ele>1549</ele>
        <time>2024-06-11T13:03:44+02:00</time>
      </trkpt>
      <trkpt lat="44.27853" lon="6.45433">
        <ele>1550</ele>
        <time>2024-06-11T13:03:57+02:00</time>
      </trkpt>
      <trkpt lat="44.27852" lon="6.45435">
        <ele>1550</ele>
        <time>2024-06-11T13:04:16+02:00</time>
      </trkpt>
      <trkpt lat="44.27858" lon="6.45452">
        <ele>1552</ele>
        <time>2024-06-11T13:04:34+02:00</time>
      </trkpt>
      <trkpt lat="44.27863" lon="6.45465">
        <ele>1554</ele>
        <time>2024-06-11T13:04:50+02:00</time>
      </trkpt>
      <trkpt lat="44.27869" lon="6.45483">
        <ele>1556</ele>
        <time>2024-06-11T13:05:06+02:00</time>
      </trkpt>
      <trkpt lat="44.27872" lon="6.45495">
        <ele>1557</ele>
        <time>2024-06-11T13:05:20+02:00</time>
      </trkpt>
      <trkpt lat="44.27868" lon="6.45505">
        <ele>1558</ele>
        <time>2024-06-11T13:05:33+02:00</time>
      </trkpt>
      <trkpt lat="44.27868" lon="6.45516">
        <ele>1558</ele>
        <time>2024-06-11T13:05:48+02:00</time>
      </trkpt>
      <trkpt lat="44.27865" lon="6.45519">
        <ele>1558</ele>
        <time>2024-06-11T13:06:07+02:00</time>
      </trkpt>
      <trkpt lat="44.27864" lon="6.45522">
        <ele>1558</ele>
        <time>2024-06-11T13:06:24+02:00</time>
      </trkpt>
      <trkpt lat="44.27863" lon="6.45524">
        <ele>1558</ele>
        <time>2024-06-11T13:06:26+02:00</time>
      </trkpt>
      <trkpt lat="44.27853" lon="6.4553">
        <ele>1557</ele>
        <time>2024-06-11T13:06:42+02:00</time>
      </trkpt>
      <trkpt lat="44.27854" lon="6.45535">
        <ele>1557</ele>
        <time>2024-06-11T13:06:55+02:00</time>
      </trkpt>
      <trkpt lat="44.2785" lon="6.45546">
        <ele>1557</ele>
        <time>2024-06-11T13:07:09+02:00</time>
      </trkpt>
      <trkpt lat="44.27852" lon="6.45551">
        <ele>1558</ele>
        <time>2024-06-11T13:07:18+02:00</time>
      </trkpt>
      <trkpt lat="44.27851" lon="6.45557">
        <ele>1558</ele>
        <time>2024-06-11T13:07:34+02:00</time>
      </trkpt>
      <trkpt lat="44.27851" lon="6.45559">
        <ele>1558</ele>
        <time>2024-06-11T13:07:54+02:00</time>
      </trkpt>
      <trkpt lat="44.2785" lon="6.45562">
        <ele>1558</ele>
        <time>2024-06-11T13:08:16+02:00</time>
      </trkpt>
      <trkpt lat="44.27848" lon="6.45564">
        <ele>1558</ele>
        <time>2024-06-11T13:08:38+02:00</time>
      </trkpt>
      <trkpt lat="44.27847" lon="6.45563">
        <ele>1558</ele>
        <time>2024-06-11T13:09:00+02:00</time>
      </trkpt>
      <trkpt lat="44.27846" lon="6.45558">
        <ele>1558</ele>
        <time>2024-06-11T13:09:13+02:00</time>
      </trkpt>
      <trkpt lat="44.27847" lon="6.4556">
        <ele>1558</ele>
        <time>2024-06-11T13:09:29+02:00</time>
      </trkpt>
      <trkpt lat="44.2785" lon="6.45564">
        <ele>1558</ele>
        <time>2024-06-11T13:09:42+02:00</time>
      </trkpt>
      <trkpt lat="44.27847" lon="6.45561">
        <ele>1558</ele>
        <time>2024-06-11T13:10:11+02:00</time>
      </trkpt>
      <trkpt lat="44.27848" lon="6.4556">
        <ele>1558</ele>
        <time>2024-06-11T13:10:41+02:00</time>
      </trkpt>
      <trkpt lat="44.27852" lon="6.45561">
        <ele>1558</ele>
        <time>2024-06-11T13:11:04+02:00</time>
      </trkpt>
      <trkpt lat="44.27849" lon="6.45559">
        <ele>1558</ele>
        <time>2024-06-11T13:11:28+02:00</time>
      </trkpt>
      <trkpt lat="44.27848" lon="6.45557">
        <ele>1558</ele>
        <time>2024-06-11T13:11:46+02:00</time>
      </trkpt>
      <trkpt lat="44.27849" lon="6.45556">
        <ele>1558</ele>
        <time>2024-06-11T13:11:55+02:00</time>
      </trkpt>
      <trkpt lat="44.27851" lon="6.45557">
        <ele>1558</ele>
        <time>2024-06-11T13:12:10+02:00</time>
      </trkpt>
      <trkpt lat="44.27852" lon="6.45557">
        <ele>1558</ele>
        <time>2024-06-11T13:12:28+02:00</time>
      </trkpt>
      <trkpt lat="44.27851" lon="6.45558">
        <ele>1558</ele>
        <time>2024-06-11T13:12:45+02:00</time>
      </trkpt>
      <trkpt lat="44.27851" lon="6.4556">
        <ele>1558</ele>
        <time>2024-06-11T13:12:52+02:00</time>
      </trkpt>
      <trkpt lat="44.2786" lon="6.45532">
        <ele>1558</ele>
        <time>2024-06-11T13:32:32+02:00</time>
      </trkpt>
      <trkpt lat="44.27859" lon="6.45541">
        <ele>1558</ele>
        <time>2024-06-11T13:32:34+02:00</time>
      </trkpt>
      <trkpt lat="44.27855" lon="6.45568">
        <ele>1558</ele>
        <time>2024-06-11T13:32:49+02:00</time>
      </trkpt>
      <trkpt lat="44.27852" lon="6.45565">
        <ele>1558</ele>
        <time>2024-06-11T13:33:14+02:00</time>
      </trkpt>
      <trkpt lat="44.2785" lon="6.45559">
        <ele>1558</ele>
        <time>2024-06-11T13:33:40+02:00</time>
      </trkpt>
      <trkpt lat="44.2785" lon="6.45556">
        <ele>1558</ele>
        <time>2024-06-11T13:33:54+02:00</time>
      </trkpt>
      <trkpt lat="44.27849" lon="6.45557">
        <ele>1558</ele>
        <time>2024-06-11T13:34:09+02:00</time>
      </trkpt>
      <trkpt lat="44.27847" lon="6.45555">
        <ele>1557</ele>
        <time>2024-06-11T13:34:26+02:00</time>
      </trkpt>
      <trkpt lat="44.27848" lon="6.45561">
        <ele>1558</ele>
        <time>2024-06-11T13:34:49+02:00</time>
      </trkpt>
      <trkpt lat="44.27851" lon="6.45561">
        <ele>1558</ele>
        <time>2024-06-11T13:35:10+02:00</time>
      </trkpt>
      <trkpt lat="44.27855" lon="6.45562">
        <ele>1558</ele>
        <time>2024-06-11T13:35:29+02:00</time>
      </trkpt>
      <trkpt lat="44.27858" lon="6.45551">
        <ele>1558</ele>
        <time>2024-06-11T13:35:40+02:00</time>
      </trkpt>
      <trkpt lat="44.27859" lon="6.45539">
        <ele>1558</ele>
        <time>2024-06-11T13:35:54+02:00</time>
      </trkpt>
      <trkpt lat="44.27865" lon="6.45528">
        <ele>1558</ele>
        <time>2024-06-11T13:36:08+02:00</time>
      </trkpt>
      <trkpt lat="44.27868" lon="6.45519">
        <ele>1558</ele>
        <time>2024-06-11T13:36:23+02:00</time>
      </trkpt>
      <trkpt lat="44.2787" lon="6.4551">
        <ele>1558</ele>
        <time>2024-06-11T13:36:38+02:00</time>
      </trkpt>
      <trkpt lat="44.27869" lon="6.45494">
        <ele>1557</ele>
        <time>2024-06-11T13:36:55+02:00</time>
      </trkpt>
      <trkpt lat="44.27866" lon="6.45486">
        <ele>1556</ele>
        <time>2024-06-11T13:37:05+02:00</time>
      </trkpt>
      <trkpt lat="44.27862" lon="6.45473">
        <ele>1555</ele>
        <time>2024-06-11T13:37:19+02:00</time>
      </trkpt>
      <trkpt lat="44.27857" lon="6.45456">
        <ele>1553</ele>
        <time>2024-06-11T13:37:36+02:00</time>
      </trkpt>
      <trkpt lat="44.27851" lon="6.45439">
        <ele>1550</ele>
        <time>2024-06-11T13:37:50+02:00</time>
      </trkpt>
      <trkpt lat="44.27848" lon="6.45426">
        <ele>1548</ele>
        <time>2024-06-11T13:38:07+02:00</time>
      </trkpt>
      <trkpt lat="44.27844" lon="6.45401">
        <ele>1545</ele>
        <time>2024-06-11T13:38:23+02:00</time>
      </trkpt>
      <trkpt lat="44.27843" lon="6.45378">
        <ele>1543</ele>
        <time>2024-06-11T13:38:39+02:00</time>
      </trkpt>
      <trkpt lat="44.27836" lon="6.45354">
        <ele>1541</ele>
        <time>2024-06-11T13:38:56+02:00</time>
      </trkpt>
      <trkpt lat="44.27828" lon="6.4533">
        <ele>1539</ele>
        <time>2024-06-11T13:39:11+02:00</time>
      </trkpt>
      <trkpt lat="44.27821" lon="6.453">
        <ele>1538</ele>
        <time>2024-06-11T13:39:30+02:00</time>
      </trkpt>
      <trkpt lat="44.27815" lon="6.45276">
        <ele>1536</ele>
        <time>2024-06-11T13:39:46+02:00</time>
      </trkpt>
      <trkpt lat="44.27816" lon="6.45263">
        <ele>1535</ele>
        <time>2024-06-11T13:39:58+02:00</time>
      </trkpt>
      <trkpt lat="44.2782" lon="6.45236">
        <ele>1533</ele>
        <time>2024-06-11T13:40:13+02:00</time>
      </trkpt>
      <trkpt lat="44.27816" lon="6.45226">
        <ele>1532</ele>
        <time>2024-06-11T13:40:32+02:00</time>
      </trkpt>
      <trkpt lat="44.278" lon="6.45199">
        <ele>1528</ele>
        <time>2024-06-11T13:40:50+02:00</time>
      </trkpt>
      <trkpt lat="44.27794" lon="6.45185">
        <ele>1526</ele>
        <time>2024-06-11T13:41:06+02:00</time>
      </trkpt>
      <trkpt lat="44.27785" lon="6.45166">
        <ele>1522</ele>
        <time>2024-06-11T13:41:24+02:00</time>
      </trkpt>
      <trkpt lat="44.27776" lon="6.4515">
        <ele>1520</ele>
        <time>2024-06-11T13:41:41+02:00</time>
      </trkpt>
      <trkpt lat="44.27767" lon="6.45134">
        <ele>1520</ele>
        <time>2024-06-11T13:41:56+02:00</time>
      </trkpt>
      <trkpt lat="44.2776" lon="6.45114">
        <ele>1519</ele>
        <time>2024-06-11T13:42:14+02:00</time>
      </trkpt>
      <trkpt lat="44.27761" lon="6.45099">
        <ele>1519</ele>
        <time>2024-06-11T13:42:29+02:00</time>
      </trkpt>
      <trkpt lat="44.27756" lon="6.45084">
        <ele>1518</ele>
        <time>2024-06-11T13:42:42+02:00</time>
      </trkpt>
      <trkpt lat="44.27756" lon="6.45066">
        <ele>1517</ele>
        <time>2024-06-11T13:42:58+02:00</time>
      </trkpt>
      <trkpt lat="44.27756" lon="6.45043">
        <ele>1515</ele>
        <time>2024-06-11T13:43:14+02:00</time>
      </trkpt>
      <trkpt lat="44.27754" lon="6.45025">
        <ele>1513</ele>
        <time>2024-06-11T13:43:32+02:00</time>
      </trkpt>
      <trkpt lat="44.2775" lon="6.45013">
        <ele>1512</ele>
        <time>2024-06-11T13:43:50+02:00</time>
      </trkpt>
      <trkpt lat="44.27748" lon="6.45009">
        <ele>1511</ele>
        <time>2024-06-11T13:44:18+02:00</time>
      </trkpt>
      <trkpt lat="44.27739" lon="6.44991">
        <ele>1509</ele>
        <time>2024-06-11T13:44:36+02:00</time>
      </trkpt>
      <trkpt lat="44.27725" lon="6.44985">
        <ele>1507</ele>
        <time>2024-06-11T13:44:51+02:00</time>
      </trkpt>
      <trkpt lat="44.27714" lon="6.44982">
        <ele>1506</ele>
        <time>2024-06-11T13:45:07+02:00</time>
      </trkpt>
      <trkpt lat="44.27698" lon="6.44966">
        <ele>1503</ele>
        <time>2024-06-11T13:45:24+02:00</time>
      </trkpt>
      <trkpt lat="44.27693" lon="6.44949">
        <ele>1501</ele>
        <time>2024-06-11T13:45:40+02:00</time>
      </trkpt>
      <trkpt lat="44.27683" lon="6.44931">
        <ele>1500</ele>
        <time>2024-06-11T13:45:55+02:00</time>
      </trkpt>
      <trkpt lat="44.27672" lon="6.44908">
        <ele>1500</ele>
        <time>2024-06-11T13:46:13+02:00</time>
      </trkpt>
      <trkpt lat="44.27661" lon="6.44893">
        <ele>1499</ele>
        <time>2024-06-11T13:46:30+02:00</time>
      </trkpt>
      <trkpt lat="44.2766" lon="6.44893">
        <ele>1499</ele>
        <time>2024-06-11T13:46:31+02:00</time>
      </trkpt>
      <trkpt lat="44.27659" lon="6.44882">
        <ele>1498</ele>
        <time>2024-06-11T13:46:43+02:00</time>
      </trkpt>
      <trkpt lat="44.27652" lon="6.44873">
        <ele>1497</ele>
        <time>2024-06-11T13:46:58+02:00</time>
      </trkpt>
      <trkpt lat="44.27651" lon="6.44874">
        <ele>1497</ele>
        <time>2024-06-11T13:47:16+02:00</time>
      </trkpt>
      <trkpt lat="44.27645" lon="6.44875">
        <ele>1497</ele>
        <time>2024-06-11T13:47:32+02:00</time>
      </trkpt>
      <trkpt lat="44.27644" lon="6.44872">
        <ele>1497</ele>
        <time>2024-06-11T13:47:46+02:00</time>
      </trkpt>
      <trkpt lat="44.27645" lon="6.44868">
        <ele>1496</ele>
        <time>2024-06-11T13:48:01+02:00</time>
      </trkpt>
      <trkpt lat="44.27643" lon="6.44859">
        <ele>1495</ele>
        <time>2024-06-11T13:48:19+02:00</time>
      </trkpt>
      <trkpt lat="44.27635" lon="6.44853">
        <ele>1494</ele>
        <time>2024-06-11T13:48:33+02:00</time>
      </trkpt>
      <trkpt lat="44.27635" lon="6.44852">
        <ele>1494</ele>
        <time>2024-06-11T13:48:34+02:00</time>
      </trkpt>
      <trkpt lat="44.27632" lon="6.44849">
        <ele>1493</ele>
        <time>2024-06-11T13:48:49+02:00</time>
      </trkpt>
      <trkpt lat="44.27619" lon="6.44842">
        <ele>1492</ele>
        <time>2024-06-11T13:49:05+02:00</time>
      </trkpt>
      <trkpt lat="44.27611" lon="6.44836">
        <ele>1491</ele>
        <time>2024-06-11T13:49:21+02:00</time>
      </trkpt>
      <trkpt lat="44.27607" lon="6.44824">
        <ele>1490</ele>
        <time>2024-06-11T13:49:36+02:00</time>
      </trkpt>
      <trkpt lat="44.27607" lon="6.44814">
        <ele>1490</ele>
        <time>2024-06-11T13:49:51+02:00</time>
      </trkpt>
      <trkpt lat="44.27609" lon="6.44804">
        <ele>1489</ele>
        <time>2024-06-11T13:50:07+02:00</time>
      </trkpt>
      <trkpt lat="44.27614" lon="6.44798">
        <ele>1488</ele>
        <time>2024-06-11T13:50:25+02:00</time>
      </trkpt>
      <trkpt lat="44.27613" lon="6.44791">
        <ele>1488</ele>
        <time>2024-06-11T13:50:39+02:00</time>
      </trkpt>
      <trkpt lat="44.27606" lon="6.44773">
        <ele>1486</ele>
        <time>2024-06-11T13:50:57+02:00</time>
      </trkpt>
      <trkpt lat="44.27597" lon="6.44765">
        <ele>1486</ele>
        <time>2024-06-11T13:51:13+02:00</time>
      </trkpt>
      <trkpt lat="44.27599" lon="6.4476">
        <ele>1485</ele>
        <time>2024-06-11T13:51:34+02:00</time>
      </trkpt>
      <trkpt lat="44.27602" lon="6.44758">
        <ele>1485</ele>
        <time>2024-06-11T13:51:50+02:00</time>
      </trkpt>
      <trkpt lat="44.27602" lon="6.44747">
        <ele>1484</ele>
        <time>2024-06-11T13:52:05+02:00</time>
      </trkpt>
      <trkpt lat="44.27591" lon="6.44732">
        <ele>1482</ele>
        <time>2024-06-11T13:52:22+02:00</time>
      </trkpt>
      <trkpt lat="44.27584" lon="6.44711">
        <ele>1480</ele>
        <time>2024-06-11T13:52:38+02:00</time>
      </trkpt>
      <trkpt lat="44.27574" lon="6.4469">
        <ele>1479</ele>
        <time>2024-06-11T13:52:54+02:00</time>
      </trkpt>
      <trkpt lat="44.27567" lon="6.44679">
        <ele>1478</ele>
        <time>2024-06-11T13:53:10+02:00</time>
      </trkpt>
      <trkpt lat="44.27557" lon="6.44676">
        <ele>1477</ele>
        <time>2024-06-11T13:53:21+02:00</time>
      </trkpt>
      <trkpt lat="44.27545" lon="6.44672">
        <ele>1477</ele>
        <time>2024-06-11T13:53:36+02:00</time>
      </trkpt>
      <trkpt lat="44.27534" lon="6.44667">
        <ele>1476</ele>
        <time>2024-06-11T13:53:51+02:00</time>
      </trkpt>
      <trkpt lat="44.27517" lon="6.4465">
        <ele>1474</ele>
        <time>2024-06-11T13:54:08+02:00</time>
      </trkpt>
      <trkpt lat="44.27509" lon="6.44634">
        <ele>1472</ele>
        <time>2024-06-11T13:54:24+02:00</time>
      </trkpt>
      <trkpt lat="44.27501" lon="6.44631">
        <ele>1472</ele>
        <time>2024-06-11T13:54:32+02:00</time>
      </trkpt>
      <trkpt lat="44.27495" lon="6.44632">
        <ele>1471</ele>
        <time>2024-06-11T13:54:37+02:00</time>
      </trkpt>
      <trkpt lat="44.27478" lon="6.44622">
        <ele>1470</ele>
        <time>2024-06-11T13:54:54+02:00</time>
      </trkpt>
      <trkpt lat="44.27465" lon="6.44604">
        <ele>1469</ele>
        <time>2024-06-11T13:55:12+02:00</time>
      </trkpt>
      <trkpt lat="44.27448" lon="6.44585">
        <ele>1467</ele>
        <time>2024-06-11T13:55:30+02:00</time>
      </trkpt>
      <trkpt lat="44.27446" lon="6.4458">
        <ele>1466</ele>
        <time>2024-06-11T13:55:45+02:00</time>
      </trkpt>
      <trkpt lat="44.27443" lon="6.44573">
        <ele>1465</ele>
        <time>2024-06-11T13:55:53+02:00</time>
      </trkpt>
      <trkpt lat="44.27426" lon="6.44553">
        <ele>1461</ele>
        <time>2024-06-11T13:56:12+02:00</time>
      </trkpt>
      <trkpt lat="44.27412" lon="6.44533">
        <ele>1460</ele>
        <time>2024-06-11T13:56:30+02:00</time>
      </trkpt>
      <trkpt lat="44.27406" lon="6.44516">
        <ele>1459</ele>
        <time>2024-06-11T13:56:48+02:00</time>
      </trkpt>
      <trkpt lat="44.27396" lon="6.44499">
        <ele>1457</ele>
        <time>2024-06-11T13:57:08+02:00</time>
      </trkpt>
      <trkpt lat="44.27384" lon="6.44491">
        <ele>1456</ele>
        <time>2024-06-11T13:57:26+02:00</time>
      </trkpt>
      <trkpt lat="44.27374" lon="6.44492">
        <ele>1455</ele>
        <time>2024-06-11T13:57:43+02:00</time>
      </trkpt>
      <trkpt lat="44.2737" lon="6.44489">
        <ele>1454</ele>
        <time>2024-06-11T13:58:04+02:00</time>
      </trkpt>
      <trkpt lat="44.27367" lon="6.44488">
        <ele>1454</ele>
        <time>2024-06-11T13:58:18+02:00</time>
      </trkpt>
      <trkpt lat="44.27361" lon="6.44483">
        <ele>1453</ele>
        <time>2024-06-11T13:58:35+02:00</time>
      </trkpt>
      <trkpt lat="44.2735" lon="6.44475">
        <ele>1452</ele>
        <time>2024-06-11T13:58:50+02:00</time>
      </trkpt>
      <trkpt lat="44.27341" lon="6.44472">
        <ele>1451</ele>
        <time>2024-06-11T13:59:07+02:00</time>
      </trkpt>
      <trkpt lat="44.27335" lon="6.44473">
        <ele>1451</ele>
        <time>2024-06-11T13:59:24+02:00</time>
      </trkpt>
      <trkpt lat="44.27339" lon="6.44471">
        <ele>1451</ele>
        <time>2024-06-11T13:59:39+02:00</time>
      </trkpt>
      <trkpt lat="44.27329" lon="6.44458">
        <ele>1450</ele>
        <time>2024-06-11T13:59:55+02:00</time>
      </trkpt>
      <trkpt lat="44.27314" lon="6.44448">
        <ele>1449</ele>
        <time>2024-06-11T14:00:14+02:00</time>
      </trkpt>
      <trkpt lat="44.27308" lon="6.44438">
        <ele>1448</ele>
        <time>2024-06-11T14:00:27+02:00</time>
      </trkpt>
      <trkpt lat="44.27304" lon="6.44421">
        <ele>1446</ele>
        <time>2024-06-11T14:00:42+02:00</time>
      </trkpt>
      <trkpt lat="44.27301" lon="6.44405">
        <ele>1444</ele>
        <time>2024-06-11T14:00:57+02:00</time>
      </trkpt>
      <trkpt lat="44.27298" lon="6.44393">
        <ele>1443</ele>
        <time>2024-06-11T14:01:12+02:00</time>
      </trkpt>
      <trkpt lat="44.27295" lon="6.44379">
        <ele>1442</ele>
        <time>2024-06-11T14:01:29+02:00</time>
      </trkpt>
      <trkpt lat="44.27288" lon="6.44355">
        <ele>1440</ele>
        <time>2024-06-11T14:01:46+02:00</time>
      </trkpt>
      <trkpt lat="44.27274" lon="6.44336">
        <ele>1439</ele>
        <time>2024-06-11T14:02:05+02:00</time>
      </trkpt>
      <trkpt lat="44.27267" lon="6.44325">
        <ele>1438</ele>
        <time>2024-06-11T14:02:20+02:00</time>
      </trkpt>
      <trkpt lat="44.2726" lon="6.44313">
        <ele>1437</ele>
        <time>2024-06-11T14:02:36+02:00</time>
      </trkpt>
      <trkpt lat="44.27252" lon="6.44296">
        <ele>1435</ele>
        <time>2024-06-11T14:02:53+02:00</time>
      </trkpt>
      <trkpt lat="44.27247" lon="6.44272">
        <ele>1434</ele>
        <time>2024-06-11T14:03:09+02:00</time>
      </trkpt>
      <trkpt lat="44.27245" lon="6.44259">
        <ele>1433</ele>
        <time>2024-06-11T14:03:27+02:00</time>
      </trkpt>
      <trkpt lat="44.27244" lon="6.44253">
        <ele>1433</ele>
        <time>2024-06-11T14:03:44+02:00</time>
      </trkpt>
      <trkpt lat="44.27238" lon="6.44233">
        <ele>1432</ele>
        <time>2024-06-11T14:04:03+02:00</time>
      </trkpt>
      <trkpt lat="44.27233" lon="6.4422">
        <ele>1432</ele>
        <time>2024-06-11T14:04:20+02:00</time>
      </trkpt>
      <trkpt lat="44.27231" lon="6.44209">
        <ele>1433</ele>
        <time>2024-06-11T14:04:35+02:00</time>
      </trkpt>
      <trkpt lat="44.27228" lon="6.44205">
        <ele>1432</ele>
        <time>2024-06-11T14:04:50+02:00</time>
      </trkpt>
      <trkpt lat="44.27227" lon="6.44203">
        <ele>1432</ele>
        <time>2024-06-11T14:04:55+02:00</time>
      </trkpt>
      <trkpt lat="44.27221" lon="6.44196">
        <ele>1431</ele>
        <time>2024-06-11T14:05:10+02:00</time>
      </trkpt>
      <trkpt lat="44.27217" lon="6.44188">
        <ele>1431</ele>
        <time>2024-06-11T14:05:18+02:00</time>
      </trkpt>
      <trkpt lat="44.27212" lon="6.44177">
        <ele>1431</ele>
        <time>2024-06-11T14:05:32+02:00</time>
      </trkpt>
      <trkpt lat="44.27212" lon="6.44176">
        <ele>1431</ele>
        <time>2024-06-11T14:05:33+02:00</time>
      </trkpt>
      <trkpt lat="44.27205" lon="6.44155">
        <ele>1430</ele>
        <time>2024-06-11T14:05:53+02:00</time>
      </trkpt>
      <trkpt lat="44.27199" lon="6.4414">
        <ele>1428</ele>
        <time>2024-06-11T14:06:10+02:00</time>
      </trkpt>
      <trkpt lat="44.27197" lon="6.44131">
        <ele>1426</ele>
        <time>2024-06-11T14:06:15+02:00</time>
      </trkpt>
      <trkpt lat="44.27191" lon="6.44105">
        <ele>1425</ele>
        <time>2024-06-11T14:06:33+02:00</time>
      </trkpt>
      <trkpt lat="44.27181" lon="6.44085">
        <ele>1424</ele>
        <time>2024-06-11T14:06:51+02:00</time>
      </trkpt>
      <trkpt lat="44.27166" lon="6.44071">
        <ele>1424</ele>
        <time>2024-06-11T14:07:07+02:00</time>
      </trkpt>
      <trkpt lat="44.27151" lon="6.4407">
        <ele>1423</ele>
        <time>2024-06-11T14:07:23+02:00</time>
      </trkpt>
      <trkpt lat="44.27132" lon="6.44068">
        <ele>1421</ele>
        <time>2024-06-11T14:07:43+02:00</time>
      </trkpt>
      <trkpt lat="44.27117" lon="6.4406">
        <ele>1418</ele>
        <time>2024-06-11T14:07:59+02:00</time>
      </trkpt>
      <trkpt lat="44.27115" lon="6.44058">
        <ele>1418</ele>
        <time>2024-06-11T14:08:01+02:00</time>
      </trkpt>
      <trkpt lat="44.27109" lon="6.44038">
        <ele>1421</ele>
        <time>2024-06-11T14:08:19+02:00</time>
      </trkpt>
      <trkpt lat="44.27105" lon="6.44024">
        <ele>1421</ele>
        <time>2024-06-11T14:08:34+02:00</time>
      </trkpt>
      <trkpt lat="44.271" lon="6.44007">
        <ele>1420</ele>
        <time>2024-06-11T14:08:53+02:00</time>
      </trkpt>
      <trkpt lat="44.27095" lon="6.43989">
        <ele>1418</ele>
        <time>2024-06-11T14:09:08+02:00</time>
      </trkpt>
      <trkpt lat="44.27087" lon="6.43958">
        <ele>1414</ele>
        <time>2024-06-11T14:09:28+02:00</time>
      </trkpt>
      <trkpt lat="44.27078" lon="6.43933">
        <ele>1410</ele>
        <time>2024-06-11T14:09:44+02:00</time>
      </trkpt>
      <trkpt lat="44.27064" lon="6.43913">
        <ele>1407</ele>
        <time>2024-06-11T14:10:01+02:00</time>
      </trkpt>
      <trkpt lat="44.27046" lon="6.439">
        <ele>1405</ele>
        <time>2024-06-11T14:10:21+02:00</time>
      </trkpt>
      <trkpt lat="44.27032" lon="6.43879">
        <ele>1407</ele>
        <time>2024-06-11T14:10:41+02:00</time>
      </trkpt>
      <trkpt lat="44.27018" lon="6.43864">
        <ele>1408</ele>
        <time>2024-06-11T14:10:58+02:00</time>
      </trkpt>
      <trkpt lat="44.27007" lon="6.43854">
        <ele>1406</ele>
        <time>2024-06-11T14:11:10+02:00</time>
      </trkpt>
      <trkpt lat="44.26993" lon="6.43837">
        <ele>1404</ele>
        <time>2024-06-11T14:11:29+02:00</time>
      </trkpt>
      <trkpt lat="44.26983" lon="6.43812">
        <ele>1398</ele>
        <time>2024-06-11T14:11:49+02:00</time>
      </trkpt>
      <trkpt lat="44.26979" lon="6.43791">
        <ele>1395</ele>
        <time>2024-06-11T14:12:08+02:00</time>
      </trkpt>
      <trkpt lat="44.2698" lon="6.43779">
        <ele>1393</ele>
        <time>2024-06-11T14:12:19+02:00</time>
      </trkpt>
      <trkpt lat="44.26995" lon="6.43757">
        <ele>1389</ele>
        <time>2024-06-11T14:12:37+02:00</time>
      </trkpt>
      <trkpt lat="44.27002" lon="6.43736">
        <ele>1386</ele>
        <time>2024-06-11T14:12:53+02:00</time>
      </trkpt>
      <trkpt lat="44.27001" lon="6.43726">
        <ele>1385</ele>
        <time>2024-06-11T14:13:01+02:00</time>
      </trkpt>
      <trkpt lat="44.26998" lon="6.43702">
        <ele>1383</ele>
        <time>2024-06-11T14:13:20+02:00</time>
      </trkpt>
      <trkpt lat="44.26985" lon="6.43683">
        <ele>1382</ele>
        <time>2024-06-11T14:13:37+02:00</time>
      </trkpt>
      <trkpt lat="44.26969" lon="6.43675">
        <ele>1381</ele>
        <time>2024-06-11T14:13:55+02:00</time>
      </trkpt>
      <trkpt lat="44.26956" lon="6.43664">
        <ele>1380</ele>
        <time>2024-06-11T14:14:12+02:00</time>
      </trkpt>
      <trkpt lat="44.26945" lon="6.43651">
        <ele>1380</ele>
        <time>2024-06-11T14:14:32+02:00</time>
      </trkpt>
      <trkpt lat="44.26933" lon="6.43637">
        <ele>1380</ele>
        <time>2024-06-11T14:14:52+02:00</time>
      </trkpt>
      <trkpt lat="44.26913" lon="6.43623">
        <ele>1380</ele>
        <time>2024-06-11T14:15:10+02:00</time>
      </trkpt>
      <trkpt lat="44.269" lon="6.4362">
        <ele>1378</ele>
        <time>2024-06-11T14:15:28+02:00</time>
      </trkpt>
      <trkpt lat="44.2688" lon="6.43621">
        <ele>1376</ele>
        <time>2024-06-11T14:15:46+02:00</time>
      </trkpt>
      <trkpt lat="44.26858" lon="6.43619">
        <ele>1372</ele>
        <time>2024-06-11T14:16:06+02:00</time>
      </trkpt>
      <trkpt lat="44.26844" lon="6.43622">
        <ele>1372</ele>
        <time>2024-06-11T14:16:21+02:00</time>
      </trkpt>
      <trkpt lat="44.26835" lon="6.43617">
        <ele>1372</ele>
        <time>2024-06-11T14:16:38+02:00</time>
      </trkpt>
      <trkpt lat="44.26827" lon="6.43609">
        <ele>1371</ele>
        <time>2024-06-11T14:16:53+02:00</time>
      </trkpt>
      <trkpt lat="44.26817" lon="6.43596">
        <ele>1370</ele>
        <time>2024-06-11T14:17:08+02:00</time>
      </trkpt>
      <trkpt lat="44.26805" lon="6.43584">
        <ele>1369</ele>
        <time>2024-06-11T14:17:24+02:00</time>
      </trkpt>
      <trkpt lat="44.26794" lon="6.43563">
        <ele>1367</ele>
        <time>2024-06-11T14:17:42+02:00</time>
      </trkpt>
      <trkpt lat="44.26785" lon="6.43543">
        <ele>1364</ele>
        <time>2024-06-11T14:17:59+02:00</time>
      </trkpt>
      <trkpt lat="44.26781" lon="6.43525">
        <ele>1363</ele>
        <time>2024-06-11T14:18:17+02:00</time>
      </trkpt>
      <trkpt lat="44.26783" lon="6.43508">
        <ele>1363</ele>
        <time>2024-06-11T14:18:36+02:00</time>
      </trkpt>
      <trkpt lat="44.26789" lon="6.43503">
        <ele>1364</ele>
        <time>2024-06-11T14:18:52+02:00</time>
      </trkpt>
      <trkpt lat="44.26787" lon="6.43489">
        <ele>1365</ele>
        <time>2024-06-11T14:19:08+02:00</time>
      </trkpt>
      <trkpt lat="44.26784" lon="6.43485">
        <ele>1364</ele>
        <time>2024-06-11T14:19:14+02:00</time>
      </trkpt>
      <trkpt lat="44.2677" lon="6.43471">
        <ele>1362</ele>
        <time>2024-06-11T14:19:30+02:00</time>
      </trkpt>
      <trkpt lat="44.26763" lon="6.43447">
        <ele>1362</ele>
        <time>2024-06-11T14:19:49+02:00</time>
      </trkpt>
      <trkpt lat="44.26759" lon="6.43433">
        <ele>1361</ele>
        <time>2024-06-11T14:20:07+02:00</time>
      </trkpt>
      <trkpt lat="44.26756" lon="6.43427">
        <ele>1361</ele>
        <time>2024-06-11T14:20:23+02:00</time>
      </trkpt>
      <trkpt lat="44.26757" lon="6.43424">
        <ele>1361</ele>
        <time>2024-06-11T14:20:46+02:00</time>
      </trkpt>
      <trkpt lat="44.26758" lon="6.43421">
        <ele>1361</ele>
        <time>2024-06-11T14:21:07+02:00</time>
      </trkpt>
      <trkpt lat="44.26761" lon="6.43414">
        <ele>1361</ele>
        <time>2024-06-11T14:21:26+02:00</time>
      </trkpt>
      <trkpt lat="44.26764" lon="6.43404">
        <ele>1362</ele>
        <time>2024-06-11T14:21:42+02:00</time>
      </trkpt>
      <trkpt lat="44.26765" lon="6.4338">
        <ele>1363</ele>
        <time>2024-06-11T14:22:00+02:00</time>
      </trkpt>
      <trkpt lat="44.26767" lon="6.43355">
        <ele>1365</ele>
        <time>2024-06-11T14:22:18+02:00</time>
      </trkpt>
      <trkpt lat="44.26768" lon="6.4334">
        <ele>1366</ele>
        <time>2024-06-11T14:22:36+02:00</time>
      </trkpt>
      <trkpt lat="44.26758" lon="6.43324">
        <ele>1364</ele>
        <time>2024-06-11T14:22:53+02:00</time>
      </trkpt>
      <trkpt lat="44.2675" lon="6.43301">
        <ele>1363</ele>
        <time>2024-06-11T14:23:11+02:00</time>
      </trkpt>
      <trkpt lat="44.26738" lon="6.43287">
        <ele>1362</ele>
        <time>2024-06-11T14:23:28+02:00</time>
      </trkpt>
      <trkpt lat="44.26735" lon="6.43281">
        <ele>1362</ele>
        <time>2024-06-11T14:23:43+02:00</time>
      </trkpt>
      <trkpt lat="44.26741" lon="6.43279">
        <ele>1363</ele>
        <time>2024-06-11T14:24:03+02:00</time>
      </trkpt>
      <trkpt lat="44.26746" lon="6.43272">
        <ele>1364</ele>
        <time>2024-06-11T14:24:28+02:00</time>
      </trkpt>
      <trkpt lat="44.26745" lon="6.43273">
        <ele>1364</ele>
        <time>2024-06-11T14:24:53+02:00</time>
      </trkpt>
      <trkpt lat="44.26733" lon="6.4329">
        <ele>1361</ele>
        <time>2024-06-11T14:25:11+02:00</time>
      </trkpt>
      <trkpt lat="44.26733" lon="6.43294">
        <ele>1361</ele>
        <time>2024-06-11T14:25:30+02:00</time>
      </trkpt>
      <trkpt lat="44.26733" lon="6.43282">
        <ele>1362</ele>
        <time>2024-06-11T14:25:49+02:00</time>
      </trkpt>
      <trkpt lat="44.26745" lon="6.4328">
        <ele>1364</ele>
        <time>2024-06-11T14:26:10+02:00</time>
      </trkpt>
      <trkpt lat="44.26747" lon="6.43282">
        <ele>1364</ele>
        <time>2024-06-11T14:26:20+02:00</time>
      </trkpt>
      <trkpt lat="44.26735" lon="6.4329">
        <ele>1362</ele>
        <time>2024-06-11T14:26:37+02:00</time>
      </trkpt>
      <trkpt lat="44.26735" lon="6.43282">
        <ele>1362</ele>
        <time>2024-06-11T14:26:53+02:00</time>
      </trkpt>
      <trkpt lat="44.26725" lon="6.433">
        <ele>1360</ele>
        <time>2024-06-11T14:27:07+02:00</time>
      </trkpt>
      <trkpt lat="44.26726" lon="6.43302">
        <ele>1360</ele>
        <time>2024-06-11T14:27:22+02:00</time>
      </trkpt>
      <trkpt lat="44.26715" lon="6.43323">
        <ele>1357</ele>
        <time>2024-06-11T14:27:39+02:00</time>
      </trkpt>
      <trkpt lat="44.26706" lon="6.43356">
        <ele>1354</ele>
        <time>2024-06-11T14:28:02+02:00</time>
      </trkpt>
      <trkpt lat="44.26699" lon="6.43371">
        <ele>1352</ele>
        <time>2024-06-11T14:28:18+02:00</time>
      </trkpt>
      <trkpt lat="44.26704" lon="6.43366">
        <ele>1353</ele>
        <time>2024-06-11T14:28:35+02:00</time>
      </trkpt>
      <trkpt lat="44.26719" lon="6.43365">
        <ele>1355</ele>
        <time>2024-06-11T14:28:52+02:00</time>
      </trkpt>
      <trkpt lat="44.26734" lon="6.43376">
        <ele>1357</ele>
        <time>2024-06-11T14:29:12+02:00</time>
      </trkpt>
      <trkpt lat="44.2675" lon="6.43381">
        <ele>1359</ele>
        <time>2024-06-11T14:29:31+02:00</time>
      </trkpt>
      <trkpt lat="44.26761" lon="6.43389">
        <ele>1362</ele>
        <time>2024-06-11T14:29:50+02:00</time>
      </trkpt>
      <trkpt lat="44.26757" lon="6.43411">
        <ele>1361</ele>
        <time>2024-06-11T14:30:09+02:00</time>
      </trkpt>
      <trkpt lat="44.26752" lon="6.43432">
        <ele>1360</ele>
        <time>2024-06-11T14:30:28+02:00</time>
      </trkpt>
      <trkpt lat="44.26756" lon="6.43435">
        <ele>1361</ele>
        <time>2024-06-11T14:30:54+02:00</time>
      </trkpt>
      <trkpt lat="44.26743" lon="6.43446">
        <ele>1359</ele>
        <time>2024-06-11T14:31:11+02:00</time>
      </trkpt>
      <trkpt lat="44.2674" lon="6.43444">
        <ele>1359</ele>
        <time>2024-06-11T14:31:31+02:00</time>
      </trkpt>
      <trkpt lat="44.2675" lon="6.43435">
        <ele>1360</ele>
        <time>2024-06-11T14:31:52+02:00</time>
      </trkpt>
      <trkpt lat="44.26762" lon="6.43432">
        <ele>1362</ele>
        <time>2024-06-11T14:32:09+02:00</time>
      </trkpt>
      <trkpt lat="44.26779" lon="6.43442">
        <ele>1365</ele>
        <time>2024-06-11T14:32:28+02:00</time>
      </trkpt>
      <trkpt lat="44.26796" lon="6.43462">
        <ele>1369</ele>
        <time>2024-06-11T14:32:47+02:00</time>
      </trkpt>
      <trkpt lat="44.26803" lon="6.4347">
        <ele>1370</ele>
        <time>2024-06-11T14:33:04+02:00</time>
      </trkpt>
      <trkpt lat="44.26811" lon="6.43482">
        <ele>1373</ele>
        <time>2024-06-11T14:33:21+02:00</time>
      </trkpt>
      <trkpt lat="44.26824" lon="6.43506">
        <ele>1377</ele>
        <time>2024-06-11T14:33:43+02:00</time>
      </trkpt>
      <trkpt lat="44.26836" lon="6.4353">
        <ele>1377</ele>
        <time>2024-06-11T14:34:03+02:00</time>
      </trkpt>
      <trkpt lat="44.26848" lon="6.43548">
        <ele>1380</ele>
        <time>2024-06-11T14:34:20+02:00</time>
      </trkpt>
      <trkpt lat="44.26861" lon="6.43563">
        <ele>1381</ele>
        <time>2024-06-11T14:34:35+02:00</time>
      </trkpt>
      <trkpt lat="44.26874" lon="6.43581">
        <ele>1378</ele>
        <time>2024-06-11T14:34:54+02:00</time>
      </trkpt>
      <trkpt lat="44.26889" lon="6.43589">
        <ele>1379</ele>
        <time>2024-06-11T14:35:14+02:00</time>
      </trkpt>
      <trkpt lat="44.26903" lon="6.43587">
        <ele>1381</ele>
        <time>2024-06-11T14:35:29+02:00</time>
      </trkpt>
      <trkpt lat="44.26915" lon="6.43586">
        <ele>1382</ele>
        <time>2024-06-11T14:35:44+02:00</time>
      </trkpt>
      <trkpt lat="44.26922" lon="6.43587">
        <ele>1382</ele>
        <time>2024-06-11T14:36:00+02:00</time>
      </trkpt>
      <trkpt lat="44.26943" lon="6.43589">
        <ele>1382</ele>
        <time>2024-06-11T14:36:19+02:00</time>
      </trkpt>
      <trkpt lat="44.26954" lon="6.43588">
        <ele>1382</ele>
        <time>2024-06-11T14:36:34+02:00</time>
      </trkpt>
      <trkpt lat="44.26968" lon="6.43586">
        <ele>1383</ele>
        <time>2024-06-11T14:36:49+02:00</time>
      </trkpt>
      <trkpt lat="44.26984" lon="6.43587">
        <ele>1385</ele>
        <time>2024-06-11T14:37:08+02:00</time>
      </trkpt>
      <trkpt lat="44.26997" lon="6.43589">
        <ele>1387</ele>
        <time>2024-06-11T14:37:25+02:00</time>
      </trkpt>
      <trkpt lat="44.2701" lon="6.43591">
        <ele>1391</ele>
        <time>2024-06-11T14:37:43+02:00</time>
      </trkpt>
      <trkpt lat="44.27023" lon="6.43595">
        <ele>1393</ele>
        <time>2024-06-11T14:38:00+02:00</time>
      </trkpt>
      <trkpt lat="44.27033" lon="6.436">
        <ele>1393</ele>
        <time>2024-06-11T14:38:16+02:00</time>
      </trkpt>
      <trkpt lat="44.27047" lon="6.43597">
        <ele>1394</ele>
        <time>2024-06-11T14:38:33+02:00</time>
      </trkpt>
      <trkpt lat="44.27064" lon="6.43592">
        <ele>1395</ele>
        <time>2024-06-11T14:38:50+02:00</time>
      </trkpt>
      <trkpt lat="44.27075" lon="6.43583">
        <ele>1395</ele>
        <time>2024-06-11T14:39:03+02:00</time>
      </trkpt>
      <trkpt lat="44.27077" lon="6.43581">
        <ele>1395</ele>
        <time>2024-06-11T14:39:06+02:00</time>
      </trkpt>
      <trkpt lat="44.27093" lon="6.43568">
        <ele>1396</ele>
        <time>2024-06-11T14:39:22+02:00</time>
      </trkpt>
      <trkpt lat="44.27094" lon="6.43568">
        <ele>1396</ele>
        <time>2024-06-11T14:39:23+02:00</time>
      </trkpt>
      <trkpt lat="44.27098" lon="6.43566">
        <ele>1395</ele>
        <time>2024-06-11T14:39:28+02:00</time>
      </trkpt>
      <trkpt lat="44.27108" lon="6.43563">
        <ele>1393</ele>
        <time>2024-06-11T14:39:36+02:00</time>
      </trkpt>
      <trkpt lat="44.27125" lon="6.43561">
        <ele>1393</ele>
        <time>2024-06-11T14:39:54+02:00</time>
      </trkpt>
      <trkpt lat="44.27138" lon="6.43559">
        <ele>1394</ele>
        <time>2024-06-11T14:40:09+02:00</time>
      </trkpt>
      <trkpt lat="44.27153" lon="6.43555">
        <ele>1397</ele>
        <time>2024-06-11T14:40:24+02:00</time>
      </trkpt>
      <trkpt lat="44.27165" lon="6.43551">
        <ele>1400</ele>
        <time>2024-06-11T14:40:35+02:00</time>
      </trkpt>
      <trkpt lat="44.27179" lon="6.43551">
        <ele>1401</ele>
        <time>2024-06-11T14:40:51+02:00</time>
      </trkpt>
      <trkpt lat="44.27193" lon="6.43543">
        <ele>1403</ele>
        <time>2024-06-11T14:41:06+02:00</time>
      </trkpt>
      <trkpt lat="44.27211" lon="6.43529">
        <ele>1404</ele>
        <time>2024-06-11T14:41:25+02:00</time>
      </trkpt>
      <trkpt lat="44.27229" lon="6.43523">
        <ele>1406</ele>
        <time>2024-06-11T14:41:42+02:00</time>
      </trkpt>
      <trkpt lat="44.27242" lon="6.43526">
        <ele>1407</ele>
        <time>2024-06-11T14:41:57+02:00</time>
      </trkpt>
      <trkpt lat="44.27245" lon="6.43529">
        <ele>1407</ele>
        <time>2024-06-11T14:42:15+02:00</time>
      </trkpt>
      <trkpt lat="44.27261" lon="6.43541">
        <ele>1407</ele>
        <time>2024-06-11T14:42:33+02:00</time>
      </trkpt>
      <trkpt lat="44.27277" lon="6.43546">
        <ele>1408</ele>
        <time>2024-06-11T14:42:50+02:00</time>
      </trkpt>
      <trkpt lat="44.2729" lon="6.43546">
        <ele>1410</ele>
        <time>2024-06-11T14:43:05+02:00</time>
      </trkpt>
      <trkpt lat="44.2731" lon="6.43551">
        <ele>1410</ele>
        <time>2024-06-11T14:43:23+02:00</time>
      </trkpt>
      <trkpt lat="44.27325" lon="6.43558">
        <ele>1409</ele>
        <time>2024-06-11T14:43:36+02:00</time>
      </trkpt>
      <trkpt lat="44.27334" lon="6.43563">
        <ele>1410</ele>
        <time>2024-06-11T14:43:53+02:00</time>
      </trkpt>
      <trkpt lat="44.27354" lon="6.43566">
        <ele>1410</ele>
        <time>2024-06-11T14:44:10+02:00</time>
      </trkpt>
      <trkpt lat="44.27377" lon="6.43566">
        <ele>1412</ele>
        <time>2024-06-11T14:44:28+02:00</time>
      </trkpt>
      <trkpt lat="44.27397" lon="6.43572">
        <ele>1416</ele>
        <time>2024-06-11T14:44:47+02:00</time>
      </trkpt>
      <trkpt lat="44.27411" lon="6.43586">
        <ele>1420</ele>
        <time>2024-06-11T14:45:05+02:00</time>
      </trkpt>
      <trkpt lat="44.27422" lon="6.43598">
        <ele>1421</ele>
        <time>2024-06-11T14:45:22+02:00</time>
      </trkpt>
      <trkpt lat="44.27434" lon="6.43599">
        <ele>1422</ele>
        <time>2024-06-11T14:45:38+02:00</time>
      </trkpt>
      <trkpt lat="44.27444" lon="6.43589">
        <ele>1425</ele>
        <time>2024-06-11T14:45:55+02:00</time>
      </trkpt>
      <trkpt lat="44.27452" lon="6.43589">
        <ele>1426</ele>
        <time>2024-06-11T14:46:14+02:00</time>
      </trkpt>
      <trkpt lat="44.27448" lon="6.43583">
        <ele>1426</ele>
        <time>2024-06-11T14:46:45+02:00</time>
      </trkpt>
      <trkpt lat="44.27452" lon="6.43566">
        <ele>1430</ele>
        <time>2024-06-11T14:47:00+02:00</time>
      </trkpt>
      <trkpt lat="44.27452" lon="6.43562">
        <ele>1431</ele>
        <time>2024-06-11T14:47:03+02:00</time>
      </trkpt>
      <trkpt lat="44.27452" lon="6.43542">
        <ele>1437</ele>
        <time>2024-06-11T14:47:18+02:00</time>
      </trkpt>
      <trkpt lat="44.27465" lon="6.4353">
        <ele>1436</ele>
        <time>2024-06-11T14:47:35+02:00</time>
      </trkpt>
      <trkpt lat="44.27492" lon="6.43522">
        <ele>1434</ele>
        <time>2024-06-11T14:47:52+02:00</time>
      </trkpt>
      <trkpt lat="44.27506" lon="6.43513">
        <ele>1437</ele>
        <time>2024-06-11T14:48:08+02:00</time>
      </trkpt>
      <trkpt lat="44.27518" lon="6.435">
        <ele>1438</ele>
        <time>2024-06-11T14:48:25+02:00</time>
      </trkpt>
      <trkpt lat="44.27528" lon="6.43487">
        <ele>1440</ele>
        <time>2024-06-11T14:48:39+02:00</time>
      </trkpt>
      <trkpt lat="44.27536" lon="6.4348">
        <ele>1441</ele>
        <time>2024-06-11T14:48:52+02:00</time>
      </trkpt>
      <trkpt lat="44.27541" lon="6.43473">
        <ele>1442</ele>
        <time>2024-06-11T14:49:07+02:00</time>
      </trkpt>
      <trkpt lat="44.27549" lon="6.43467">
        <ele>1443</ele>
        <time>2024-06-11T14:49:22+02:00</time>
      </trkpt>
      <trkpt lat="44.27555" lon="6.43466">
        <ele>1443</ele>
        <time>2024-06-11T14:49:40+02:00</time>
      </trkpt>
      <trkpt lat="44.27569" lon="6.43459">
        <ele>1446</ele>
        <time>2024-06-11T14:49:59+02:00</time>
      </trkpt>
      <trkpt lat="44.27576" lon="6.43447">
        <ele>1448</ele>
        <time>2024-06-11T14:50:14+02:00</time>
      </trkpt>
      <trkpt lat="44.27587" lon="6.43439">
        <ele>1450</ele>
        <time>2024-06-11T14:50:31+02:00</time>
      </trkpt>
      <trkpt lat="44.27596" lon="6.43424">
        <ele>1452</ele>
        <time>2024-06-11T14:50:48+02:00</time>
      </trkpt>
      <trkpt lat="44.27601" lon="6.43415">
        <ele>1454</ele>
        <time>2024-06-11T14:51:04+02:00</time>
      </trkpt>
      <trkpt lat="44.27613" lon="6.43408">
        <ele>1456</ele>
        <time>2024-06-11T14:51:17+02:00</time>
      </trkpt>
      <trkpt lat="44.27628" lon="6.43402">
        <ele>1459</ele>
        <time>2024-06-11T14:51:37+02:00</time>
      </trkpt>
      <trkpt lat="44.2764" lon="6.43395">
        <ele>1460</ele>
        <time>2024-06-11T14:51:54+02:00</time>
      </trkpt>
      <trkpt lat="44.27653" lon="6.43381">
        <ele>1461</ele>
        <time>2024-06-11T14:52:14+02:00</time>
      </trkpt>
      <trkpt lat="44.27664" lon="6.43372">
        <ele>1461</ele>
        <time>2024-06-11T14:52:28+02:00</time>
      </trkpt>
      <trkpt lat="44.27665" lon="6.43371">
        <ele>1461</ele>
        <time>2024-06-11T14:52:43+02:00</time>
      </trkpt>
      <trkpt lat="44.27669" lon="6.43361">
        <ele>1462</ele>
        <time>2024-06-11T14:53:02+02:00</time>
      </trkpt>
      <trkpt lat="44.27673" lon="6.43342">
        <ele>1466</ele>
        <time>2024-06-11T14:53:22+02:00</time>
      </trkpt>
      <trkpt lat="44.27677" lon="6.43325">
        <ele>1470</ele>
        <time>2024-06-11T14:53:43+02:00</time>
      </trkpt>
      <trkpt lat="44.27676" lon="6.4332">
        <ele>1471</ele>
        <time>2024-06-11T14:53:59+02:00</time>
      </trkpt>
      <trkpt lat="44.2767" lon="6.43312">
        <ele>1469</ele>
        <time>2024-06-11T14:54:18+02:00</time>
      </trkpt>
      <trkpt lat="44.27662" lon="6.43326">
        <ele>1468</ele>
        <time>2024-06-11T14:54:33+02:00</time>
      </trkpt>
      <trkpt lat="44.27652" lon="6.43335">
        <ele>1470</ele>
        <time>2024-06-11T14:54:47+02:00</time>
      </trkpt>
      <trkpt lat="44.27642" lon="6.43341">
        <ele>1472</ele>
        <time>2024-06-11T14:55:02+02:00</time>
      </trkpt>
      <trkpt lat="44.27632" lon="6.43346">
        <ele>1475</ele>
        <time>2024-06-11T14:55:21+02:00</time>
      </trkpt>
      <trkpt lat="44.27621" lon="6.43347">
        <ele>1478</ele>
        <time>2024-06-11T14:55:37+02:00</time>
      </trkpt>
      <trkpt lat="44.27618" lon="6.43346">
        <ele>1479</ele>
        <time>2024-06-11T14:55:41+02:00</time>
      </trkpt>
      <trkpt lat="44.27607" lon="6.4335">
        <ele>1480</ele>
        <time>2024-06-11T14:55:57+02:00</time>
      </trkpt>
      <trkpt lat="44.27612" lon="6.43352">
        <ele>1479</ele>
        <time>2024-06-11T14:56:24+02:00</time>
      </trkpt>
      <trkpt lat="44.27604" lon="6.43339">
        <ele>1484</ele>
        <time>2024-06-11T14:56:44+02:00</time>
      </trkpt>
      <trkpt lat="44.27598" lon="6.43321">
        <ele>1490</ele>
        <time>2024-06-11T14:57:03+02:00</time>
      </trkpt>
      <trkpt lat="44.27595" lon="6.43322">
        <ele>1489</ele>
        <time>2024-06-11T14:57:23+02:00</time>
      </trkpt>
      <trkpt lat="44.27595" lon="6.43319">
        <ele>1490</ele>
        <time>2024-06-11T14:57:46+02:00</time>
      </trkpt>
      <trkpt lat="44.27594" lon="6.43327">
        <ele>1487</ele>
        <time>2024-06-11T14:58:06+02:00</time>
      </trkpt>
      <trkpt lat="44.27599" lon="6.4332">
        <ele>1490</ele>
        <time>2024-06-11T14:58:23+02:00</time>
      </trkpt>
      <trkpt lat="44.27602" lon="6.43324">
        <ele>1489</ele>
        <time>2024-06-11T14:58:34+02:00</time>
      </trkpt>
      <trkpt lat="44.27609" lon="6.43328">
        <ele>1488</ele>
        <time>2024-06-11T14:58:46+02:00</time>
      </trkpt>
      <trkpt lat="44.27613" lon="6.43312">
        <ele>1493</ele>
        <time>2024-06-11T14:59:01+02:00</time>
      </trkpt>
      <trkpt lat="44.27616" lon="6.43301">
        <ele>1496</ele>
        <time>2024-06-11T14:59:14+02:00</time>
      </trkpt>
      <trkpt lat="44.27611" lon="6.43289">
        <ele>1501</ele>
        <time>2024-06-11T14:59:29+02:00</time>
      </trkpt>
      <trkpt lat="44.27608" lon="6.43283">
        <ele>1502</ele>
        <time>2024-06-11T14:59:47+02:00</time>
      </trkpt>
      <trkpt lat="44.27604" lon="6.43275">
        <ele>1504</ele>
        <time>2024-06-11T15:00:08+02:00</time>
      </trkpt>
      <trkpt lat="44.27603" lon="6.43255">
        <ele>1508</ele>
        <time>2024-06-11T15:00:25+02:00</time>
      </trkpt>
      <trkpt lat="44.27608" lon="6.43242">
        <ele>1512</ele>
        <time>2024-06-11T15:00:42+02:00</time>
      </trkpt>
      <trkpt lat="44.27608" lon="6.43236">
        <ele>1513</ele>
        <time>2024-06-11T15:00:59+02:00</time>
      </trkpt>
      <trkpt lat="44.27611" lon="6.43225">
        <ele>1515</ele>
        <time>2024-06-11T15:01:20+02:00</time>
      </trkpt>
      <trkpt lat="44.27607" lon="6.43216">
        <ele>1518</ele>
        <time>2024-06-11T15:01:37+02:00</time>
      </trkpt>
      <trkpt lat="44.2761" lon="6.43204">
        <ele>1520</ele>
        <time>2024-06-11T15:01:54+02:00</time>
      </trkpt>
      <trkpt lat="44.27616" lon="6.43202">
        <ele>1519</ele>
        <time>2024-06-11T15:02:10+02:00</time>
      </trkpt>
      <trkpt lat="44.27623" lon="6.43192">
        <ele>1519</ele>
        <time>2024-06-11T15:02:29+02:00</time>
      </trkpt>
      <trkpt lat="44.27622" lon="6.43173">
        <ele>1523</ele>
        <time>2024-06-11T15:02:48+02:00</time>
      </trkpt>
      <trkpt lat="44.27622" lon="6.43164">
        <ele>1525</ele>
        <time>2024-06-11T15:03:02+02:00</time>
      </trkpt>
      <trkpt lat="44.27619" lon="6.43148">
        <ele>1529</ele>
        <time>2024-06-11T15:03:21+02:00</time>
      </trkpt>
      <trkpt lat="44.2762" lon="6.43136">
        <ele>1531</ele>
        <time>2024-06-11T15:03:41+02:00</time>
      </trkpt>
      <trkpt lat="44.27624" lon="6.43124">
        <ele>1531</ele>
        <time>2024-06-11T15:03:59+02:00</time>
      </trkpt>
      <trkpt lat="44.27622" lon="6.43108">
        <ele>1534</ele>
        <time>2024-06-11T15:04:15+02:00</time>
      </trkpt>
      <trkpt lat="44.27617" lon="6.43109">
        <ele>1536</ele>
        <time>2024-06-11T15:04:40+02:00</time>
      </trkpt>
      <trkpt lat="44.27615" lon="6.4311">
        <ele>1537</ele>
        <time>2024-06-11T15:05:02+02:00</time>
      </trkpt>
      <trkpt lat="44.27611" lon="6.43092">
        <ele>1541</ele>
        <time>2024-06-11T15:05:18+02:00</time>
      </trkpt>
      <trkpt lat="44.27611" lon="6.4307">
        <ele>1545</ele>
        <time>2024-06-11T15:05:36+02:00</time>
      </trkpt>
      <trkpt lat="44.27619" lon="6.43064">
        <ele>1543</ele>
        <time>2024-06-11T15:05:54+02:00</time>
      </trkpt>
      <trkpt lat="44.27626" lon="6.43056">
        <ele>1543</ele>
        <time>2024-06-11T15:06:07+02:00</time>
      </trkpt>
      <trkpt lat="44.27634" lon="6.43038">
        <ele>1546</ele>
        <time>2024-06-11T15:06:21+02:00</time>
      </trkpt>
      <trkpt lat="44.27642" lon="6.43033">
        <ele>1547</ele>
        <time>2024-06-11T15:06:36+02:00</time>
      </trkpt>
      <trkpt lat="44.27655" lon="6.4302">
        <ele>1551</ele>
        <time>2024-06-11T15:06:53+02:00</time>
      </trkpt>
      <trkpt lat="44.27665" lon="6.43012">
        <ele>1553</ele>
        <time>2024-06-11T15:07:05+02:00</time>
      </trkpt>
      <trkpt lat="44.27674" lon="6.42999">
        <ele>1557</ele>
        <time>2024-06-11T15:07:21+02:00</time>
      </trkpt>
      <trkpt lat="44.27679" lon="6.42991">
        <ele>1559</ele>
        <time>2024-06-11T15:07:38+02:00</time>
      </trkpt>
      <trkpt lat="44.2768" lon="6.42988">
        <ele>1559</ele>
        <time>2024-06-11T15:08:00+02:00</time>
      </trkpt>
      <trkpt lat="44.27679" lon="6.42981">
        <ele>1560</ele>
        <time>2024-06-11T15:08:21+02:00</time>
      </trkpt>
      <trkpt lat="44.27682" lon="6.42966">
        <ele>1560</ele>
        <time>2024-06-11T15:08:39+02:00</time>
      </trkpt>
      <trkpt lat="44.2768" lon="6.42965">
        <ele>1560</ele>
        <time>2024-06-11T15:09:01+02:00</time>
      </trkpt>
      <trkpt lat="44.27684" lon="6.42959">
        <ele>1560</ele>
        <time>2024-06-11T15:09:20+02:00</time>
      </trkpt>
      <trkpt lat="44.27685" lon="6.42948">
        <ele>1560</ele>
        <time>2024-06-11T15:09:35+02:00</time>
      </trkpt>
      <trkpt lat="44.27681" lon="6.42945">
        <ele>1560</ele>
        <time>2024-06-11T15:09:43+02:00</time>
      </trkpt>
      <trkpt lat="44.27676" lon="6.42944">
        <ele>1560</ele>
        <time>2024-06-11T15:09:48+02:00</time>
      </trkpt>
      <trkpt lat="44.27668" lon="6.4294">
        <ele>1560</ele>
        <time>2024-06-11T15:09:57+02:00</time>
      </trkpt>
      <trkpt lat="44.27658" lon="6.4294">
        <ele>1560</ele>
        <time>2024-06-11T15:10:14+02:00</time>
      </trkpt>
      <trkpt lat="44.27657" lon="6.42941">
        <ele>1560</ele>
        <time>2024-06-11T15:10:31+02:00</time>
      </trkpt>
      <trkpt lat="44.27666" lon="6.42936">
        <ele>1560</ele>
        <time>2024-06-11T15:10:50+02:00</time>
      </trkpt>
      <trkpt lat="44.27678" lon="6.42932">
        <ele>1560</ele>
        <time>2024-06-11T15:11:05+02:00</time>
      </trkpt>
      <trkpt lat="44.27698" lon="6.42916">
        <ele>1559</ele>
        <time>2024-06-11T15:11:26+02:00</time>
      </trkpt>
      <trkpt lat="44.27717" lon="6.42895">
        <ele>1557</ele>
        <time>2024-06-11T15:11:47+02:00</time>
      </trkpt>
      <trkpt lat="44.2773" lon="6.42884">
        <ele>1557</ele>
        <time>2024-06-11T15:12:05+02:00</time>
      </trkpt>
      <trkpt lat="44.27735" lon="6.4288">
        <ele>1557</ele>
        <time>2024-06-11T15:12:22+02:00</time>
      </trkpt>
      <trkpt lat="44.27736" lon="6.42876">
        <ele>1557</ele>
        <time>2024-06-11T15:12:36+02:00</time>
      </trkpt>
      <trkpt lat="44.2775" lon="6.4286">
        <ele>1557</ele>
        <time>2024-06-11T15:12:54+02:00</time>
      </trkpt>
      <trkpt lat="44.27764" lon="6.42836">
        <ele>1555</ele>
        <time>2024-06-11T15:13:17+02:00</time>
      </trkpt>
      <trkpt lat="44.27769" lon="6.42827">
        <ele>1554</ele>
        <time>2024-06-11T15:13:28+02:00</time>
      </trkpt>
      <trkpt lat="44.27779" lon="6.42803">
        <ele>1552</ele>
        <time>2024-06-11T15:13:46+02:00</time>
      </trkpt>
      <trkpt lat="44.27782" lon="6.42796">
        <ele>1551</ele>
        <time>2024-06-11T15:13:52+02:00</time>
      </trkpt>
      <trkpt lat="44.27785" lon="6.4279">
        <ele>1550</ele>
        <time>2024-06-11T15:13:56+02:00</time>
      </trkpt>
      <trkpt lat="44.27801" lon="6.42763">
        <ele>1547</ele>
        <time>2024-06-11T15:14:16+02:00</time>
      </trkpt>
      <trkpt lat="44.2781" lon="6.42754">
        <ele>1547</ele>
        <time>2024-06-11T15:14:26+02:00</time>
      </trkpt>
      <trkpt lat="44.27823" lon="6.42735">
        <ele>1545</ele>
        <time>2024-06-11T15:14:44+02:00</time>
      </trkpt>
      <trkpt lat="44.27834" lon="6.42714">
        <ele>1543</ele>
        <time>2024-06-11T15:15:03+02:00</time>
      </trkpt>
      <trkpt lat="44.27848" lon="6.42691">
        <ele>1540</ele>
        <time>2024-06-11T15:15:25+02:00</time>
      </trkpt>
      <trkpt lat="44.27849" lon="6.42686">
        <ele>1539</ele>
        <time>2024-06-11T15:15:42+02:00</time>
      </trkpt>
      <trkpt lat="44.2786" lon="6.42675">
        <ele>1539</ele>
        <time>2024-06-11T15:15:59+02:00</time>
      </trkpt>
      <trkpt lat="44.27863" lon="6.42663">
        <ele>1537</ele>
        <time>2024-06-11T15:16:17+02:00</time>
      </trkpt>
      <trkpt lat="44.27865" lon="6.42651">
        <ele>1535</ele>
        <time>2024-06-11T15:16:37+02:00</time>
      </trkpt>
      <trkpt lat="44.27872" lon="6.42633">
        <ele>1533</ele>
        <time>2024-06-11T15:16:52+02:00</time>
      </trkpt>
      <trkpt lat="44.27882" lon="6.42614">
        <ele>1532</ele>
        <time>2024-06-11T15:17:09+02:00</time>
      </trkpt>
      <trkpt lat="44.2789" lon="6.42602">
        <ele>1532</ele>
        <time>2024-06-11T15:17:25+02:00</time>
      </trkpt>
      <trkpt lat="44.27903" lon="6.42592">
        <ele>1533</ele>
        <time>2024-06-11T15:17:41+02:00</time>
      </trkpt>
      <trkpt lat="44.27914" lon="6.42587">
        <ele>1534</ele>
        <time>2024-06-11T15:17:56+02:00</time>
      </trkpt>
      <trkpt lat="44.2792" lon="6.42564">
        <ele>1526</ele>
        <time>2024-06-11T15:18:15+02:00</time>
      </trkpt>
      <trkpt lat="44.27907" lon="6.42558">
        <ele>1523</ele>
        <time>2024-06-11T15:18:35+02:00</time>
      </trkpt>
      <trkpt lat="44.27905" lon="6.42548">
        <ele>1519</ele>
        <time>2024-06-11T15:18:50+02:00</time>
      </trkpt>
      <trkpt lat="44.27903" lon="6.42539">
        <ele>1516</ele>
        <time>2024-06-11T15:19:04+02:00</time>
      </trkpt>
      <trkpt lat="44.27899" lon="6.42532">
        <ele>1514</ele>
        <time>2024-06-11T15:19:21+02:00</time>
      </trkpt>
      <trkpt lat="44.27893" lon="6.42521">
        <ele>1512</ele>
        <time>2024-06-11T15:19:36+02:00</time>
      </trkpt>
      <trkpt lat="44.27887" lon="6.4251">
        <ele>1509</ele>
        <time>2024-06-11T15:19:53+02:00</time>
      </trkpt>
      <trkpt lat="44.27886" lon="6.42501">
        <ele>1506</ele>
        <time>2024-06-11T15:20:01+02:00</time>
      </trkpt>
      <trkpt lat="44.27886" lon="6.42484">
        <ele>1503</ele>
        <time>2024-06-11T15:20:17+02:00</time>
      </trkpt>
      <trkpt lat="44.27891" lon="6.42473">
        <ele>1501</ele>
        <time>2024-06-11T15:20:35+02:00</time>
      </trkpt>
      <trkpt lat="44.27892" lon="6.42461">
        <ele>1497</ele>
        <time>2024-06-11T15:20:48+02:00</time>
      </trkpt>
      <trkpt lat="44.27892" lon="6.42451">
        <ele>1495</ele>
        <time>2024-06-11T15:21:03+02:00</time>
      </trkpt>
      <trkpt lat="44.27895" lon="6.4244">
        <ele>1491</ele>
        <time>2024-06-11T15:21:18+02:00</time>
      </trkpt>
      <trkpt lat="44.27897" lon="6.42428">
        <ele>1488</ele>
        <time>2024-06-11T15:21:33+02:00</time>
      </trkpt>
      <trkpt lat="44.279" lon="6.42416">
        <ele>1484</ele>
        <time>2024-06-11T15:21:49+02:00</time>
      </trkpt>
      <trkpt lat="44.27904" lon="6.42405">
        <ele>1481</ele>
        <time>2024-06-11T15:22:02+02:00</time>
      </trkpt>
      <trkpt lat="44.27904" lon="6.42388">
        <ele>1478</ele>
        <time>2024-06-11T15:22:17+02:00</time>
      </trkpt>
      <trkpt lat="44.27907" lon="6.42375">
        <ele>1474</ele>
        <time>2024-06-11T15:22:32+02:00</time>
      </trkpt>
      <trkpt lat="44.27908" lon="6.42371">
        <ele>1473</ele>
        <time>2024-06-11T15:22:45+02:00</time>
      </trkpt>
      <trkpt lat="44.27909" lon="6.42371">
        <ele>1473</ele>
        <time>2024-06-11T15:23:01+02:00</time>
      </trkpt>
      <trkpt lat="44.27906" lon="6.42369">
        <ele>1473</ele>
        <time>2024-06-11T15:23:39+02:00</time>
      </trkpt>
      <trkpt lat="44.27908" lon="6.42368">
        <ele>1472</ele>
        <time>2024-06-11T15:24:14+02:00</time>
      </trkpt>
      <trkpt lat="44.27909" lon="6.4237">
        <ele>1473</ele>
        <time>2024-06-11T15:24:27+02:00</time>
      </trkpt>
      <trkpt lat="44.27909" lon="6.42367">
        <ele>1472</ele>
        <time>2024-06-11T15:24:45+02:00</time>
      </trkpt>
      <trkpt lat="44.27909" lon="6.42366">
        <ele>1472</ele>
        <time>2024-06-11T15:24:46+02:00</time>
      </trkpt>
      <trkpt lat="44.27907" lon="6.42361">
        <ele>1471</ele>
        <time>2024-06-11T15:24:56+02:00</time>
      </trkpt>
      <trkpt lat="44.2791" lon="6.42351">
        <ele>1467</ele>
        <time>2024-06-11T15:25:13+02:00</time>
      </trkpt>
      <trkpt lat="44.27908" lon="6.4234">
        <ele>1465</ele>
        <time>2024-06-11T15:25:28+02:00</time>
      </trkpt>
      <trkpt lat="44.27908" lon="6.42338">
        <ele>1464</ele>
        <time>2024-06-11T15:25:32+02:00</time>
      </trkpt>
      <trkpt lat="44.279" lon="6.42315">
        <ele>1460</ele>
        <time>2024-06-11T15:25:51+02:00</time>
      </trkpt>
      <trkpt lat="44.27895" lon="6.42311">
        <ele>1461</ele>
        <time>2024-06-11T15:26:08+02:00</time>
      </trkpt>
      <trkpt lat="44.27894" lon="6.423">
        <ele>1458</ele>
        <time>2024-06-11T15:26:25+02:00</time>
      </trkpt>
      <trkpt lat="44.27888" lon="6.42293">
        <ele>1459</ele>
        <time>2024-06-11T15:26:36+02:00</time>
      </trkpt>
      <trkpt lat="44.27884" lon="6.42272">
        <ele>1453</ele>
        <time>2024-06-11T15:26:49+02:00</time>
      </trkpt>
      <trkpt lat="44.27881" lon="6.42259">
        <ele>1450</ele>
        <time>2024-06-11T15:27:03+02:00</time>
      </trkpt>
      <trkpt lat="44.27879" lon="6.42247">
        <ele>1448</ele>
        <time>2024-06-11T15:27:16+02:00</time>
      </trkpt>
      <trkpt lat="44.27876" lon="6.42229">
        <ele>1443</ele>
        <time>2024-06-11T15:27:29+02:00</time>
      </trkpt>
      <trkpt lat="44.27873" lon="6.42212">
        <ele>1440</ele>
        <time>2024-06-11T15:27:42+02:00</time>
      </trkpt>
      <trkpt lat="44.27872" lon="6.42199">
        <ele>1438</ele>
        <time>2024-06-11T15:27:56+02:00</time>
      </trkpt>
      <trkpt lat="44.27872" lon="6.42175">
        <ele>1433</ele>
        <time>2024-06-11T15:28:11+02:00</time>
      </trkpt>
      <trkpt lat="44.2787" lon="6.42154">
        <ele>1429</ele>
        <time>2024-06-11T15:28:25+02:00</time>
      </trkpt>
      <trkpt lat="44.27872" lon="6.42137">
        <ele>1426</ele>
        <time>2024-06-11T15:28:38+02:00</time>
      </trkpt>
      <trkpt lat="44.27874" lon="6.42125">
        <ele>1422</ele>
        <time>2024-06-11T15:28:51+02:00</time>
      </trkpt>
      <trkpt lat="44.27882" lon="6.42115">
        <ele>1419</ele>
        <time>2024-06-11T15:29:07+02:00</time>
      </trkpt>
      <trkpt lat="44.27885" lon="6.42103">
        <ele>1416</ele>
        <time>2024-06-11T15:29:22+02:00</time>
      </trkpt>
      <trkpt lat="44.27885" lon="6.42091">
        <ele>1413</ele>
        <time>2024-06-11T15:29:38+02:00</time>
      </trkpt>
      <trkpt lat="44.2789" lon="6.42078">
        <ele>1410</ele>
        <time>2024-06-11T15:29:53+02:00</time>
      </trkpt>
      <trkpt lat="44.27892" lon="6.42062">
        <ele>1406</ele>
        <time>2024-06-11T15:30:07+02:00</time>
      </trkpt>
      <trkpt lat="44.27888" lon="6.4205">
        <ele>1404</ele>
        <time>2024-06-11T15:30:22+02:00</time>
      </trkpt>
      <trkpt lat="44.27889" lon="6.42036">
        <ele>1402</ele>
        <time>2024-06-11T15:30:39+02:00</time>
      </trkpt>
      <trkpt lat="44.2789" lon="6.42036">
        <ele>1402</ele>
        <time>2024-06-11T15:30:46+02:00</time>
      </trkpt>
      <trkpt lat="44.27899" lon="6.42039">
        <ele>1399</ele>
        <time>2024-06-11T15:30:59+02:00</time>
      </trkpt>
      <trkpt lat="44.27905" lon="6.42039">
        <ele>1397</ele>
        <time>2024-06-11T15:31:14+02:00</time>
      </trkpt>
      <trkpt lat="44.27904" lon="6.42041">
        <ele>1398</ele>
        <time>2024-06-11T15:31:32+02:00</time>
      </trkpt>
      <trkpt lat="44.27904" lon="6.42046">
        <ele>1398</ele>
        <time>2024-06-11T15:31:36+02:00</time>
      </trkpt>
      <trkpt lat="44.27915" lon="6.42067">
        <ele>1398</ele>
        <time>2024-06-11T15:31:54+02:00</time>
      </trkpt>
      <trkpt lat="44.27919" lon="6.42069">
        <ele>1396</ele>
        <time>2024-06-11T15:31:57+02:00</time>
      </trkpt>
      <trkpt lat="44.27929" lon="6.42079">
        <ele>1390</ele>
        <time>2024-06-11T15:32:09+02:00</time>
      </trkpt>
      <trkpt lat="44.27937" lon="6.42103">
        <ele>1390</ele>
        <time>2024-06-11T15:32:27+02:00</time>
      </trkpt>
      <trkpt lat="44.27945" lon="6.42133">
        <ele>1394</ele>
        <time>2024-06-11T15:32:47+02:00</time>
      </trkpt>
      <trkpt lat="44.27946" lon="6.42134">
        <ele>1394</ele>
        <time>2024-06-11T15:32:48+02:00</time>
      </trkpt>
      <trkpt lat="44.27952" lon="6.42137">
        <ele>1392</ele>
        <time>2024-06-11T15:32:53+02:00</time>
      </trkpt>
      <trkpt lat="44.27966" lon="6.42141">
        <ele>1387</ele>
        <time>2024-06-11T15:33:07+02:00</time>
      </trkpt>
      <trkpt lat="44.27983" lon="6.42154">
        <ele>1384</ele>
        <time>2024-06-11T15:33:23+02:00</time>
      </trkpt>
      <trkpt lat="44.27995" lon="6.42168">
        <ele>1381</ele>
        <time>2024-06-11T15:33:39+02:00</time>
      </trkpt>
      <trkpt lat="44.27998" lon="6.42179">
        <ele>1381</ele>
        <time>2024-06-11T15:33:47+02:00</time>
      </trkpt>
      <trkpt lat="44.28" lon="6.42182">
        <ele>1380</ele>
        <time>2024-06-11T15:33:49+02:00</time>
      </trkpt>
      <trkpt lat="44.2801" lon="6.42207">
        <ele>1380</ele>
        <time>2024-06-11T15:34:08+02:00</time>
      </trkpt>
      <trkpt lat="44.28014" lon="6.4221">
        <ele>1380</ele>
        <time>2024-06-11T15:34:12+02:00</time>
      </trkpt>
      <trkpt lat="44.28024" lon="6.42202">
        <ele>1376</ele>
        <time>2024-06-11T15:34:23+02:00</time>
      </trkpt>
      <trkpt lat="44.28019" lon="6.42181">
        <ele>1375</ele>
        <time>2024-06-11T15:34:41+02:00</time>
      </trkpt>
      <trkpt lat="44.2801" lon="6.4216">
        <ele>1375</ele>
        <time>2024-06-11T15:35:00+02:00</time>
      </trkpt>
      <trkpt lat="44.28" lon="6.4214">
        <ele>1375</ele>
        <time>2024-06-11T15:35:17+02:00</time>
      </trkpt>
      <trkpt lat="44.27989" lon="6.42103">
        <ele>1370</ele>
        <time>2024-06-11T15:35:36+02:00</time>
      </trkpt>
      <trkpt lat="44.2798" lon="6.42086">
        <ele>1368</ele>
        <time>2024-06-11T15:35:55+02:00</time>
      </trkpt>
      <trkpt lat="44.27973" lon="6.42068">
        <ele>1366</ele>
        <time>2024-06-11T15:36:13+02:00</time>
      </trkpt>
      <trkpt lat="44.27969" lon="6.42041">
        <ele>1362</ele>
        <time>2024-06-11T15:36:33+02:00</time>
      </trkpt>
      <trkpt lat="44.27966" lon="6.42019">
        <ele>1359</ele>
        <time>2024-06-11T15:36:48+02:00</time>
      </trkpt>
      <trkpt lat="44.2796" lon="6.41991">
        <ele>1356</ele>
        <time>2024-06-11T15:37:05+02:00</time>
      </trkpt>
      <trkpt lat="44.27958" lon="6.41963">
        <ele>1350</ele>
        <time>2024-06-11T15:37:22+02:00</time>
      </trkpt>
      <trkpt lat="44.27958" lon="6.41936">
        <ele>1346</ele>
        <time>2024-06-11T15:37:40+02:00</time>
      </trkpt>
      <trkpt lat="44.27956" lon="6.41913">
        <ele>1345</ele>
        <time>2024-06-11T15:37:57+02:00</time>
      </trkpt>
      <trkpt lat="44.27957" lon="6.41893">
        <ele>1342</ele>
        <time>2024-06-11T15:38:05+02:00</time>
      </trkpt>
      <trkpt lat="44.27949" lon="6.41862">
        <ele>1337</ele>
        <time>2024-06-11T15:38:24+02:00</time>
      </trkpt>
      <trkpt lat="44.27947" lon="6.41859">
        <ele>1337</ele>
        <time>2024-06-11T15:38:27+02:00</time>
      </trkpt>
      <trkpt lat="44.27928" lon="6.41846">
        <ele>1337</ele>
        <time>2024-06-11T15:38:47+02:00</time>
      </trkpt>
      <trkpt lat="44.27908" lon="6.4185">
        <ele>1340</ele>
        <time>2024-06-11T15:39:07+02:00</time>
      </trkpt>
      <trkpt lat="44.27901" lon="6.41833">
        <ele>1335</ele>
        <time>2024-06-11T15:39:23+02:00</time>
      </trkpt>
      <trkpt lat="44.27913" lon="6.41821">
        <ele>1332</ele>
        <time>2024-06-11T15:39:41+02:00</time>
      </trkpt>
      <trkpt lat="44.27933" lon="6.41813">
        <ele>1329</ele>
        <time>2024-06-11T15:40:01+02:00</time>
      </trkpt>
      <trkpt lat="44.27947" lon="6.41809">
        <ele>1327</ele>
        <time>2024-06-11T15:40:17+02:00</time>
      </trkpt>
      <trkpt lat="44.27956" lon="6.41804">
        <ele>1326</ele>
        <time>2024-06-11T15:40:31+02:00</time>
      </trkpt>
      <trkpt lat="44.27972" lon="6.41792">
        <ele>1324</ele>
        <time>2024-06-11T15:40:50+02:00</time>
      </trkpt>
      <trkpt lat="44.27981" lon="6.41774">
        <ele>1324</ele>
        <time>2024-06-11T15:41:08+02:00</time>
      </trkpt>
      <trkpt lat="44.27985" lon="6.41756">
        <ele>1324</ele>
        <time>2024-06-11T15:41:25+02:00</time>
      </trkpt>
      <trkpt lat="44.27986" lon="6.41743">
        <ele>1324</ele>
        <time>2024-06-11T15:41:34+02:00</time>
      </trkpt>
      <trkpt lat="44.27986" lon="6.41718">
        <ele>1324</ele>
        <time>2024-06-11T15:41:50+02:00</time>
      </trkpt>
      <trkpt lat="44.27985" lon="6.41714">
        <ele>1324</ele>
        <time>2024-06-11T15:41:52+02:00</time>
      </trkpt>
      <trkpt lat="44.27976" lon="6.41692">
        <ele>1321</ele>
        <time>2024-06-11T15:42:08+02:00</time>
      </trkpt>
      <trkpt lat="44.2797" lon="6.41669">
        <ele>1321</ele>
        <time>2024-06-11T15:42:24+02:00</time>
      </trkpt>
      <trkpt lat="44.27969" lon="6.41651">
        <ele>1321</ele>
        <time>2024-06-11T15:42:39+02:00</time>
      </trkpt>
      <trkpt lat="44.2797" lon="6.41645">
        <ele>1321</ele>
        <time>2024-06-11T15:42:43+02:00</time>
      </trkpt>
      <trkpt lat="44.27969" lon="6.4164">
        <ele>1321</ele>
        <time>2024-06-11T15:42:46+02:00</time>
      </trkpt>
      <trkpt lat="44.27969" lon="6.41612">
        <ele>1319</ele>
        <time>2024-06-11T15:43:05+02:00</time>
      </trkpt>
      <trkpt lat="44.2797" lon="6.41593">
        <ele>1317</ele>
        <time>2024-06-11T15:43:20+02:00</time>
      </trkpt>
      <trkpt lat="44.27972" lon="6.41557">
        <ele>1312</ele>
        <time>2024-06-11T15:43:41+02:00</time>
      </trkpt>
      <trkpt lat="44.27972" lon="6.41555">
        <ele>1312</ele>
        <time>2024-06-11T15:43:42+02:00</time>
      </trkpt>
      <trkpt lat="44.27979" lon="6.41524">
        <ele>1309</ele>
        <time>2024-06-11T15:44:01+02:00</time>
      </trkpt>
      <trkpt lat="44.27979" lon="6.41493">
        <ele>1305</ele>
        <time>2024-06-11T15:44:19+02:00</time>
      </trkpt>
      <trkpt lat="44.2797" lon="6.41467">
        <ele>1300</ele>
        <time>2024-06-11T15:44:38+02:00</time>
      </trkpt>
      <trkpt lat="44.27965" lon="6.41454">
        <ele>1299</ele>
        <time>2024-06-11T15:44:47+02:00</time>
      </trkpt>
      <trkpt lat="44.27959" lon="6.41425">
        <ele>1296</ele>
        <time>2024-06-11T15:45:03+02:00</time>
      </trkpt>
      <trkpt lat="44.27952" lon="6.41391">
        <ele>1292</ele>
        <time>2024-06-11T15:45:23+02:00</time>
      </trkpt>
      <trkpt lat="44.27945" lon="6.41362">
        <ele>1289</ele>
        <time>2024-06-11T15:45:43+02:00</time>
      </trkpt>
      <trkpt lat="44.27938" lon="6.41333">
        <ele>1287</ele>
        <time>2024-06-11T15:46:01+02:00</time>
      </trkpt>
      <trkpt lat="44.27931" lon="6.41304">
        <ele>1285</ele>
        <time>2024-06-11T15:46:20+02:00</time>
      </trkpt>
      <trkpt lat="44.27926" lon="6.41272">
        <ele>1283</ele>
        <time>2024-06-11T15:46:40+02:00</time>
      </trkpt>
      <trkpt lat="44.27923" lon="6.41247">
        <ele>1281</ele>
        <time>2024-06-11T15:46:58+02:00</time>
      </trkpt>
      <trkpt lat="44.27924" lon="6.41217">
        <ele>1279</ele>
        <time>2024-06-11T15:47:17+02:00</time>
      </trkpt>
      <trkpt lat="44.27925" lon="6.41192">
        <ele>1279</ele>
        <time>2024-06-11T15:47:34+02:00</time>
      </trkpt>
      <trkpt lat="44.27941" lon="6.41174">
        <ele>1278</ele>
        <time>2024-06-11T15:47:53+02:00</time>
      </trkpt>
      <trkpt lat="44.27963" lon="6.41159">
        <ele>1278</ele>
        <time>2024-06-11T15:48:13+02:00</time>
      </trkpt>
      <trkpt lat="44.27997" lon="6.41143">
        <ele>1279</ele>
        <time>2024-06-11T15:48:37+02:00</time>
      </trkpt>
      <trkpt lat="44.28018" lon="6.41139">
        <ele>1282</ele>
        <time>2024-06-11T15:48:59+02:00</time>
      </trkpt>
      <trkpt lat="44.28042" lon="6.41132">
        <ele>1282</ele>
        <time>2024-06-11T15:49:19+02:00</time>
      </trkpt>
      <trkpt lat="44.28059" lon="6.41133">
        <ele>1283</ele>
        <time>2024-06-11T15:49:36+02:00</time>
      </trkpt>
      <trkpt lat="44.28078" lon="6.4113">
        <ele>1280</ele>
        <time>2024-06-11T15:49:54+02:00</time>
      </trkpt>
      <trkpt lat="44.28095" lon="6.41123">
        <ele>1279</ele>
        <time>2024-06-11T15:50:14+02:00</time>
      </trkpt>
      <trkpt lat="44.28123" lon="6.41116">
        <ele>1279</ele>
        <time>2024-06-11T15:50:37+02:00</time>
      </trkpt>
      <trkpt lat="44.28143" lon="6.41101">
        <ele>1279</ele>
        <time>2024-06-11T15:50:55+02:00</time>
      </trkpt>
      <trkpt lat="44.28143" lon="6.41085">
        <ele>1278</ele>
        <time>2024-06-11T15:51:11+02:00</time>
      </trkpt>
      <trkpt lat="44.28137" lon="6.41079">
        <ele>1278</ele>
        <time>2024-06-11T15:51:19+02:00</time>
      </trkpt>
      <trkpt lat="44.28119" lon="6.41063">
        <ele>1276</ele>
        <time>2024-06-11T15:51:39+02:00</time>
      </trkpt>
      <trkpt lat="44.281" lon="6.41047">
        <ele>1273</ele>
        <time>2024-06-11T15:51:59+02:00</time>
      </trkpt>
      <trkpt lat="44.28086" lon="6.41029">
        <ele>1270</ele>
        <time>2024-06-11T15:52:16+02:00</time>
      </trkpt>
      <trkpt lat="44.28083" lon="6.41026">
        <ele>1270</ele>
        <time>2024-06-11T15:52:20+02:00</time>
      </trkpt>
      <trkpt lat="44.28079" lon="6.41022">
        <ele>1270</ele>
        <time>2024-06-11T15:52:24+02:00</time>
      </trkpt>
      <trkpt lat="44.28061" lon="6.41">
        <ele>1272</ele>
        <time>2024-06-11T15:52:42+02:00</time>
      </trkpt>
      <trkpt lat="44.28049" lon="6.40986">
        <ele>1272</ele>
        <time>2024-06-11T15:52:59+02:00</time>
      </trkpt>
      <trkpt lat="44.28036" lon="6.40972">
        <ele>1271</ele>
        <time>2024-06-11T15:53:17+02:00</time>
      </trkpt>
      <trkpt lat="44.28019" lon="6.40955">
        <ele>1269</ele>
        <time>2024-06-11T15:53:36+02:00</time>
      </trkpt>
      <trkpt lat="44.28001" lon="6.40942">
        <ele>1265</ele>
        <time>2024-06-11T15:53:51+02:00</time>
      </trkpt>
      <trkpt lat="44.27985" lon="6.40926">
        <ele>1265</ele>
        <time>2024-06-11T15:54:08+02:00</time>
      </trkpt>
      <trkpt lat="44.27977" lon="6.40919">
        <ele>1265</ele>
        <time>2024-06-11T15:54:15+02:00</time>
      </trkpt>
      <trkpt lat="44.27967" lon="6.40906">
        <ele>1267</ele>
        <time>2024-06-11T15:54:28+02:00</time>
      </trkpt>
      <trkpt lat="44.27955" lon="6.40887">
        <ele>1268</ele>
        <time>2024-06-11T15:54:47+02:00</time>
      </trkpt>
      <trkpt lat="44.27941" lon="6.40863">
        <ele>1270</ele>
        <time>2024-06-11T15:55:04+02:00</time>
      </trkpt>
      <trkpt lat="44.2792" lon="6.40832">
        <ele>1270</ele>
        <time>2024-06-11T15:55:23+02:00</time>
      </trkpt>
      <trkpt lat="44.27909" lon="6.4081">
        <ele>1270</ele>
        <time>2024-06-11T15:55:39+02:00</time>
      </trkpt>
      <trkpt lat="44.27905" lon="6.40801">
        <ele>1270</ele>
        <time>2024-06-11T15:55:46+02:00</time>
      </trkpt>
      <trkpt lat="44.27896" lon="6.40773">
        <ele>1269</ele>
        <time>2024-06-11T15:56:06+02:00</time>
      </trkpt>
      <trkpt lat="44.27891" lon="6.40756">
        <ele>1268</ele>
        <time>2024-06-11T15:56:19+02:00</time>
      </trkpt>
      <trkpt lat="44.27885" lon="6.40745">
        <ele>1268</ele>
        <time>2024-06-11T15:56:36+02:00</time>
      </trkpt>
      <trkpt lat="44.27876" lon="6.40741">
        <ele>1268</ele>
        <time>2024-06-11T15:56:51+02:00</time>
      </trkpt>
      <trkpt lat="44.27875" lon="6.40744">
        <ele>1268</ele>
        <time>2024-06-11T15:57:07+02:00</time>
      </trkpt>
    </trkseg>
  </trk>
</gpx>